<?xml version="1.0" encoding="UTF-8" standalone="no" ?>
<gpx xmlns="http://www.topografix.com/GPX/1/1" xmlns:xsi="http://www.w3.org/2001/XMLSchema-instance" xsi:schemaLocation="http://www.topografix.com/GPX/1/1 http://www.topografix.com/GPX/1/1/gpx.xsd" version="1.1" creator="VisuGPX - https://www.visugpx.com">
  <metadata>
    <name>Tuc de la Huste</name>
    <desc><![CDATA[Parcours assez raide au départ d'Estupas, via les cabanes de Mailhs et du Pla de Courtaou de Pla, ou vous pourrez découvrir les ancètres du réfrigérateur...
Cap au nord pour passer sous les barrières de Pène Lisse et ensuite prendre nord ouest pour atteindre le sommet du Cot de la Huste (1436m). De là, vous avez un magnifique point de vue sur la vallée de Campan, le pic du Midi, et la vallée de Payolle. 
Le retour s'effectue via la cabane de Banios, par les cabanes du Courtaou d'Ourdincède, jusqu'au pont de la Moulette]]></desc>
  </metadata>
  <trk>
    <name><![CDATA[TracA- actuel- 03 SEPT 2017 08-50]]></name>
    <trkseg>
      <trkpt lat="42.97553" lon="0.24355">
        <ele>915.91</ele>
        <time>2017-09-03T07:50:09Z</time>
      </trkpt>
      <trkpt lat="42.97551" lon="0.24358">
        <ele>915.64</ele>
        <time>2017-09-03T07:50:37Z</time>
      </trkpt>
      <trkpt lat="42.9753" lon="0.24378">
        <ele>915.77</ele>
        <time>2017-09-03T07:51:00Z</time>
      </trkpt>
      <trkpt lat="42.97516" lon="0.24378">
        <ele>915.88</ele>
        <time>2017-09-03T07:51:17Z</time>
      </trkpt>
      <trkpt lat="42.97517" lon="0.24375">
        <ele>916.54</ele>
        <time>2017-09-03T07:51:37Z</time>
      </trkpt>
      <trkpt lat="42.97515" lon="0.24371">
        <ele>916.7</ele>
        <time>2017-09-03T07:51:46Z</time>
      </trkpt>
      <trkpt lat="42.97511" lon="0.2437">
        <ele>916.97</ele>
        <time>2017-09-03T07:51:50Z</time>
      </trkpt>
      <trkpt lat="42.975" lon="0.24371">
        <ele>918.3</ele>
        <time>2017-09-03T07:52:02Z</time>
      </trkpt>
      <trkpt lat="42.97491" lon="0.24377">
        <ele>919.54</ele>
        <time>2017-09-03T07:52:15Z</time>
      </trkpt>
      <trkpt lat="42.9749" lon="0.24381">
        <ele>920.62</ele>
        <time>2017-09-03T07:52:30Z</time>
      </trkpt>
      <trkpt lat="42.97489" lon="0.24381">
        <ele>920.68</ele>
        <time>2017-09-03T07:52:31Z</time>
      </trkpt>
      <trkpt lat="42.97484" lon="0.24388">
        <ele>921.55</ele>
        <time>2017-09-03T07:52:40Z</time>
      </trkpt>
      <trkpt lat="42.97481" lon="0.24394">
        <ele>921.9</ele>
        <time>2017-09-03T07:52:45Z</time>
      </trkpt>
      <trkpt lat="42.97479" lon="0.24407">
        <ele>922.68</ele>
        <time>2017-09-03T07:52:55Z</time>
      </trkpt>
      <trkpt lat="42.9748" lon="0.24411">
        <ele>922.9</ele>
        <time>2017-09-03T07:52:58Z</time>
      </trkpt>
      <trkpt lat="42.97478" lon="0.2442">
        <ele>923.65</ele>
        <time>2017-09-03T07:53:05Z</time>
      </trkpt>
      <trkpt lat="42.97477" lon="0.24423">
        <ele>923.84</ele>
        <time>2017-09-03T07:53:07Z</time>
      </trkpt>
      <trkpt lat="42.97476" lon="0.24426">
        <ele>924.12</ele>
        <time>2017-09-03T07:53:10Z</time>
      </trkpt>
      <trkpt lat="42.97475" lon="0.24434">
        <ele>924.78</ele>
        <time>2017-09-03T07:53:16Z</time>
      </trkpt>
      <trkpt lat="42.97474" lon="0.24437">
        <ele>925.09</ele>
        <time>2017-09-03T07:53:18Z</time>
      </trkpt>
      <trkpt lat="42.97474" lon="0.24442">
        <ele>925.78</ele>
        <time>2017-09-03T07:53:22Z</time>
      </trkpt>
      <trkpt lat="42.97474" lon="0.2445">
        <ele>926.5</ele>
        <time>2017-09-03T07:53:28Z</time>
      </trkpt>
      <trkpt lat="42.97476" lon="0.24455">
        <ele>927.67</ele>
        <time>2017-09-03T07:53:41Z</time>
      </trkpt>
      <trkpt lat="42.97472" lon="0.24454">
        <ele>927.93</ele>
        <time>2017-09-03T07:54:03Z</time>
      </trkpt>
      <trkpt lat="42.97459" lon="0.24447">
        <ele>929.79</ele>
        <time>2017-09-03T07:54:26Z</time>
      </trkpt>
      <trkpt lat="42.97451" lon="0.24443">
        <ele>932.83</ele>
        <time>2017-09-03T07:54:45Z</time>
      </trkpt>
      <trkpt lat="42.97452" lon="0.24437">
        <ele>935.92</ele>
        <time>2017-09-03T07:55:05Z</time>
      </trkpt>
      <trkpt lat="42.9745" lon="0.24435">
        <ele>936.65</ele>
        <time>2017-09-03T07:55:10Z</time>
      </trkpt>
      <trkpt lat="42.97439" lon="0.24428">
        <ele>939.97</ele>
        <time>2017-09-03T07:55:30Z</time>
      </trkpt>
      <trkpt lat="42.97433" lon="0.24428">
        <ele>943.08</ele>
        <time>2017-09-03T07:55:49Z</time>
      </trkpt>
      <trkpt lat="42.97434" lon="0.24428">
        <ele>943.31</ele>
        <time>2017-09-03T07:55:56Z</time>
      </trkpt>
      <trkpt lat="42.97421" lon="0.24429">
        <ele>946.53</ele>
        <time>2017-09-03T07:56:16Z</time>
      </trkpt>
      <trkpt lat="42.97411" lon="0.2443">
        <ele>949.61</ele>
        <time>2017-09-03T07:56:35Z</time>
      </trkpt>
      <trkpt lat="42.97402" lon="0.2443">
        <ele>952.67</ele>
        <time>2017-09-03T07:56:53Z</time>
      </trkpt>
      <trkpt lat="42.97393" lon="0.2443">
        <ele>955.11</ele>
        <time>2017-09-03T07:57:12Z</time>
      </trkpt>
      <trkpt lat="42.97382" lon="0.24429">
        <ele>957.61</ele>
        <time>2017-09-03T07:57:31Z</time>
      </trkpt>
      <trkpt lat="42.97369" lon="0.24434">
        <ele>960.56</ele>
        <time>2017-09-03T07:57:48Z</time>
      </trkpt>
      <trkpt lat="42.97363" lon="0.24446">
        <ele>963.6</ele>
        <time>2017-09-03T07:58:05Z</time>
      </trkpt>
      <trkpt lat="42.97356" lon="0.24454">
        <ele>966.7</ele>
        <time>2017-09-03T07:58:22Z</time>
      </trkpt>
      <trkpt lat="42.9735" lon="0.24469">
        <ele>969.74</ele>
        <time>2017-09-03T07:58:41Z</time>
      </trkpt>
      <trkpt lat="42.97349" lon="0.24473">
        <ele>972.02</ele>
        <time>2017-09-03T07:59:02Z</time>
      </trkpt>
      <trkpt lat="42.97343" lon="0.24476">
        <ele>972.25</ele>
        <time>2017-09-03T07:59:18Z</time>
      </trkpt>
      <trkpt lat="42.97339" lon="0.24479">
        <ele>973.29</ele>
        <time>2017-09-03T07:59:35Z</time>
      </trkpt>
      <trkpt lat="42.97336" lon="0.24491">
        <ele>974.91</ele>
        <time>2017-09-03T07:59:49Z</time>
      </trkpt>
      <trkpt lat="42.97332" lon="0.24502">
        <ele>977.4</ele>
        <time>2017-09-03T08:00:03Z</time>
      </trkpt>
      <trkpt lat="42.97333" lon="0.24507">
        <ele>978.36</ele>
        <time>2017-09-03T08:00:08Z</time>
      </trkpt>
      <trkpt lat="42.97338" lon="0.24523">
        <ele>980.72</ele>
        <time>2017-09-03T08:00:25Z</time>
      </trkpt>
      <trkpt lat="42.97335" lon="0.24538">
        <ele>983.78</ele>
        <time>2017-09-03T08:00:45Z</time>
      </trkpt>
      <trkpt lat="42.9733" lon="0.24548">
        <ele>986.79</ele>
        <time>2017-09-03T08:01:02Z</time>
      </trkpt>
      <trkpt lat="42.97328" lon="0.24562">
        <ele>989.24</ele>
        <time>2017-09-03T08:01:19Z</time>
      </trkpt>
      <trkpt lat="42.97324" lon="0.24575">
        <ele>992.34</ele>
        <time>2017-09-03T08:01:37Z</time>
      </trkpt>
      <trkpt lat="42.97322" lon="0.24589">
        <ele>995.39</ele>
        <time>2017-09-03T08:01:55Z</time>
      </trkpt>
      <trkpt lat="42.97316" lon="0.24606">
        <ele>998.1</ele>
        <time>2017-09-03T08:02:15Z</time>
      </trkpt>
      <trkpt lat="42.97314" lon="0.24616">
        <ele>1000.91</ele>
        <time>2017-09-03T08:02:32Z</time>
      </trkpt>
      <trkpt lat="42.97312" lon="0.24633">
        <ele>1002.84</ele>
        <time>2017-09-03T08:02:49Z</time>
      </trkpt>
      <trkpt lat="42.97307" lon="0.24647">
        <ele>1005.25</ele>
        <time>2017-09-03T08:03:08Z</time>
      </trkpt>
      <trkpt lat="42.97304" lon="0.24658">
        <ele>1008.37</ele>
        <time>2017-09-03T08:03:26Z</time>
      </trkpt>
      <trkpt lat="42.973" lon="0.24671">
        <ele>1011.4</ele>
        <time>2017-09-03T08:03:45Z</time>
      </trkpt>
      <trkpt lat="42.97299" lon="0.24676">
        <ele>1013.3</ele>
        <time>2017-09-03T08:04:02Z</time>
      </trkpt>
      <trkpt lat="42.97304" lon="0.24678">
        <ele>1013.5</ele>
        <time>2017-09-03T08:04:31Z</time>
      </trkpt>
      <trkpt lat="42.97298" lon="0.24672">
        <ele>1013.41</ele>
        <time>2017-09-03T08:05:03Z</time>
      </trkpt>
      <trkpt lat="42.97301" lon="0.24668">
        <ele>1012.94</ele>
        <time>2017-09-03T08:05:23Z</time>
      </trkpt>
      <trkpt lat="42.97302" lon="0.24688">
        <ele>1014.75</ele>
        <time>2017-09-03T08:05:42Z</time>
      </trkpt>
      <trkpt lat="42.97298" lon="0.24707">
        <ele>1017.26</ele>
        <time>2017-09-03T08:06:00Z</time>
      </trkpt>
      <trkpt lat="42.97292" lon="0.24719">
        <ele>1019.52</ele>
        <time>2017-09-03T08:06:16Z</time>
      </trkpt>
      <trkpt lat="42.97289" lon="0.24729">
        <ele>1021.84</ele>
        <time>2017-09-03T08:06:36Z</time>
      </trkpt>
      <trkpt lat="42.97284" lon="0.24738">
        <ele>1024.69</ele>
        <time>2017-09-03T08:06:55Z</time>
      </trkpt>
      <trkpt lat="42.97279" lon="0.24749">
        <ele>1027.09</ele>
        <time>2017-09-03T08:07:12Z</time>
      </trkpt>
      <trkpt lat="42.97274" lon="0.24762">
        <ele>1029.94</ele>
        <time>2017-09-03T08:07:32Z</time>
      </trkpt>
      <trkpt lat="42.97272" lon="0.24781">
        <ele>1032.77</ele>
        <time>2017-09-03T08:07:52Z</time>
      </trkpt>
      <trkpt lat="42.97268" lon="0.24798">
        <ele>1035.64</ele>
        <time>2017-09-03T08:08:11Z</time>
      </trkpt>
      <trkpt lat="42.97263" lon="0.24816">
        <ele>1038.09</ele>
        <time>2017-09-03T08:08:30Z</time>
      </trkpt>
      <trkpt lat="42.97261" lon="0.24832">
        <ele>1041.23</ele>
        <time>2017-09-03T08:08:49Z</time>
      </trkpt>
      <trkpt lat="42.97258" lon="0.24849">
        <ele>1043.72</ele>
        <time>2017-09-03T08:09:07Z</time>
      </trkpt>
      <trkpt lat="42.97255" lon="0.24864">
        <ele>1046.84</ele>
        <time>2017-09-03T08:09:25Z</time>
      </trkpt>
      <trkpt lat="42.97253" lon="0.24878">
        <ele>1049.52</ele>
        <time>2017-09-03T08:09:42Z</time>
      </trkpt>
      <trkpt lat="42.97247" lon="0.24895">
        <ele>1052.41</ele>
        <time>2017-09-03T08:10:03Z</time>
      </trkpt>
      <trkpt lat="42.97243" lon="0.2491">
        <ele>1055.52</ele>
        <time>2017-09-03T08:10:20Z</time>
      </trkpt>
      <trkpt lat="42.97241" lon="0.24923">
        <ele>1058.75</ele>
        <time>2017-09-03T08:10:38Z</time>
      </trkpt>
      <trkpt lat="42.9724" lon="0.2494">
        <ele>1061.91</ele>
        <time>2017-09-03T08:10:58Z</time>
      </trkpt>
      <trkpt lat="42.97236" lon="0.24951">
        <ele>1065.04</ele>
        <time>2017-09-03T08:11:15Z</time>
      </trkpt>
      <trkpt lat="42.9723" lon="0.2497">
        <ele>1068.07</ele>
        <time>2017-09-03T08:11:33Z</time>
      </trkpt>
      <trkpt lat="42.97226" lon="0.24983">
        <ele>1070.52</ele>
        <time>2017-09-03T08:11:51Z</time>
      </trkpt>
      <trkpt lat="42.9722" lon="0.24996">
        <ele>1073.58</ele>
        <time>2017-09-03T08:12:10Z</time>
      </trkpt>
      <trkpt lat="42.97212" lon="0.25008">
        <ele>1076.74</ele>
        <time>2017-09-03T08:12:29Z</time>
      </trkpt>
      <trkpt lat="42.97205" lon="0.25017">
        <ele>1079.36</ele>
        <time>2017-09-03T08:12:47Z</time>
      </trkpt>
      <trkpt lat="42.97196" lon="0.25027">
        <ele>1082.16</ele>
        <time>2017-09-03T08:13:07Z</time>
      </trkpt>
      <trkpt lat="42.9719" lon="0.25034">
        <ele>1084.36</ele>
        <time>2017-09-03T08:13:27Z</time>
      </trkpt>
      <trkpt lat="42.97183" lon="0.25039">
        <ele>1085.58</ele>
        <time>2017-09-03T08:13:47Z</time>
      </trkpt>
      <trkpt lat="42.97175" lon="0.25046">
        <ele>1088.52</ele>
        <time>2017-09-03T08:14:06Z</time>
      </trkpt>
      <trkpt lat="42.97169" lon="0.25049">
        <ele>1091.68</ele>
        <time>2017-09-03T08:14:24Z</time>
      </trkpt>
      <trkpt lat="42.9716" lon="0.25057">
        <ele>1094.5</ele>
        <time>2017-09-03T08:14:42Z</time>
      </trkpt>
      <trkpt lat="42.97156" lon="0.25068">
        <ele>1097.64</ele>
        <time>2017-09-03T08:14:58Z</time>
      </trkpt>
      <trkpt lat="42.9715" lon="0.25079">
        <ele>1100.79</ele>
        <time>2017-09-03T08:15:17Z</time>
      </trkpt>
      <trkpt lat="42.97148" lon="0.2509">
        <ele>1102.72</ele>
        <time>2017-09-03T08:15:37Z</time>
      </trkpt>
      <trkpt lat="42.97144" lon="0.251">
        <ele>1105.55</ele>
        <time>2017-09-03T08:15:55Z</time>
      </trkpt>
      <trkpt lat="42.97138" lon="0.2511">
        <ele>1107.55</ele>
        <time>2017-09-03T08:16:11Z</time>
      </trkpt>
      <trkpt lat="42.97137" lon="0.25117">
        <ele>1110.21</ele>
        <time>2017-09-03T08:16:30Z</time>
      </trkpt>
      <trkpt lat="42.97136" lon="0.25115">
        <ele>1110.68</ele>
        <time>2017-09-03T08:16:50Z</time>
      </trkpt>
      <trkpt lat="42.97135" lon="0.25117">
        <ele>1110.86</ele>
        <time>2017-09-03T08:17:24Z</time>
      </trkpt>
      <trkpt lat="42.97135" lon="0.25119">
        <ele>1110.93</ele>
        <time>2017-09-03T08:17:51Z</time>
      </trkpt>
      <trkpt lat="42.97136" lon="0.25123">
        <ele>1110.92</ele>
        <time>2017-09-03T08:18:18Z</time>
      </trkpt>
      <trkpt lat="42.97137" lon="0.2512">
        <ele>1110.93</ele>
        <time>2017-09-03T08:18:48Z</time>
      </trkpt>
      <trkpt lat="42.97136" lon="0.25121">
        <ele>1110.65</ele>
        <time>2017-09-03T08:19:19Z</time>
      </trkpt>
      <trkpt lat="42.97139" lon="0.25124">
        <ele>1111.08</ele>
        <time>2017-09-03T08:19:39Z</time>
      </trkpt>
      <trkpt lat="42.97139" lon="0.25117">
        <ele>1111.1</ele>
        <time>2017-09-03T08:20:00Z</time>
      </trkpt>
      <trkpt lat="42.97135" lon="0.25118">
        <ele>1111.42</ele>
        <time>2017-09-03T08:20:23Z</time>
      </trkpt>
      <trkpt lat="42.97133" lon="0.25115">
        <ele>1111.22</ele>
        <time>2017-09-03T08:20:46Z</time>
      </trkpt>
      <trkpt lat="42.97133" lon="0.2511">
        <ele>1111.58</ele>
        <time>2017-09-03T08:21:09Z</time>
      </trkpt>
      <trkpt lat="42.97133" lon="0.25113">
        <ele>1111.52</ele>
        <time>2017-09-03T08:21:33Z</time>
      </trkpt>
      <trkpt lat="42.97127" lon="0.25123">
        <ele>1112.7</ele>
        <time>2017-09-03T08:21:47Z</time>
      </trkpt>
      <trkpt lat="42.97126" lon="0.25134">
        <ele>1114.96</ele>
        <time>2017-09-03T08:22:03Z</time>
      </trkpt>
      <trkpt lat="42.97121" lon="0.25143">
        <ele>1116.72</ele>
        <time>2017-09-03T08:22:20Z</time>
      </trkpt>
      <trkpt lat="42.97118" lon="0.2515">
        <ele>1117.6</ele>
        <time>2017-09-03T08:22:39Z</time>
      </trkpt>
      <trkpt lat="42.97114" lon="0.25153">
        <ele>1117.75</ele>
        <time>2017-09-03T08:23:22Z</time>
      </trkpt>
      <trkpt lat="42.97113" lon="0.25155">
        <ele>1117.59</ele>
        <time>2017-09-03T08:23:52Z</time>
      </trkpt>
      <trkpt lat="42.97114" lon="0.25156">
        <ele>1117.64</ele>
        <time>2017-09-03T08:24:20Z</time>
      </trkpt>
      <trkpt lat="42.97115" lon="0.2516">
        <ele>1117.54</ele>
        <time>2017-09-03T08:24:47Z</time>
      </trkpt>
      <trkpt lat="42.97114" lon="0.25163">
        <ele>1117.64</ele>
        <time>2017-09-03T08:25:17Z</time>
      </trkpt>
      <trkpt lat="42.97109" lon="0.25175">
        <ele>1117.84</ele>
        <time>2017-09-03T08:25:31Z</time>
      </trkpt>
      <trkpt lat="42.97104" lon="0.25189">
        <ele>1119.47</ele>
        <time>2017-09-03T08:25:49Z</time>
      </trkpt>
      <trkpt lat="42.97101" lon="0.252">
        <ele>1122.49</ele>
        <time>2017-09-03T08:26:08Z</time>
      </trkpt>
      <trkpt lat="42.97099" lon="0.25214">
        <ele>1125.6</ele>
        <time>2017-09-03T08:26:30Z</time>
      </trkpt>
      <trkpt lat="42.97099" lon="0.2523">
        <ele>1126.69</ele>
        <time>2017-09-03T08:26:49Z</time>
      </trkpt>
      <trkpt lat="42.97098" lon="0.25245">
        <ele>1129.62</ele>
        <time>2017-09-03T08:27:09Z</time>
      </trkpt>
      <trkpt lat="42.97098" lon="0.25259">
        <ele>1132.64</ele>
        <time>2017-09-03T08:27:26Z</time>
      </trkpt>
      <trkpt lat="42.97097" lon="0.25272">
        <ele>1134.46</ele>
        <time>2017-09-03T08:27:44Z</time>
      </trkpt>
      <trkpt lat="42.97096" lon="0.25285">
        <ele>1134.99</ele>
        <time>2017-09-03T08:28:02Z</time>
      </trkpt>
      <trkpt lat="42.97097" lon="0.25296">
        <ele>1134.81</ele>
        <time>2017-09-03T08:28:24Z</time>
      </trkpt>
      <trkpt lat="42.971" lon="0.25308">
        <ele>1134.22</ele>
        <time>2017-09-03T08:28:41Z</time>
      </trkpt>
      <trkpt lat="42.97101" lon="0.25317">
        <ele>1134.02</ele>
        <time>2017-09-03T08:29:02Z</time>
      </trkpt>
      <trkpt lat="42.97096" lon="0.25327">
        <ele>1134.36</ele>
        <time>2017-09-03T08:29:19Z</time>
      </trkpt>
      <trkpt lat="42.97093" lon="0.25341">
        <ele>1134.62</ele>
        <time>2017-09-03T08:29:40Z</time>
      </trkpt>
      <trkpt lat="42.97091" lon="0.25355">
        <ele>1135.24</ele>
        <time>2017-09-03T08:29:59Z</time>
      </trkpt>
      <trkpt lat="42.97086" lon="0.25368">
        <ele>1136.38</ele>
        <time>2017-09-03T08:30:18Z</time>
      </trkpt>
      <trkpt lat="42.97086" lon="0.25387">
        <ele>1137.5</ele>
        <time>2017-09-03T08:30:37Z</time>
      </trkpt>
      <trkpt lat="42.97083" lon="0.25399">
        <ele>1138.65</ele>
        <time>2017-09-03T08:30:56Z</time>
      </trkpt>
      <trkpt lat="42.97082" lon="0.25408">
        <ele>1139.24</ele>
        <time>2017-09-03T08:31:14Z</time>
      </trkpt>
      <trkpt lat="42.97078" lon="0.25418">
        <ele>1140.46</ele>
        <time>2017-09-03T08:31:32Z</time>
      </trkpt>
      <trkpt lat="42.97076" lon="0.25432">
        <ele>1142.91</ele>
        <time>2017-09-03T08:31:53Z</time>
      </trkpt>
      <trkpt lat="42.97075" lon="0.25446">
        <ele>1145.1</ele>
        <time>2017-09-03T08:32:14Z</time>
      </trkpt>
      <trkpt lat="42.97074" lon="0.25458">
        <ele>1146.38</ele>
        <time>2017-09-03T08:32:36Z</time>
      </trkpt>
      <trkpt lat="42.9708" lon="0.25469">
        <ele>1147.32</ele>
        <time>2017-09-03T08:32:53Z</time>
      </trkpt>
      <trkpt lat="42.97085" lon="0.25484">
        <ele>1148.98</ele>
        <time>2017-09-03T08:33:14Z</time>
      </trkpt>
      <trkpt lat="42.97085" lon="0.25497">
        <ele>1149.52</ele>
        <time>2017-09-03T08:33:29Z</time>
      </trkpt>
      <trkpt lat="42.97089" lon="0.2551">
        <ele>1151.9</ele>
        <time>2017-09-03T08:33:48Z</time>
      </trkpt>
      <trkpt lat="42.97091" lon="0.25525">
        <ele>1152.83</ele>
        <time>2017-09-03T08:34:11Z</time>
      </trkpt>
      <trkpt lat="42.97093" lon="0.25539">
        <ele>1153.35</ele>
        <time>2017-09-03T08:34:24Z</time>
      </trkpt>
      <trkpt lat="42.97095" lon="0.25552">
        <ele>1154.06</ele>
        <time>2017-09-03T08:34:39Z</time>
      </trkpt>
      <trkpt lat="42.97101" lon="0.25567">
        <ele>1156.76</ele>
        <time>2017-09-03T08:34:59Z</time>
      </trkpt>
      <trkpt lat="42.97104" lon="0.25571">
        <ele>1157.06</ele>
        <time>2017-09-03T08:35:03Z</time>
      </trkpt>
      <trkpt lat="42.97113" lon="0.25585">
        <ele>1159.14</ele>
        <time>2017-09-03T08:35:21Z</time>
      </trkpt>
      <trkpt lat="42.97125" lon="0.25592">
        <ele>1161.37</ele>
        <time>2017-09-03T08:35:39Z</time>
      </trkpt>
      <trkpt lat="42.97136" lon="0.256">
        <ele>1162.88</ele>
        <time>2017-09-03T08:35:56Z</time>
      </trkpt>
      <trkpt lat="42.97141" lon="0.25603">
        <ele>1163.95</ele>
        <time>2017-09-03T08:36:16Z</time>
      </trkpt>
      <trkpt lat="42.97147" lon="0.25615">
        <ele>1165.62</ele>
        <time>2017-09-03T08:36:30Z</time>
      </trkpt>
      <trkpt lat="42.97151" lon="0.25619">
        <ele>1166.72</ele>
        <time>2017-09-03T08:36:44Z</time>
      </trkpt>
      <trkpt lat="42.97157" lon="0.25625">
        <ele>1167.37</ele>
        <time>2017-09-03T08:37:06Z</time>
      </trkpt>
      <trkpt lat="42.97153" lon="0.25631">
        <ele>1168.22</ele>
        <time>2017-09-03T08:37:17Z</time>
      </trkpt>
      <trkpt lat="42.97154" lon="0.25633">
        <ele>1168.71</ele>
        <time>2017-09-03T08:37:34Z</time>
      </trkpt>
      <trkpt lat="42.97154" lon="0.25642">
        <ele>1170.63</ele>
        <time>2017-09-03T08:37:50Z</time>
      </trkpt>
      <trkpt lat="42.97156" lon="0.25642">
        <ele>1171.13</ele>
        <time>2017-09-03T08:37:55Z</time>
      </trkpt>
      <trkpt lat="42.97161" lon="0.25641">
        <ele>1170.88</ele>
        <time>2017-09-03T08:38:08Z</time>
      </trkpt>
      <trkpt lat="42.97158" lon="0.2564">
        <ele>1171</ele>
        <time>2017-09-03T08:38:23Z</time>
      </trkpt>
      <trkpt lat="42.9715" lon="0.25642">
        <ele>1171.2</ele>
        <time>2017-09-03T08:38:43Z</time>
      </trkpt>
      <trkpt lat="42.97148" lon="0.25647">
        <ele>1172.44</ele>
        <time>2017-09-03T08:38:57Z</time>
      </trkpt>
      <trkpt lat="42.97145" lon="0.2565">
        <ele>1172.99</ele>
        <time>2017-09-03T08:39:19Z</time>
      </trkpt>
      <trkpt lat="42.97145" lon="0.2565">
        <ele>1174.03</ele>
        <time>2017-09-03T08:39:52Z</time>
      </trkpt>
      <trkpt lat="42.97151" lon="0.25653">
        <ele>1173.8</ele>
        <time>2017-09-03T08:40:24Z</time>
      </trkpt>
      <trkpt lat="42.97153" lon="0.25656">
        <ele>1173.96</ele>
        <time>2017-09-03T08:40:27Z</time>
      </trkpt>
      <trkpt lat="42.9716" lon="0.25662">
        <ele>1175.14</ele>
        <time>2017-09-03T08:40:39Z</time>
      </trkpt>
      <trkpt lat="42.97169" lon="0.25675">
        <ele>1177.26</ele>
        <time>2017-09-03T08:40:55Z</time>
      </trkpt>
      <trkpt lat="42.97171" lon="0.25677">
        <ele>1178.36</ele>
        <time>2017-09-03T08:41:12Z</time>
      </trkpt>
      <trkpt lat="42.97178" lon="0.25684">
        <ele>1180.21</ele>
        <time>2017-09-03T08:41:28Z</time>
      </trkpt>
      <trkpt lat="42.97183" lon="0.25688">
        <ele>1181.37</ele>
        <time>2017-09-03T08:41:39Z</time>
      </trkpt>
      <trkpt lat="42.97186" lon="0.25686">
        <ele>1181.52</ele>
        <time>2017-09-03T08:41:43Z</time>
      </trkpt>
      <trkpt lat="42.97188" lon="0.25686">
        <ele>1181.38</ele>
        <time>2017-09-03T08:41:58Z</time>
      </trkpt>
      <trkpt lat="42.97185" lon="0.25686">
        <ele>1181.47</ele>
        <time>2017-09-03T08:42:30Z</time>
      </trkpt>
      <trkpt lat="42.97182" lon="0.25686">
        <ele>1181.53</ele>
        <time>2017-09-03T08:42:32Z</time>
      </trkpt>
      <trkpt lat="42.97174" lon="0.25689">
        <ele>1181.59</ele>
        <time>2017-09-03T08:42:38Z</time>
      </trkpt>
      <trkpt lat="42.9716" lon="0.25695">
        <ele>1182.3</ele>
        <time>2017-09-03T08:42:49Z</time>
      </trkpt>
      <trkpt lat="42.97158" lon="0.25696">
        <ele>1182.43</ele>
        <time>2017-09-03T08:42:51Z</time>
      </trkpt>
      <trkpt lat="42.97157" lon="0.25696">
        <ele>1182.52</ele>
        <time>2017-09-03T08:42:52Z</time>
      </trkpt>
      <trkpt lat="42.97156" lon="0.25697">
        <ele>1182.55</ele>
        <time>2017-09-03T08:42:53Z</time>
      </trkpt>
      <trkpt lat="42.97155" lon="0.25698">
        <ele>1182.53</ele>
        <time>2017-09-03T08:42:54Z</time>
      </trkpt>
      <trkpt lat="42.97154" lon="0.25699">
        <ele>1182.51</ele>
        <time>2017-09-03T08:42:55Z</time>
      </trkpt>
      <trkpt lat="42.97153" lon="0.25699">
        <ele>1182.59</ele>
        <time>2017-09-03T08:42:56Z</time>
      </trkpt>
      <trkpt lat="42.9714" lon="0.25709">
        <ele>1183.54</ele>
        <time>2017-09-03T08:43:09Z</time>
      </trkpt>
      <trkpt lat="42.97138" lon="0.25712">
        <ele>1183.74</ele>
        <time>2017-09-03T08:43:12Z</time>
      </trkpt>
      <trkpt lat="42.97135" lon="0.25715">
        <ele>1184.11</ele>
        <time>2017-09-03T08:43:16Z</time>
      </trkpt>
      <trkpt lat="42.97132" lon="0.25722">
        <ele>1184.78</ele>
        <time>2017-09-03T08:43:23Z</time>
      </trkpt>
      <trkpt lat="42.97131" lon="0.25723">
        <ele>1184.87</ele>
        <time>2017-09-03T08:43:24Z</time>
      </trkpt>
      <trkpt lat="42.97129" lon="0.25725">
        <ele>1185.16</ele>
        <time>2017-09-03T08:43:27Z</time>
      </trkpt>
      <trkpt lat="42.97127" lon="0.25725">
        <ele>1185.26</ele>
        <time>2017-09-03T08:43:28Z</time>
      </trkpt>
      <trkpt lat="42.97125" lon="0.25728">
        <ele>1185.52</ele>
        <time>2017-09-03T08:43:31Z</time>
      </trkpt>
      <trkpt lat="42.97123" lon="0.25731">
        <ele>1185.66</ele>
        <time>2017-09-03T08:43:34Z</time>
      </trkpt>
      <trkpt lat="42.97122" lon="0.25732">
        <ele>1185.66</ele>
        <time>2017-09-03T08:43:35Z</time>
      </trkpt>
      <trkpt lat="42.97121" lon="0.25733">
        <ele>1185.65</ele>
        <time>2017-09-03T08:43:36Z</time>
      </trkpt>
      <trkpt lat="42.97112" lon="0.25741">
        <ele>1187.29</ele>
        <time>2017-09-03T08:43:47Z</time>
      </trkpt>
      <trkpt lat="42.97111" lon="0.25742">
        <ele>1187.43</ele>
        <time>2017-09-03T08:43:48Z</time>
      </trkpt>
      <trkpt lat="42.97105" lon="0.2575">
        <ele>1188.07</ele>
        <time>2017-09-03T08:43:57Z</time>
      </trkpt>
      <trkpt lat="42.97101" lon="0.25753">
        <ele>1188.65</ele>
        <time>2017-09-03T08:44:01Z</time>
      </trkpt>
      <trkpt lat="42.97097" lon="0.25757">
        <ele>1188.99</ele>
        <time>2017-09-03T08:44:05Z</time>
      </trkpt>
      <trkpt lat="42.97092" lon="0.25769">
        <ele>1190.07</ele>
        <time>2017-09-03T08:44:18Z</time>
      </trkpt>
      <trkpt lat="42.9709" lon="0.25773">
        <ele>1191.94</ele>
        <time>2017-09-03T08:44:32Z</time>
      </trkpt>
      <trkpt lat="42.97089" lon="0.25783">
        <ele>1193.49</ele>
        <time>2017-09-03T08:44:42Z</time>
      </trkpt>
      <trkpt lat="42.97088" lon="0.25795">
        <ele>1196.61</ele>
        <time>2017-09-03T08:44:59Z</time>
      </trkpt>
      <trkpt lat="42.97089" lon="0.25806">
        <ele>1198.89</ele>
        <time>2017-09-03T08:45:16Z</time>
      </trkpt>
      <trkpt lat="42.9709" lon="0.25818">
        <ele>1201.9</ele>
        <time>2017-09-03T08:45:35Z</time>
      </trkpt>
      <trkpt lat="42.97089" lon="0.25827">
        <ele>1204.28</ele>
        <time>2017-09-03T08:45:48Z</time>
      </trkpt>
      <trkpt lat="42.97089" lon="0.25841">
        <ele>1207.19</ele>
        <time>2017-09-03T08:46:06Z</time>
      </trkpt>
      <trkpt lat="42.97086" lon="0.25853">
        <ele>1210.31</ele>
        <time>2017-09-03T08:46:23Z</time>
      </trkpt>
      <trkpt lat="42.97089" lon="0.25862">
        <ele>1213.43</ele>
        <time>2017-09-03T08:46:39Z</time>
      </trkpt>
      <trkpt lat="42.97091" lon="0.25873">
        <ele>1215.62</ele>
        <time>2017-09-03T08:46:55Z</time>
      </trkpt>
      <trkpt lat="42.97088" lon="0.25882">
        <ele>1217.54</ele>
        <time>2017-09-03T08:47:06Z</time>
      </trkpt>
      <trkpt lat="42.97089" lon="0.25887">
        <ele>1219.72</ele>
        <time>2017-09-03T08:47:19Z</time>
      </trkpt>
      <trkpt lat="42.9709" lon="0.25889">
        <ele>1219.81</ele>
        <time>2017-09-03T08:47:52Z</time>
      </trkpt>
      <trkpt lat="42.97089" lon="0.25887">
        <ele>1219.74</ele>
        <time>2017-09-03T08:48:25Z</time>
      </trkpt>
      <trkpt lat="42.9709" lon="0.25886">
        <ele>1220.02</ele>
        <time>2017-09-03T08:48:57Z</time>
      </trkpt>
      <trkpt lat="42.97086" lon="0.25894">
        <ele>1220.79</ele>
        <time>2017-09-03T08:49:28Z</time>
      </trkpt>
      <trkpt lat="42.97083" lon="0.25908">
        <ele>1223.13</ele>
        <time>2017-09-03T08:49:42Z</time>
      </trkpt>
      <trkpt lat="42.97079" lon="0.25919">
        <ele>1226.22</ele>
        <time>2017-09-03T08:49:53Z</time>
      </trkpt>
      <trkpt lat="42.97078" lon="0.25921">
        <ele>1226.74</ele>
        <time>2017-09-03T08:49:55Z</time>
      </trkpt>
      <trkpt lat="42.97073" lon="0.25936">
        <ele>1230.12</ele>
        <time>2017-09-03T08:50:09Z</time>
      </trkpt>
      <trkpt lat="42.97072" lon="0.25938">
        <ele>1231.96</ele>
        <time>2017-09-03T08:50:26Z</time>
      </trkpt>
      <trkpt lat="42.97069" lon="0.25941">
        <ele>1232.33</ele>
        <time>2017-09-03T08:50:45Z</time>
      </trkpt>
      <trkpt lat="42.97068" lon="0.25948">
        <ele>1232.61</ele>
        <time>2017-09-03T08:51:06Z</time>
      </trkpt>
      <trkpt lat="42.97062" lon="0.25963">
        <ele>1235.2</ele>
        <time>2017-09-03T08:51:25Z</time>
      </trkpt>
      <trkpt lat="42.97058" lon="0.25973">
        <ele>1236.8</ele>
        <time>2017-09-03T08:51:37Z</time>
      </trkpt>
      <trkpt lat="42.97052" lon="0.25982">
        <ele>1238.49</ele>
        <time>2017-09-03T08:51:49Z</time>
      </trkpt>
      <trkpt lat="42.97047" lon="0.25995">
        <ele>1241.15</ele>
        <time>2017-09-03T08:52:04Z</time>
      </trkpt>
      <trkpt lat="42.97044" lon="0.26001">
        <ele>1242.77</ele>
        <time>2017-09-03T08:52:15Z</time>
      </trkpt>
      <trkpt lat="42.9704" lon="0.26009">
        <ele>1243.5</ele>
        <time>2017-09-03T08:52:31Z</time>
      </trkpt>
      <trkpt lat="42.97034" lon="0.26018">
        <ele>1244.81</ele>
        <time>2017-09-03T08:52:43Z</time>
      </trkpt>
      <trkpt lat="42.97029" lon="0.26028">
        <ele>1246.45</ele>
        <time>2017-09-03T08:52:56Z</time>
      </trkpt>
      <trkpt lat="42.97022" lon="0.26037">
        <ele>1247.98</ele>
        <time>2017-09-03T08:53:08Z</time>
      </trkpt>
      <trkpt lat="42.97016" lon="0.26045">
        <ele>1249.75</ele>
        <time>2017-09-03T08:53:21Z</time>
      </trkpt>
      <trkpt lat="42.9701" lon="0.26057">
        <ele>1251.47</ele>
        <time>2017-09-03T08:53:36Z</time>
      </trkpt>
      <trkpt lat="42.97006" lon="0.26065">
        <ele>1253</ele>
        <time>2017-09-03T08:53:47Z</time>
      </trkpt>
      <trkpt lat="42.97003" lon="0.26077">
        <ele>1254.84</ele>
        <time>2017-09-03T08:54:01Z</time>
      </trkpt>
      <trkpt lat="42.97" lon="0.26088">
        <ele>1256.34</ele>
        <time>2017-09-03T08:54:13Z</time>
      </trkpt>
      <trkpt lat="42.96999" lon="0.26102">
        <ele>1258.71</ele>
        <time>2017-09-03T08:54:30Z</time>
      </trkpt>
      <trkpt lat="42.96999" lon="0.2611">
        <ele>1260.31</ele>
        <time>2017-09-03T08:54:48Z</time>
      </trkpt>
      <trkpt lat="42.96997" lon="0.26123">
        <ele>1262.27</ele>
        <time>2017-09-03T08:55:02Z</time>
      </trkpt>
      <trkpt lat="42.96994" lon="0.26135">
        <ele>1263.75</ele>
        <time>2017-09-03T08:55:14Z</time>
      </trkpt>
      <trkpt lat="42.96994" lon="0.26149">
        <ele>1265.45</ele>
        <time>2017-09-03T08:55:28Z</time>
      </trkpt>
      <trkpt lat="42.96994" lon="0.26152">
        <ele>1265.79</ele>
        <time>2017-09-03T08:55:31Z</time>
      </trkpt>
      <trkpt lat="42.96987" lon="0.26157">
        <ele>1266.18</ele>
        <time>2017-09-03T08:55:44Z</time>
      </trkpt>
      <trkpt lat="42.96983" lon="0.26159">
        <ele>1266.13</ele>
        <time>2017-09-03T08:55:48Z</time>
      </trkpt>
      <trkpt lat="42.96976" lon="0.26162">
        <ele>1266.03</ele>
        <time>2017-09-03T08:55:56Z</time>
      </trkpt>
      <trkpt lat="42.96972" lon="0.26163">
        <ele>1266</ele>
        <time>2017-09-03T08:56:00Z</time>
      </trkpt>
      <trkpt lat="42.96962" lon="0.26167">
        <ele>1266.52</ele>
        <time>2017-09-03T08:56:12Z</time>
      </trkpt>
      <trkpt lat="42.96952" lon="0.26169">
        <ele>1266.94</ele>
        <time>2017-09-03T08:56:24Z</time>
      </trkpt>
      <trkpt lat="42.96944" lon="0.26172">
        <ele>1267.11</ele>
        <time>2017-09-03T08:56:35Z</time>
      </trkpt>
      <trkpt lat="42.96943" lon="0.26174">
        <ele>1267</ele>
        <time>2017-09-03T08:56:50Z</time>
      </trkpt>
      <trkpt lat="42.96928" lon="0.26178">
        <ele>1267.17</ele>
        <time>2017-09-03T08:57:02Z</time>
      </trkpt>
      <trkpt lat="42.96914" lon="0.26185">
        <ele>1266.39</ele>
        <time>2017-09-03T08:57:14Z</time>
      </trkpt>
      <trkpt lat="42.96903" lon="0.26188">
        <ele>1265.72</ele>
        <time>2017-09-03T08:57:25Z</time>
      </trkpt>
      <trkpt lat="42.96903" lon="0.26189">
        <ele>1265.62</ele>
        <time>2017-09-03T08:57:27Z</time>
      </trkpt>
      <trkpt lat="42.96895" lon="0.26195">
        <ele>1265.12</ele>
        <time>2017-09-03T08:57:40Z</time>
      </trkpt>
      <trkpt lat="42.96889" lon="0.26203">
        <ele>1264.7</ele>
        <time>2017-09-03T08:57:54Z</time>
      </trkpt>
      <trkpt lat="42.96883" lon="0.26213">
        <ele>1263.79</ele>
        <time>2017-09-03T08:58:05Z</time>
      </trkpt>
      <trkpt lat="42.96881" lon="0.26218">
        <ele>1263.49</ele>
        <time>2017-09-03T08:58:09Z</time>
      </trkpt>
      <trkpt lat="42.96878" lon="0.26235">
        <ele>1262.75</ele>
        <time>2017-09-03T08:58:21Z</time>
      </trkpt>
      <trkpt lat="42.96875" lon="0.26238">
        <ele>1262.58</ele>
        <time>2017-09-03T08:58:35Z</time>
      </trkpt>
      <trkpt lat="42.96871" lon="0.26237">
        <ele>1262.1</ele>
        <time>2017-09-03T08:58:47Z</time>
      </trkpt>
      <trkpt lat="42.96868" lon="0.26242">
        <ele>1261.63</ele>
        <time>2017-09-03T08:59:01Z</time>
      </trkpt>
      <trkpt lat="42.96874" lon="0.26233">
        <ele>1262.07</ele>
        <time>2017-09-03T08:59:20Z</time>
      </trkpt>
      <trkpt lat="42.96875" lon="0.26234">
        <ele>1263</ele>
        <time>2017-09-03T08:59:33Z</time>
      </trkpt>
      <trkpt lat="42.96876" lon="0.26242">
        <ele>1262.59</ele>
        <time>2017-09-03T08:59:58Z</time>
      </trkpt>
      <trkpt lat="42.96884" lon="0.26249">
        <ele>1263.55</ele>
        <time>2017-09-03T09:00:10Z</time>
      </trkpt>
      <trkpt lat="42.96893" lon="0.26254">
        <ele>1264.67</ele>
        <time>2017-09-03T09:00:23Z</time>
      </trkpt>
      <trkpt lat="42.969" lon="0.26257">
        <ele>1265.85</ele>
        <time>2017-09-03T09:00:33Z</time>
      </trkpt>
      <trkpt lat="42.96903" lon="0.26257">
        <ele>1266.3</ele>
        <time>2017-09-03T09:00:36Z</time>
      </trkpt>
      <trkpt lat="42.96914" lon="0.26258">
        <ele>1267.3</ele>
        <time>2017-09-03T09:00:50Z</time>
      </trkpt>
      <trkpt lat="42.96918" lon="0.2626">
        <ele>1267.85</ele>
        <time>2017-09-03T09:01:02Z</time>
      </trkpt>
      <trkpt lat="42.96925" lon="0.26261">
        <ele>1268.68</ele>
        <time>2017-09-03T09:01:09Z</time>
      </trkpt>
      <trkpt lat="42.96929" lon="0.2626">
        <ele>1269.53</ele>
        <time>2017-09-03T09:01:22Z</time>
      </trkpt>
      <trkpt lat="42.96933" lon="0.2626">
        <ele>1269.56</ele>
        <time>2017-09-03T09:01:26Z</time>
      </trkpt>
      <trkpt lat="42.9694" lon="0.26261">
        <ele>1270.86</ele>
        <time>2017-09-03T09:01:45Z</time>
      </trkpt>
      <trkpt lat="42.96943" lon="0.26261">
        <ele>1270.84</ele>
        <time>2017-09-03T09:01:48Z</time>
      </trkpt>
      <trkpt lat="42.96953" lon="0.26263">
        <ele>1272.28</ele>
        <time>2017-09-03T09:02:01Z</time>
      </trkpt>
      <trkpt lat="42.96964" lon="0.2626">
        <ele>1273.83</ele>
        <time>2017-09-03T09:02:16Z</time>
      </trkpt>
      <trkpt lat="42.96966" lon="0.2626">
        <ele>1274.03</ele>
        <time>2017-09-03T09:02:18Z</time>
      </trkpt>
      <trkpt lat="42.96973" lon="0.26259">
        <ele>1274.9</ele>
        <time>2017-09-03T09:02:27Z</time>
      </trkpt>
      <trkpt lat="42.96978" lon="0.26258">
        <ele>1275.26</ele>
        <time>2017-09-03T09:02:33Z</time>
      </trkpt>
      <trkpt lat="42.96987" lon="0.26258">
        <ele>1276.63</ele>
        <time>2017-09-03T09:02:46Z</time>
      </trkpt>
      <trkpt lat="42.96988" lon="0.26257">
        <ele>1276.72</ele>
        <time>2017-09-03T09:02:47Z</time>
      </trkpt>
      <trkpt lat="42.96994" lon="0.26257">
        <ele>1277.33</ele>
        <time>2017-09-03T09:02:54Z</time>
      </trkpt>
      <trkpt lat="42.97006" lon="0.26252">
        <ele>1277.87</ele>
        <time>2017-09-03T09:03:06Z</time>
      </trkpt>
      <trkpt lat="42.97019" lon="0.26248">
        <ele>1278.16</ele>
        <time>2017-09-03T09:03:20Z</time>
      </trkpt>
      <trkpt lat="42.97021" lon="0.26248">
        <ele>1278.28</ele>
        <time>2017-09-03T09:03:22Z</time>
      </trkpt>
      <trkpt lat="42.97024" lon="0.26247">
        <ele>1278.42</ele>
        <time>2017-09-03T09:03:25Z</time>
      </trkpt>
      <trkpt lat="42.97029" lon="0.26243">
        <ele>1278.79</ele>
        <time>2017-09-03T09:03:32Z</time>
      </trkpt>
      <trkpt lat="42.97032" lon="0.2624">
        <ele>1279.11</ele>
        <time>2017-09-03T09:03:36Z</time>
      </trkpt>
      <trkpt lat="42.97037" lon="0.26228">
        <ele>1281.28</ele>
        <time>2017-09-03T09:03:49Z</time>
      </trkpt>
      <trkpt lat="42.97038" lon="0.26227">
        <ele>1282.96</ele>
        <time>2017-09-03T09:04:06Z</time>
      </trkpt>
      <trkpt lat="42.97039" lon="0.26221">
        <ele>1282.71</ele>
        <time>2017-09-03T09:04:33Z</time>
      </trkpt>
      <trkpt lat="42.97038" lon="0.26212">
        <ele>1282.35</ele>
        <time>2017-09-03T09:04:48Z</time>
      </trkpt>
      <trkpt lat="42.97039" lon="0.26211">
        <ele>1282.21</ele>
        <time>2017-09-03T09:05:11Z</time>
      </trkpt>
      <trkpt lat="42.97042" lon="0.26211">
        <ele>1282.13</ele>
        <time>2017-09-03T09:05:14Z</time>
      </trkpt>
      <trkpt lat="42.97055" lon="0.26212">
        <ele>1284.52</ele>
        <time>2017-09-03T09:05:29Z</time>
      </trkpt>
      <trkpt lat="42.97064" lon="0.26211">
        <ele>1287.51</ele>
        <time>2017-09-03T09:05:41Z</time>
      </trkpt>
      <trkpt lat="42.97076" lon="0.26211">
        <ele>1290.46</ele>
        <time>2017-09-03T09:05:56Z</time>
      </trkpt>
      <trkpt lat="42.97081" lon="0.26211">
        <ele>1291.4</ele>
        <time>2017-09-03T09:06:02Z</time>
      </trkpt>
      <trkpt lat="42.97093" lon="0.26211">
        <ele>1294.12</ele>
        <time>2017-09-03T09:06:21Z</time>
      </trkpt>
      <trkpt lat="42.97098" lon="0.26211">
        <ele>1294.84</ele>
        <time>2017-09-03T09:06:27Z</time>
      </trkpt>
      <trkpt lat="42.97105" lon="0.26211">
        <ele>1296.22</ele>
        <time>2017-09-03T09:06:36Z</time>
      </trkpt>
      <trkpt lat="42.97111" lon="0.26211">
        <ele>1297.92</ele>
        <time>2017-09-03T09:06:51Z</time>
      </trkpt>
      <trkpt lat="42.9712" lon="0.26213">
        <ele>1300.01</ele>
        <time>2017-09-03T09:07:04Z</time>
      </trkpt>
      <trkpt lat="42.97132" lon="0.2621">
        <ele>1302.31</ele>
        <time>2017-09-03T09:07:18Z</time>
      </trkpt>
      <trkpt lat="42.97137" lon="0.26209">
        <ele>1303.23</ele>
        <time>2017-09-03T09:07:24Z</time>
      </trkpt>
      <trkpt lat="42.97147" lon="0.26206">
        <ele>1305.76</ele>
        <time>2017-09-03T09:07:38Z</time>
      </trkpt>
      <trkpt lat="42.97159" lon="0.26205">
        <ele>1308.92</ele>
        <time>2017-09-03T09:07:56Z</time>
      </trkpt>
      <trkpt lat="42.97168" lon="0.26204">
        <ele>1310.99</ele>
        <time>2017-09-03T09:08:09Z</time>
      </trkpt>
      <trkpt lat="42.9718" lon="0.26199">
        <ele>1313.38</ele>
        <time>2017-09-03T09:08:27Z</time>
      </trkpt>
      <trkpt lat="42.97192" lon="0.26195">
        <ele>1315.16</ele>
        <time>2017-09-03T09:08:45Z</time>
      </trkpt>
      <trkpt lat="42.97204" lon="0.26195">
        <ele>1317.79</ele>
        <time>2017-09-03T09:09:03Z</time>
      </trkpt>
      <trkpt lat="42.97217" lon="0.26198">
        <ele>1320.86</ele>
        <time>2017-09-03T09:09:23Z</time>
      </trkpt>
      <trkpt lat="42.97226" lon="0.26201">
        <ele>1323.95</ele>
        <time>2017-09-03T09:09:39Z</time>
      </trkpt>
      <trkpt lat="42.97235" lon="0.26203">
        <ele>1327.02</ele>
        <time>2017-09-03T09:09:56Z</time>
      </trkpt>
      <trkpt lat="42.97238" lon="0.26205">
        <ele>1328.17</ele>
        <time>2017-09-03T09:10:19Z</time>
      </trkpt>
      <trkpt lat="42.97247" lon="0.26211">
        <ele>1330.58</ele>
        <time>2017-09-03T09:10:36Z</time>
      </trkpt>
      <trkpt lat="42.97256" lon="0.26211">
        <ele>1333.1</ele>
        <time>2017-09-03T09:10:53Z</time>
      </trkpt>
      <trkpt lat="42.97259" lon="0.26211">
        <ele>1333.73</ele>
        <time>2017-09-03T09:11:20Z</time>
      </trkpt>
      <trkpt lat="42.9726" lon="0.26211">
        <ele>1333.81</ele>
        <time>2017-09-03T09:11:21Z</time>
      </trkpt>
      <trkpt lat="42.9727" lon="0.26213">
        <ele>1336.88</ele>
        <time>2017-09-03T09:11:38Z</time>
      </trkpt>
      <trkpt lat="42.97269" lon="0.26213">
        <ele>1337.16</ele>
        <time>2017-09-03T09:12:16Z</time>
      </trkpt>
      <trkpt lat="42.97268" lon="0.26211">
        <ele>1337.03</ele>
        <time>2017-09-03T09:12:53Z</time>
      </trkpt>
      <trkpt lat="42.97273" lon="0.26209">
        <ele>1337.46</ele>
        <time>2017-09-03T09:13:27Z</time>
      </trkpt>
      <trkpt lat="42.97282" lon="0.26212">
        <ele>1339.23</ele>
        <time>2017-09-03T09:13:42Z</time>
      </trkpt>
      <trkpt lat="42.9729" lon="0.26217">
        <ele>1341.8</ele>
        <time>2017-09-03T09:13:58Z</time>
      </trkpt>
      <trkpt lat="42.97296" lon="0.2622">
        <ele>1344.39</ele>
        <time>2017-09-03T09:14:18Z</time>
      </trkpt>
      <trkpt lat="42.97303" lon="0.26224">
        <ele>1346.09</ele>
        <time>2017-09-03T09:14:37Z</time>
      </trkpt>
      <trkpt lat="42.97307" lon="0.26228">
        <ele>1348.35</ele>
        <time>2017-09-03T09:14:57Z</time>
      </trkpt>
      <trkpt lat="42.97309" lon="0.26228">
        <ele>1348.81</ele>
        <time>2017-09-03T09:15:28Z</time>
      </trkpt>
      <trkpt lat="42.97318" lon="0.26233">
        <ele>1351.5</ele>
        <time>2017-09-03T09:15:46Z</time>
      </trkpt>
      <trkpt lat="42.97326" lon="0.26238">
        <ele>1354.23</ele>
        <time>2017-09-03T09:16:04Z</time>
      </trkpt>
      <trkpt lat="42.97334" lon="0.26242">
        <ele>1357.27</ele>
        <time>2017-09-03T09:16:21Z</time>
      </trkpt>
      <trkpt lat="42.97341" lon="0.26246">
        <ele>1359.09</ele>
        <time>2017-09-03T09:16:38Z</time>
      </trkpt>
      <trkpt lat="42.97353" lon="0.26251">
        <ele>1362.31</ele>
        <time>2017-09-03T09:16:55Z</time>
      </trkpt>
      <trkpt lat="42.97361" lon="0.26253">
        <ele>1364.14</ele>
        <time>2017-09-03T09:17:13Z</time>
      </trkpt>
      <trkpt lat="42.97372" lon="0.26255">
        <ele>1367.28</ele>
        <time>2017-09-03T09:17:33Z</time>
      </trkpt>
      <trkpt lat="42.97378" lon="0.2626">
        <ele>1370.14</ele>
        <time>2017-09-03T09:17:52Z</time>
      </trkpt>
      <trkpt lat="42.97379" lon="0.26261">
        <ele>1371.14</ele>
        <time>2017-09-03T09:18:08Z</time>
      </trkpt>
      <trkpt lat="42.97378" lon="0.2626">
        <ele>1371.57</ele>
        <time>2017-09-03T09:18:40Z</time>
      </trkpt>
      <trkpt lat="42.97379" lon="0.26259">
        <ele>1371.65</ele>
        <time>2017-09-03T09:19:14Z</time>
      </trkpt>
      <trkpt lat="42.97381" lon="0.26259">
        <ele>1371.85</ele>
        <time>2017-09-03T09:19:54Z</time>
      </trkpt>
      <trkpt lat="42.97388" lon="0.26264">
        <ele>1374.48</ele>
        <time>2017-09-03T09:20:12Z</time>
      </trkpt>
      <trkpt lat="42.97397" lon="0.26268">
        <ele>1377.47</ele>
        <time>2017-09-03T09:20:31Z</time>
      </trkpt>
      <trkpt lat="42.97403" lon="0.26275">
        <ele>1380.01</ele>
        <time>2017-09-03T09:20:47Z</time>
      </trkpt>
      <trkpt lat="42.97409" lon="0.26276">
        <ele>1382.25</ele>
        <time>2017-09-03T09:21:03Z</time>
      </trkpt>
      <trkpt lat="42.97419" lon="0.26281">
        <ele>1385.43</ele>
        <time>2017-09-03T09:21:23Z</time>
      </trkpt>
      <trkpt lat="42.97425" lon="0.26284">
        <ele>1387.33</ele>
        <time>2017-09-03T09:21:43Z</time>
      </trkpt>
      <trkpt lat="42.97433" lon="0.26289">
        <ele>1390.48</ele>
        <time>2017-09-03T09:22:03Z</time>
      </trkpt>
      <trkpt lat="42.97443" lon="0.26287">
        <ele>1392.44</ele>
        <time>2017-09-03T09:22:19Z</time>
      </trkpt>
      <trkpt lat="42.97452" lon="0.26291">
        <ele>1394.79</ele>
        <time>2017-09-03T09:22:40Z</time>
      </trkpt>
      <trkpt lat="42.97455" lon="0.263">
        <ele>1397.67</ele>
        <time>2017-09-03T09:23:02Z</time>
      </trkpt>
      <trkpt lat="42.9746" lon="0.26306">
        <ele>1399.95</ele>
        <time>2017-09-03T09:23:16Z</time>
      </trkpt>
      <trkpt lat="42.9747" lon="0.26306">
        <ele>1402.12</ele>
        <time>2017-09-03T09:23:36Z</time>
      </trkpt>
      <trkpt lat="42.97479" lon="0.26305">
        <ele>1403.85</ele>
        <time>2017-09-03T09:23:51Z</time>
      </trkpt>
      <trkpt lat="42.97486" lon="0.26307">
        <ele>1405.68</ele>
        <time>2017-09-03T09:24:02Z</time>
      </trkpt>
      <trkpt lat="42.97495" lon="0.26309">
        <ele>1407.56</ele>
        <time>2017-09-03T09:24:17Z</time>
      </trkpt>
      <trkpt lat="42.97506" lon="0.26312">
        <ele>1410.31</ele>
        <time>2017-09-03T09:24:34Z</time>
      </trkpt>
      <trkpt lat="42.97516" lon="0.26313">
        <ele>1412.26</ele>
        <time>2017-09-03T09:24:50Z</time>
      </trkpt>
      <trkpt lat="42.97526" lon="0.26318">
        <ele>1415.38</ele>
        <time>2017-09-03T09:25:08Z</time>
      </trkpt>
      <trkpt lat="42.97537" lon="0.2632">
        <ele>1418.38</ele>
        <time>2017-09-03T09:25:26Z</time>
      </trkpt>
      <trkpt lat="42.97547" lon="0.26318">
        <ele>1420.95</ele>
        <time>2017-09-03T09:25:46Z</time>
      </trkpt>
      <trkpt lat="42.97554" lon="0.26318">
        <ele>1421.99</ele>
        <time>2017-09-03T09:26:05Z</time>
      </trkpt>
      <trkpt lat="42.97562" lon="0.26316">
        <ele>1423.51</ele>
        <time>2017-09-03T09:26:26Z</time>
      </trkpt>
      <trkpt lat="42.97569" lon="0.26319">
        <ele>1424.39</ele>
        <time>2017-09-03T09:26:49Z</time>
      </trkpt>
      <trkpt lat="42.97574" lon="0.26324">
        <ele>1426.17</ele>
        <time>2017-09-03T09:27:03Z</time>
      </trkpt>
      <trkpt lat="42.97585" lon="0.26329">
        <ele>1428.68</ele>
        <time>2017-09-03T09:27:21Z</time>
      </trkpt>
      <trkpt lat="42.97593" lon="0.26332">
        <ele>1429.85</ele>
        <time>2017-09-03T09:27:40Z</time>
      </trkpt>
      <trkpt lat="42.97604" lon="0.26337">
        <ele>1431.7</ele>
        <time>2017-09-03T09:27:57Z</time>
      </trkpt>
      <trkpt lat="42.97613" lon="0.26339">
        <ele>1433.67</ele>
        <time>2017-09-03T09:28:12Z</time>
      </trkpt>
      <trkpt lat="42.97626" lon="0.26343">
        <ele>1435.79</ele>
        <time>2017-09-03T09:28:31Z</time>
      </trkpt>
      <trkpt lat="42.97635" lon="0.26351">
        <ele>1438.13</ele>
        <time>2017-09-03T09:28:49Z</time>
      </trkpt>
      <trkpt lat="42.97645" lon="0.26358">
        <ele>1441.05</ele>
        <time>2017-09-03T09:29:08Z</time>
      </trkpt>
      <trkpt lat="42.97656" lon="0.26364">
        <ele>1443.45</ele>
        <time>2017-09-03T09:29:27Z</time>
      </trkpt>
      <trkpt lat="42.97657" lon="0.26362">
        <ele>1443.92</ele>
        <time>2017-09-03T09:29:47Z</time>
      </trkpt>
      <trkpt lat="42.97661" lon="0.26365">
        <ele>1443.54</ele>
        <time>2017-09-03T09:29:55Z</time>
      </trkpt>
      <trkpt lat="42.97669" lon="0.26371">
        <ele>1445.08</ele>
        <time>2017-09-03T09:30:11Z</time>
      </trkpt>
      <trkpt lat="42.97677" lon="0.26377">
        <ele>1446.13</ele>
        <time>2017-09-03T09:30:28Z</time>
      </trkpt>
      <trkpt lat="42.97691" lon="0.26384">
        <ele>1448.39</ele>
        <time>2017-09-03T09:30:47Z</time>
      </trkpt>
      <trkpt lat="42.97693" lon="0.26384">
        <ele>1448.77</ele>
        <time>2017-09-03T09:30:49Z</time>
      </trkpt>
      <trkpt lat="42.97705" lon="0.26391">
        <ele>1450.08</ele>
        <time>2017-09-03T09:31:04Z</time>
      </trkpt>
      <trkpt lat="42.97721" lon="0.264">
        <ele>1452.85</ele>
        <time>2017-09-03T09:31:26Z</time>
      </trkpt>
      <trkpt lat="42.97725" lon="0.26402">
        <ele>1453.46</ele>
        <time>2017-09-03T09:31:31Z</time>
      </trkpt>
      <trkpt lat="42.97737" lon="0.26407">
        <ele>1454.23</ele>
        <time>2017-09-03T09:31:45Z</time>
      </trkpt>
      <trkpt lat="42.97751" lon="0.26413">
        <ele>1455.97</ele>
        <time>2017-09-03T09:32:05Z</time>
      </trkpt>
      <trkpt lat="42.97759" lon="0.26403">
        <ele>1457.85</ele>
        <time>2017-09-03T09:32:21Z</time>
      </trkpt>
      <trkpt lat="42.9776" lon="0.26398">
        <ele>1457.83</ele>
        <time>2017-09-03T09:32:38Z</time>
      </trkpt>
      <trkpt lat="42.97768" lon="0.26384">
        <ele>1459.9</ele>
        <time>2017-09-03T09:32:55Z</time>
      </trkpt>
      <trkpt lat="42.97774" lon="0.26374">
        <ele>1461.97</ele>
        <time>2017-09-03T09:33:09Z</time>
      </trkpt>
      <trkpt lat="42.97779" lon="0.26362">
        <ele>1463.49</ele>
        <time>2017-09-03T09:33:23Z</time>
      </trkpt>
      <trkpt lat="42.9778" lon="0.26359">
        <ele>1463.7</ele>
        <time>2017-09-03T09:33:26Z</time>
      </trkpt>
      <trkpt lat="42.97783" lon="0.26353">
        <ele>1464.12</ele>
        <time>2017-09-03T09:33:31Z</time>
      </trkpt>
      <trkpt lat="42.9779" lon="0.2634">
        <ele>1464.68</ele>
        <time>2017-09-03T09:33:46Z</time>
      </trkpt>
      <trkpt lat="42.97797" lon="0.26337">
        <ele>1465.21</ele>
        <time>2017-09-03T09:33:58Z</time>
      </trkpt>
      <trkpt lat="42.97803" lon="0.26328">
        <ele>1466.55</ele>
        <time>2017-09-03T09:34:12Z</time>
      </trkpt>
      <trkpt lat="42.97808" lon="0.2632">
        <ele>1469.52</ele>
        <time>2017-09-03T09:34:27Z</time>
      </trkpt>
      <trkpt lat="42.97813" lon="0.26313">
        <ele>1472.42</ele>
        <time>2017-09-03T09:34:43Z</time>
      </trkpt>
      <trkpt lat="42.97818" lon="0.26308">
        <ele>1474.5</ele>
        <time>2017-09-03T09:34:58Z</time>
      </trkpt>
      <trkpt lat="42.97824" lon="0.26302">
        <ele>1475.5</ele>
        <time>2017-09-03T09:35:10Z</time>
      </trkpt>
      <trkpt lat="42.97831" lon="0.26296">
        <ele>1477.24</ele>
        <time>2017-09-03T09:35:25Z</time>
      </trkpt>
      <trkpt lat="42.97836" lon="0.26285">
        <ele>1478.87</ele>
        <time>2017-09-03T09:35:42Z</time>
      </trkpt>
      <trkpt lat="42.97842" lon="0.26275">
        <ele>1480.84</ele>
        <time>2017-09-03T09:36:00Z</time>
      </trkpt>
      <trkpt lat="42.9785" lon="0.26267">
        <ele>1482.62</ele>
        <time>2017-09-03T09:36:14Z</time>
      </trkpt>
      <trkpt lat="42.97854" lon="0.2626">
        <ele>1483.53</ele>
        <time>2017-09-03T09:36:30Z</time>
      </trkpt>
      <trkpt lat="42.97861" lon="0.26254">
        <ele>1484.07</ele>
        <time>2017-09-03T09:36:44Z</time>
      </trkpt>
      <trkpt lat="42.97865" lon="0.26254">
        <ele>1485.89</ele>
        <time>2017-09-03T09:37:02Z</time>
      </trkpt>
      <trkpt lat="42.97867" lon="0.26249">
        <ele>1486.35</ele>
        <time>2017-09-03T09:37:24Z</time>
      </trkpt>
      <trkpt lat="42.97867" lon="0.26248">
        <ele>1486.02</ele>
        <time>2017-09-03T09:38:04Z</time>
      </trkpt>
      <trkpt lat="42.97869" lon="0.26245">
        <ele>1486.36</ele>
        <time>2017-09-03T09:38:22Z</time>
      </trkpt>
      <trkpt lat="42.9787" lon="0.26239">
        <ele>1487.61</ele>
        <time>2017-09-03T09:38:39Z</time>
      </trkpt>
      <trkpt lat="42.97876" lon="0.26231">
        <ele>1488.16</ele>
        <time>2017-09-03T09:38:54Z</time>
      </trkpt>
      <trkpt lat="42.97881" lon="0.26225">
        <ele>1490.19</ele>
        <time>2017-09-03T09:39:07Z</time>
      </trkpt>
      <trkpt lat="42.97886" lon="0.26218">
        <ele>1493.34</ele>
        <time>2017-09-03T09:39:25Z</time>
      </trkpt>
      <trkpt lat="42.97889" lon="0.26214">
        <ele>1494.65</ele>
        <time>2017-09-03T09:39:40Z</time>
      </trkpt>
      <trkpt lat="42.97892" lon="0.26206">
        <ele>1496.65</ele>
        <time>2017-09-03T09:39:57Z</time>
      </trkpt>
      <trkpt lat="42.97892" lon="0.26203">
        <ele>1496.96</ele>
        <time>2017-09-03T09:39:59Z</time>
      </trkpt>
      <trkpt lat="42.97896" lon="0.2619">
        <ele>1498.66</ele>
        <time>2017-09-03T09:40:14Z</time>
      </trkpt>
      <trkpt lat="42.97896" lon="0.26188">
        <ele>1498.93</ele>
        <time>2017-09-03T09:40:16Z</time>
      </trkpt>
      <trkpt lat="42.97898" lon="0.26178">
        <ele>1499.74</ele>
        <time>2017-09-03T09:40:30Z</time>
      </trkpt>
      <trkpt lat="42.97902" lon="0.26174">
        <ele>1500.58</ele>
        <time>2017-09-03T09:40:46Z</time>
      </trkpt>
      <trkpt lat="42.97904" lon="0.26159">
        <ele>1501.42</ele>
        <time>2017-09-03T09:41:02Z</time>
      </trkpt>
      <trkpt lat="42.97906" lon="0.2615">
        <ele>1502.66</ele>
        <time>2017-09-03T09:41:17Z</time>
      </trkpt>
      <trkpt lat="42.97908" lon="0.2614">
        <ele>1503.59</ele>
        <time>2017-09-03T09:41:36Z</time>
      </trkpt>
      <trkpt lat="42.97907" lon="0.26131">
        <ele>1502.82</ele>
        <time>2017-09-03T09:41:50Z</time>
      </trkpt>
      <trkpt lat="42.9791" lon="0.26124">
        <ele>1502.88</ele>
        <time>2017-09-03T09:42:04Z</time>
      </trkpt>
      <trkpt lat="42.9791" lon="0.26122">
        <ele>1503.13</ele>
        <time>2017-09-03T09:42:39Z</time>
      </trkpt>
      <trkpt lat="42.97911" lon="0.26119">
        <ele>1503.12</ele>
        <time>2017-09-03T09:42:58Z</time>
      </trkpt>
      <trkpt lat="42.97918" lon="0.26109">
        <ele>1503.8</ele>
        <time>2017-09-03T09:43:12Z</time>
      </trkpt>
      <trkpt lat="42.97925" lon="0.26098">
        <ele>1505.59</ele>
        <time>2017-09-03T09:43:29Z</time>
      </trkpt>
      <trkpt lat="42.97926" lon="0.26096">
        <ele>1505.93</ele>
        <time>2017-09-03T09:43:32Z</time>
      </trkpt>
      <trkpt lat="42.97932" lon="0.26085">
        <ele>1506.58</ele>
        <time>2017-09-03T09:43:45Z</time>
      </trkpt>
      <trkpt lat="42.97936" lon="0.26079">
        <ele>1507.45</ele>
        <time>2017-09-03T09:44:01Z</time>
      </trkpt>
      <trkpt lat="42.97938" lon="0.26075">
        <ele>1509.16</ele>
        <time>2017-09-03T09:44:15Z</time>
      </trkpt>
      <trkpt lat="42.9794" lon="0.26065">
        <ele>1508.52</ele>
        <time>2017-09-03T09:44:32Z</time>
      </trkpt>
      <trkpt lat="42.97944" lon="0.26058">
        <ele>1508.64</ele>
        <time>2017-09-03T09:44:50Z</time>
      </trkpt>
      <trkpt lat="42.97946" lon="0.26056">
        <ele>1508.78</ele>
        <time>2017-09-03T09:44:53Z</time>
      </trkpt>
      <trkpt lat="42.97951" lon="0.26045">
        <ele>1509.58</ele>
        <time>2017-09-03T09:45:08Z</time>
      </trkpt>
      <trkpt lat="42.97957" lon="0.26037">
        <ele>1511</ele>
        <time>2017-09-03T09:45:29Z</time>
      </trkpt>
      <trkpt lat="42.97963" lon="0.26033">
        <ele>1511.45</ele>
        <time>2017-09-03T09:45:38Z</time>
      </trkpt>
      <trkpt lat="42.9797" lon="0.26029">
        <ele>1512.15</ele>
        <time>2017-09-03T09:45:45Z</time>
      </trkpt>
      <trkpt lat="42.97981" lon="0.26022">
        <ele>1514.73</ele>
        <time>2017-09-03T09:46:02Z</time>
      </trkpt>
      <trkpt lat="42.97987" lon="0.26015">
        <ele>1515.08</ele>
        <time>2017-09-03T09:46:16Z</time>
      </trkpt>
      <trkpt lat="42.97988" lon="0.26012">
        <ele>1514.2</ele>
        <time>2017-09-03T09:46:34Z</time>
      </trkpt>
      <trkpt lat="42.97988" lon="0.26011">
        <ele>1514.22</ele>
        <time>2017-09-03T09:47:06Z</time>
      </trkpt>
      <trkpt lat="42.97987" lon="0.26012">
        <ele>1513.72</ele>
        <time>2017-09-03T09:47:36Z</time>
      </trkpt>
      <trkpt lat="42.97989" lon="0.26011">
        <ele>1514.03</ele>
        <time>2017-09-03T09:48:06Z</time>
      </trkpt>
      <trkpt lat="42.97986" lon="0.26012">
        <ele>1513.84</ele>
        <time>2017-09-03T09:48:42Z</time>
      </trkpt>
      <trkpt lat="42.97985" lon="0.26012">
        <ele>1513.9</ele>
        <time>2017-09-03T09:49:26Z</time>
      </trkpt>
      <trkpt lat="42.97988" lon="0.26012">
        <ele>1514.03</ele>
        <time>2017-09-03T09:50:08Z</time>
      </trkpt>
      <trkpt lat="42.97995" lon="0.26003">
        <ele>1514.86</ele>
        <time>2017-09-03T09:50:26Z</time>
      </trkpt>
      <trkpt lat="42.98" lon="0.25997">
        <ele>1515.46</ele>
        <time>2017-09-03T09:50:39Z</time>
      </trkpt>
      <trkpt lat="42.98003" lon="0.25988">
        <ele>1515.18</ele>
        <time>2017-09-03T09:50:53Z</time>
      </trkpt>
      <trkpt lat="42.98009" lon="0.25983">
        <ele>1514.67</ele>
        <time>2017-09-03T09:51:09Z</time>
      </trkpt>
      <trkpt lat="42.98018" lon="0.25978">
        <ele>1513.6</ele>
        <time>2017-09-03T09:51:24Z</time>
      </trkpt>
      <trkpt lat="42.98024" lon="0.25972">
        <ele>1511.98</ele>
        <time>2017-09-03T09:51:39Z</time>
      </trkpt>
      <trkpt lat="42.98035" lon="0.25969">
        <ele>1511.63</ele>
        <time>2017-09-03T09:51:56Z</time>
      </trkpt>
      <trkpt lat="42.9804" lon="0.25968">
        <ele>1511.68</ele>
        <time>2017-09-03T09:52:01Z</time>
      </trkpt>
      <trkpt lat="42.98047" lon="0.25964">
        <ele>1511.72</ele>
        <time>2017-09-03T09:52:14Z</time>
      </trkpt>
      <trkpt lat="42.98056" lon="0.25958">
        <ele>1511.39</ele>
        <time>2017-09-03T09:52:29Z</time>
      </trkpt>
      <trkpt lat="42.98057" lon="0.25957">
        <ele>1511.46</ele>
        <time>2017-09-03T09:52:31Z</time>
      </trkpt>
      <trkpt lat="42.98069" lon="0.25951">
        <ele>1511.91</ele>
        <time>2017-09-03T09:52:45Z</time>
      </trkpt>
      <trkpt lat="42.98077" lon="0.25944">
        <ele>1511.68</ele>
        <time>2017-09-03T09:53:02Z</time>
      </trkpt>
      <trkpt lat="42.98092" lon="0.25936">
        <ele>1509.98</ele>
        <time>2017-09-03T09:53:23Z</time>
      </trkpt>
      <trkpt lat="42.98102" lon="0.25927">
        <ele>1509.93</ele>
        <time>2017-09-03T09:53:41Z</time>
      </trkpt>
      <trkpt lat="42.9811" lon="0.25915">
        <ele>1508.11</ele>
        <time>2017-09-03T09:54:03Z</time>
      </trkpt>
      <trkpt lat="42.98119" lon="0.25908">
        <ele>1507.82</ele>
        <time>2017-09-03T09:54:21Z</time>
      </trkpt>
      <trkpt lat="42.98131" lon="0.259">
        <ele>1509.41</ele>
        <time>2017-09-03T09:54:39Z</time>
      </trkpt>
      <trkpt lat="42.9814" lon="0.25895">
        <ele>1511.54</ele>
        <time>2017-09-03T09:54:53Z</time>
      </trkpt>
      <trkpt lat="42.98148" lon="0.25885">
        <ele>1513.61</ele>
        <time>2017-09-03T09:55:11Z</time>
      </trkpt>
      <trkpt lat="42.98154" lon="0.25866">
        <ele>1513.72</ele>
        <time>2017-09-03T09:55:27Z</time>
      </trkpt>
      <trkpt lat="42.98157" lon="0.25846">
        <ele>1512.11</ele>
        <time>2017-09-03T09:55:44Z</time>
      </trkpt>
      <trkpt lat="42.98161" lon="0.25828">
        <ele>1512.35</ele>
        <time>2017-09-03T09:56:00Z</time>
      </trkpt>
      <trkpt lat="42.98162" lon="0.25822">
        <ele>1512.78</ele>
        <time>2017-09-03T09:56:04Z</time>
      </trkpt>
      <trkpt lat="42.98163" lon="0.25808">
        <ele>1513.91</ele>
        <time>2017-09-03T09:56:17Z</time>
      </trkpt>
      <trkpt lat="42.98165" lon="0.25795">
        <ele>1516.98</ele>
        <time>2017-09-03T09:56:35Z</time>
      </trkpt>
      <trkpt lat="42.98164" lon="0.25782">
        <ele>1518.14</ele>
        <time>2017-09-03T09:56:48Z</time>
      </trkpt>
      <trkpt lat="42.98173" lon="0.2577">
        <ele>1519.24</ele>
        <time>2017-09-03T09:57:04Z</time>
      </trkpt>
      <trkpt lat="42.9818" lon="0.2576">
        <ele>1521.93</ele>
        <time>2017-09-03T09:57:21Z</time>
      </trkpt>
      <trkpt lat="42.98188" lon="0.25749">
        <ele>1525</ele>
        <time>2017-09-03T09:57:41Z</time>
      </trkpt>
      <trkpt lat="42.98195" lon="0.25743">
        <ele>1528.14</ele>
        <time>2017-09-03T09:57:59Z</time>
      </trkpt>
      <trkpt lat="42.98199" lon="0.25731">
        <ele>1530.14</ele>
        <time>2017-09-03T09:58:16Z</time>
      </trkpt>
      <trkpt lat="42.98207" lon="0.25717">
        <ele>1532.64</ele>
        <time>2017-09-03T09:58:35Z</time>
      </trkpt>
      <trkpt lat="42.98213" lon="0.25712">
        <ele>1534.4</ele>
        <time>2017-09-03T09:58:50Z</time>
      </trkpt>
      <trkpt lat="42.98214" lon="0.25699">
        <ele>1536</ele>
        <time>2017-09-03T09:59:06Z</time>
      </trkpt>
      <trkpt lat="42.98217" lon="0.25685">
        <ele>1536.72</ele>
        <time>2017-09-03T09:59:22Z</time>
      </trkpt>
      <trkpt lat="42.98213" lon="0.2567">
        <ele>1539.57</ele>
        <time>2017-09-03T09:59:39Z</time>
      </trkpt>
      <trkpt lat="42.98214" lon="0.2566">
        <ele>1540.22</ele>
        <time>2017-09-03T10:00:02Z</time>
      </trkpt>
      <trkpt lat="42.98213" lon="0.25649">
        <ele>1539.41</ele>
        <time>2017-09-03T10:00:18Z</time>
      </trkpt>
      <trkpt lat="42.9822" lon="0.25638">
        <ele>1538.44</ele>
        <time>2017-09-03T10:00:37Z</time>
      </trkpt>
      <trkpt lat="42.98226" lon="0.25626">
        <ele>1538.25</ele>
        <time>2017-09-03T10:01:00Z</time>
      </trkpt>
      <trkpt lat="42.98237" lon="0.25615">
        <ele>1537.07</ele>
        <time>2017-09-03T10:01:19Z</time>
      </trkpt>
      <trkpt lat="42.98244" lon="0.25606">
        <ele>1536.89</ele>
        <time>2017-09-03T10:01:36Z</time>
      </trkpt>
      <trkpt lat="42.98252" lon="0.25602">
        <ele>1538.49</ele>
        <time>2017-09-03T10:01:54Z</time>
      </trkpt>
      <trkpt lat="42.98258" lon="0.25592">
        <ele>1539.13</ele>
        <time>2017-09-03T10:02:08Z</time>
      </trkpt>
      <trkpt lat="42.98265" lon="0.2558">
        <ele>1539.72</ele>
        <time>2017-09-03T10:02:23Z</time>
      </trkpt>
      <trkpt lat="42.98271" lon="0.2557">
        <ele>1540.71</ele>
        <time>2017-09-03T10:02:40Z</time>
      </trkpt>
      <trkpt lat="42.98272" lon="0.25565">
        <ele>1541.57</ele>
        <time>2017-09-03T10:02:45Z</time>
      </trkpt>
      <trkpt lat="42.98273" lon="0.25561">
        <ele>1541.8</ele>
        <time>2017-09-03T10:02:48Z</time>
      </trkpt>
      <trkpt lat="42.98279" lon="0.25549">
        <ele>1541.15</ele>
        <time>2017-09-03T10:03:02Z</time>
      </trkpt>
      <trkpt lat="42.98288" lon="0.25537">
        <ele>1539.81</ele>
        <time>2017-09-03T10:03:21Z</time>
      </trkpt>
      <trkpt lat="42.98298" lon="0.25512">
        <ele>1540.26</ele>
        <time>2017-09-03T10:03:39Z</time>
      </trkpt>
      <trkpt lat="42.983" lon="0.25498">
        <ele>1538.64</ele>
        <time>2017-09-03T10:03:53Z</time>
      </trkpt>
      <trkpt lat="42.98304" lon="0.25484">
        <ele>1537.28</ele>
        <time>2017-09-03T10:04:07Z</time>
      </trkpt>
      <trkpt lat="42.98304" lon="0.25482">
        <ele>1537.25</ele>
        <time>2017-09-03T10:04:08Z</time>
      </trkpt>
      <trkpt lat="42.98307" lon="0.25478">
        <ele>1536.99</ele>
        <time>2017-09-03T10:04:13Z</time>
      </trkpt>
      <trkpt lat="42.98312" lon="0.2547">
        <ele>1537.04</ele>
        <time>2017-09-03T10:04:22Z</time>
      </trkpt>
      <trkpt lat="42.9832" lon="0.25456">
        <ele>1536.79</ele>
        <time>2017-09-03T10:04:35Z</time>
      </trkpt>
      <trkpt lat="42.9833" lon="0.25449">
        <ele>1537.54</ele>
        <time>2017-09-03T10:04:53Z</time>
      </trkpt>
      <trkpt lat="42.98336" lon="0.25445">
        <ele>1538.31</ele>
        <time>2017-09-03T10:05:03Z</time>
      </trkpt>
      <trkpt lat="42.98341" lon="0.25435">
        <ele>1537.73</ele>
        <time>2017-09-03T10:05:32Z</time>
      </trkpt>
      <trkpt lat="42.98351" lon="0.25429">
        <ele>1537.21</ele>
        <time>2017-09-03T10:05:47Z</time>
      </trkpt>
      <trkpt lat="42.98353" lon="0.25429">
        <ele>1537.03</ele>
        <time>2017-09-03T10:05:49Z</time>
      </trkpt>
      <trkpt lat="42.98356" lon="0.25427">
        <ele>1536.66</ele>
        <time>2017-09-03T10:05:52Z</time>
      </trkpt>
      <trkpt lat="42.9837" lon="0.2542">
        <ele>1535.53</ele>
        <time>2017-09-03T10:06:06Z</time>
      </trkpt>
      <trkpt lat="42.98378" lon="0.25407">
        <ele>1533.26</ele>
        <time>2017-09-03T10:06:20Z</time>
      </trkpt>
      <trkpt lat="42.98378" lon="0.25396">
        <ele>1531.94</ele>
        <time>2017-09-03T10:06:44Z</time>
      </trkpt>
      <trkpt lat="42.98375" lon="0.25389">
        <ele>1530.99</ele>
        <time>2017-09-03T10:07:03Z</time>
      </trkpt>
      <trkpt lat="42.98377" lon="0.25383">
        <ele>1530.56</ele>
        <time>2017-09-03T10:07:29Z</time>
      </trkpt>
      <trkpt lat="42.98379" lon="0.25374">
        <ele>1528.78</ele>
        <time>2017-09-03T10:07:44Z</time>
      </trkpt>
      <trkpt lat="42.9838" lon="0.25371">
        <ele>1528.42</ele>
        <time>2017-09-03T10:07:47Z</time>
      </trkpt>
      <trkpt lat="42.98385" lon="0.25363">
        <ele>1525.92</ele>
        <time>2017-09-03T10:08:04Z</time>
      </trkpt>
      <trkpt lat="42.9839" lon="0.2535">
        <ele>1523.68</ele>
        <time>2017-09-03T10:08:23Z</time>
      </trkpt>
      <trkpt lat="42.98388" lon="0.25338">
        <ele>1520.53</ele>
        <time>2017-09-03T10:08:40Z</time>
      </trkpt>
      <trkpt lat="42.98394" lon="0.25334">
        <ele>1518.32</ele>
        <time>2017-09-03T10:09:03Z</time>
      </trkpt>
      <trkpt lat="42.98402" lon="0.25332">
        <ele>1518.63</ele>
        <time>2017-09-03T10:09:27Z</time>
      </trkpt>
      <trkpt lat="42.98403" lon="0.25326">
        <ele>1518.46</ele>
        <time>2017-09-03T10:09:48Z</time>
      </trkpt>
      <trkpt lat="42.98412" lon="0.25316">
        <ele>1517.74</ele>
        <time>2017-09-03T10:10:07Z</time>
      </trkpt>
      <trkpt lat="42.98416" lon="0.25302">
        <ele>1514.65</ele>
        <time>2017-09-03T10:10:26Z</time>
      </trkpt>
      <trkpt lat="42.98418" lon="0.25286">
        <ele>1512.46</ele>
        <time>2017-09-03T10:10:45Z</time>
      </trkpt>
      <trkpt lat="42.98421" lon="0.25277">
        <ele>1509.65</ele>
        <time>2017-09-03T10:11:03Z</time>
      </trkpt>
      <trkpt lat="42.98427" lon="0.25271">
        <ele>1507.9</ele>
        <time>2017-09-03T10:11:23Z</time>
      </trkpt>
      <trkpt lat="42.98435" lon="0.25262">
        <ele>1507.35</ele>
        <time>2017-09-03T10:11:38Z</time>
      </trkpt>
      <trkpt lat="42.98438" lon="0.25252">
        <ele>1506.07</ele>
        <time>2017-09-03T10:12:06Z</time>
      </trkpt>
      <trkpt lat="42.98439" lon="0.25241">
        <ele>1503.93</ele>
        <time>2017-09-03T10:12:22Z</time>
      </trkpt>
      <trkpt lat="42.98442" lon="0.25238">
        <ele>1502.68</ele>
        <time>2017-09-03T10:12:44Z</time>
      </trkpt>
      <trkpt lat="42.98457" lon="0.25233">
        <ele>1503.84</ele>
        <time>2017-09-03T10:13:05Z</time>
      </trkpt>
      <trkpt lat="42.98464" lon="0.25225">
        <ele>1504.36</ele>
        <time>2017-09-03T10:13:12Z</time>
      </trkpt>
      <trkpt lat="42.98472" lon="0.25215">
        <ele>1504.12</ele>
        <time>2017-09-03T10:13:20Z</time>
      </trkpt>
      <trkpt lat="42.98484" lon="0.25199">
        <ele>1503.09</ele>
        <time>2017-09-03T10:13:33Z</time>
      </trkpt>
      <trkpt lat="42.98486" lon="0.25191">
        <ele>1502.6</ele>
        <time>2017-09-03T10:13:37Z</time>
      </trkpt>
      <trkpt lat="42.98493" lon="0.25176">
        <ele>1499.44</ele>
        <time>2017-09-03T10:13:53Z</time>
      </trkpt>
      <trkpt lat="42.98494" lon="0.25171">
        <ele>1498.6</ele>
        <time>2017-09-03T10:14:03Z</time>
      </trkpt>
      <trkpt lat="42.985" lon="0.25166">
        <ele>1498.04</ele>
        <time>2017-09-03T10:14:10Z</time>
      </trkpt>
      <trkpt lat="42.98506" lon="0.25154">
        <ele>1496.56</ele>
        <time>2017-09-03T10:14:22Z</time>
      </trkpt>
      <trkpt lat="42.98508" lon="0.25151">
        <ele>1495.92</ele>
        <time>2017-09-03T10:14:25Z</time>
      </trkpt>
      <trkpt lat="42.98513" lon="0.25136">
        <ele>1494.34</ele>
        <time>2017-09-03T10:14:34Z</time>
      </trkpt>
      <trkpt lat="42.98514" lon="0.25133">
        <ele>1493.89</ele>
        <time>2017-09-03T10:14:36Z</time>
      </trkpt>
      <trkpt lat="42.98518" lon="0.25125">
        <ele>1492.22</ele>
        <time>2017-09-03T10:14:44Z</time>
      </trkpt>
      <trkpt lat="42.98527" lon="0.2511">
        <ele>1488.76</ele>
        <time>2017-09-03T10:15:01Z</time>
      </trkpt>
      <trkpt lat="42.98535" lon="0.25094">
        <ele>1486.74</ele>
        <time>2017-09-03T10:15:26Z</time>
      </trkpt>
      <trkpt lat="42.98541" lon="0.25088">
        <ele>1483.69</ele>
        <time>2017-09-03T10:15:38Z</time>
      </trkpt>
      <trkpt lat="42.98546" lon="0.25083">
        <ele>1481.67</ele>
        <time>2017-09-03T10:15:46Z</time>
      </trkpt>
      <trkpt lat="42.98557" lon="0.2508">
        <ele>1478.42</ele>
        <time>2017-09-03T10:16:00Z</time>
      </trkpt>
      <trkpt lat="42.98558" lon="0.2508">
        <ele>1478.23</ele>
        <time>2017-09-03T10:16:01Z</time>
      </trkpt>
      <trkpt lat="42.98569" lon="0.25077">
        <ele>1475.88</ele>
        <time>2017-09-03T10:16:12Z</time>
      </trkpt>
      <trkpt lat="42.98585" lon="0.25074">
        <ele>1473.19</ele>
        <time>2017-09-03T10:16:25Z</time>
      </trkpt>
      <trkpt lat="42.98588" lon="0.25071">
        <ele>1472.37</ele>
        <time>2017-09-03T10:16:29Z</time>
      </trkpt>
      <trkpt lat="42.98595" lon="0.25061">
        <ele>1470.92</ele>
        <time>2017-09-03T10:16:37Z</time>
      </trkpt>
      <trkpt lat="42.98598" lon="0.25059">
        <ele>1470.35</ele>
        <time>2017-09-03T10:16:40Z</time>
      </trkpt>
      <trkpt lat="42.98602" lon="0.25056">
        <ele>1469.65</ele>
        <time>2017-09-03T10:16:44Z</time>
      </trkpt>
      <trkpt lat="42.98614" lon="0.25048">
        <ele>1467.97</ele>
        <time>2017-09-03T10:16:58Z</time>
      </trkpt>
      <trkpt lat="42.98613" lon="0.25049">
        <ele>1467.8</ele>
        <time>2017-09-03T10:17:18Z</time>
      </trkpt>
      <trkpt lat="42.98618" lon="0.25044">
        <ele>1466.77</ele>
        <time>2017-09-03T10:17:44Z</time>
      </trkpt>
      <trkpt lat="42.98621" lon="0.25038">
        <ele>1466.22</ele>
        <time>2017-09-03T10:17:49Z</time>
      </trkpt>
      <trkpt lat="42.98628" lon="0.25028">
        <ele>1465.28</ele>
        <time>2017-09-03T10:18:02Z</time>
      </trkpt>
      <trkpt lat="42.9863" lon="0.25024">
        <ele>1464.71</ele>
        <time>2017-09-03T10:18:05Z</time>
      </trkpt>
      <trkpt lat="42.98632" lon="0.25018">
        <ele>1464.2</ele>
        <time>2017-09-03T10:18:09Z</time>
      </trkpt>
      <trkpt lat="42.98632" lon="0.24991">
        <ele>1462.75</ele>
        <time>2017-09-03T10:18:24Z</time>
      </trkpt>
      <trkpt lat="42.98633" lon="0.24987">
        <ele>1462.71</ele>
        <time>2017-09-03T10:18:27Z</time>
      </trkpt>
      <trkpt lat="42.98635" lon="0.24978">
        <ele>1463.37</ele>
        <time>2017-09-03T10:18:33Z</time>
      </trkpt>
      <trkpt lat="42.98646" lon="0.24964">
        <ele>1465.73</ele>
        <time>2017-09-03T10:18:50Z</time>
      </trkpt>
      <trkpt lat="42.98653" lon="0.24949">
        <ele>1468.88</ele>
        <time>2017-09-03T10:19:09Z</time>
      </trkpt>
      <trkpt lat="42.9866" lon="0.24939">
        <ele>1471.93</ele>
        <time>2017-09-03T10:19:26Z</time>
      </trkpt>
      <trkpt lat="42.98669" lon="0.2493">
        <ele>1475.07</ele>
        <time>2017-09-03T10:19:44Z</time>
      </trkpt>
      <trkpt lat="42.98674" lon="0.24919">
        <ele>1478.16</ele>
        <time>2017-09-03T10:20:03Z</time>
      </trkpt>
      <trkpt lat="42.98679" lon="0.24909">
        <ele>1481.33</ele>
        <time>2017-09-03T10:20:22Z</time>
      </trkpt>
      <trkpt lat="42.98681" lon="0.249">
        <ele>1483.14</ele>
        <time>2017-09-03T10:20:44Z</time>
      </trkpt>
      <trkpt lat="42.98688" lon="0.2489">
        <ele>1484.77</ele>
        <time>2017-09-03T10:21:05Z</time>
      </trkpt>
      <trkpt lat="42.98695" lon="0.24881">
        <ele>1485.16</ele>
        <time>2017-09-03T10:21:23Z</time>
      </trkpt>
      <trkpt lat="42.98708" lon="0.24874">
        <ele>1486.79</ele>
        <time>2017-09-03T10:21:43Z</time>
      </trkpt>
      <trkpt lat="42.98721" lon="0.24872">
        <ele>1488.42</ele>
        <time>2017-09-03T10:22:06Z</time>
      </trkpt>
      <trkpt lat="42.98734" lon="0.24867">
        <ele>1489.08</ele>
        <time>2017-09-03T10:22:25Z</time>
      </trkpt>
      <trkpt lat="42.98742" lon="0.24856">
        <ele>1488.04</ele>
        <time>2017-09-03T10:22:44Z</time>
      </trkpt>
      <trkpt lat="42.98751" lon="0.24848">
        <ele>1488.87</ele>
        <time>2017-09-03T10:23:03Z</time>
      </trkpt>
      <trkpt lat="42.98761" lon="0.24839">
        <ele>1490.75</ele>
        <time>2017-09-03T10:23:22Z</time>
      </trkpt>
      <trkpt lat="42.98771" lon="0.24827">
        <ele>1492.45</ele>
        <time>2017-09-03T10:23:40Z</time>
      </trkpt>
      <trkpt lat="42.98782" lon="0.24813">
        <ele>1494.46</ele>
        <time>2017-09-03T10:24:01Z</time>
      </trkpt>
      <trkpt lat="42.98789" lon="0.24806">
        <ele>1496.9</ele>
        <time>2017-09-03T10:24:19Z</time>
      </trkpt>
      <trkpt lat="42.98795" lon="0.24795">
        <ele>1498.84</ele>
        <time>2017-09-03T10:24:35Z</time>
      </trkpt>
      <trkpt lat="42.98798" lon="0.24794">
        <ele>1499.75</ele>
        <time>2017-09-03T10:24:55Z</time>
      </trkpt>
      <trkpt lat="42.98797" lon="0.24791">
        <ele>1499.58</ele>
        <time>2017-09-03T10:25:25Z</time>
      </trkpt>
      <trkpt lat="42.98803" lon="0.24775">
        <ele>1500.74</ele>
        <time>2017-09-03T10:25:41Z</time>
      </trkpt>
      <trkpt lat="42.98805" lon="0.24764">
        <ele>1501.79</ele>
        <time>2017-09-03T10:25:57Z</time>
      </trkpt>
      <trkpt lat="42.98803" lon="0.24762">
        <ele>1501.84</ele>
        <time>2017-09-03T10:26:24Z</time>
      </trkpt>
      <trkpt lat="42.98802" lon="0.24762">
        <ele>1502.4</ele>
        <time>2017-09-03T10:27:02Z</time>
      </trkpt>
      <trkpt lat="42.98805" lon="0.24763">
        <ele>1502.38</ele>
        <time>2017-09-03T10:27:30Z</time>
      </trkpt>
      <trkpt lat="42.98804" lon="0.24765">
        <ele>1503.11</ele>
        <time>2017-09-03T10:28:29Z</time>
      </trkpt>
      <trkpt lat="42.98806" lon="0.24765">
        <ele>1502.71</ele>
        <time>2017-09-03T10:29:00Z</time>
      </trkpt>
      <trkpt lat="42.98806" lon="0.24765">
        <ele>1503.22</ele>
        <time>2017-09-03T10:29:32Z</time>
      </trkpt>
      <trkpt lat="42.98804" lon="0.24761">
        <ele>1502.7</ele>
        <time>2017-09-03T10:30:23Z</time>
      </trkpt>
      <trkpt lat="42.98805" lon="0.24762">
        <ele>1502.28</ele>
        <time>2017-09-03T10:31:09Z</time>
      </trkpt>
      <trkpt lat="42.98804" lon="0.24764">
        <ele>1502.45</ele>
        <time>2017-09-03T10:32:00Z</time>
      </trkpt>
      <trkpt lat="42.98803" lon="0.2476">
        <ele>1502.66</ele>
        <time>2017-09-03T10:32:48Z</time>
      </trkpt>
      <trkpt lat="42.98805" lon="0.2476">
        <ele>1502.43</ele>
        <time>2017-09-03T10:33:19Z</time>
      </trkpt>
      <trkpt lat="42.98805" lon="0.24759">
        <ele>1502.4</ele>
        <time>2017-09-03T10:33:20Z</time>
      </trkpt>
      <trkpt lat="42.98812" lon="0.24751">
        <ele>1501.37</ele>
        <time>2017-09-03T10:33:34Z</time>
      </trkpt>
      <trkpt lat="42.9882" lon="0.2475">
        <ele>1500.17</ele>
        <time>2017-09-03T10:33:49Z</time>
      </trkpt>
      <trkpt lat="42.98825" lon="0.24747">
        <ele>1498.58</ele>
        <time>2017-09-03T10:34:05Z</time>
      </trkpt>
      <trkpt lat="42.98833" lon="0.24742">
        <ele>1497.66</ele>
        <time>2017-09-03T10:34:20Z</time>
      </trkpt>
      <trkpt lat="42.98841" lon="0.24745">
        <ele>1495.15</ele>
        <time>2017-09-03T10:34:40Z</time>
      </trkpt>
      <trkpt lat="42.98852" lon="0.24748">
        <ele>1492.14</ele>
        <time>2017-09-03T10:34:55Z</time>
      </trkpt>
      <trkpt lat="42.98862" lon="0.24749">
        <ele>1489.02</ele>
        <time>2017-09-03T10:35:09Z</time>
      </trkpt>
      <trkpt lat="42.9887" lon="0.24755">
        <ele>1485.89</ele>
        <time>2017-09-03T10:35:23Z</time>
      </trkpt>
      <trkpt lat="42.98881" lon="0.24759">
        <ele>1482.75</ele>
        <time>2017-09-03T10:35:37Z</time>
      </trkpt>
      <trkpt lat="42.98892" lon="0.24761">
        <ele>1479.65</ele>
        <time>2017-09-03T10:35:51Z</time>
      </trkpt>
      <trkpt lat="42.98902" lon="0.24759">
        <ele>1476.51</ele>
        <time>2017-09-03T10:36:04Z</time>
      </trkpt>
      <trkpt lat="42.98912" lon="0.24754">
        <ele>1473.47</ele>
        <time>2017-09-03T10:36:20Z</time>
      </trkpt>
      <trkpt lat="42.98923" lon="0.24755">
        <ele>1470.44</ele>
        <time>2017-09-03T10:36:36Z</time>
      </trkpt>
      <trkpt lat="42.98932" lon="0.24752">
        <ele>1467.19</ele>
        <time>2017-09-03T10:36:49Z</time>
      </trkpt>
      <trkpt lat="42.98941" lon="0.24748">
        <ele>1464.2</ele>
        <time>2017-09-03T10:37:04Z</time>
      </trkpt>
      <trkpt lat="42.98948" lon="0.2474">
        <ele>1461.16</ele>
        <time>2017-09-03T10:37:18Z</time>
      </trkpt>
      <trkpt lat="42.98955" lon="0.24737">
        <ele>1459.94</ele>
        <time>2017-09-03T10:37:35Z</time>
      </trkpt>
      <trkpt lat="42.98962" lon="0.24738">
        <ele>1457.69</ele>
        <time>2017-09-03T10:37:47Z</time>
      </trkpt>
      <trkpt lat="42.98968" lon="0.24735">
        <ele>1455.92</ele>
        <time>2017-09-03T10:38:04Z</time>
      </trkpt>
      <trkpt lat="42.9897" lon="0.24737">
        <ele>1455.37</ele>
        <time>2017-09-03T10:38:20Z</time>
      </trkpt>
      <trkpt lat="42.98972" lon="0.24744">
        <ele>1454.72</ele>
        <time>2017-09-03T10:38:28Z</time>
      </trkpt>
      <trkpt lat="42.98978" lon="0.24746">
        <ele>1452.95</ele>
        <time>2017-09-03T10:38:44Z</time>
      </trkpt>
      <trkpt lat="42.98987" lon="0.24746">
        <ele>1450.97</ele>
        <time>2017-09-03T10:38:54Z</time>
      </trkpt>
      <trkpt lat="42.98987" lon="0.24747">
        <ele>1450.67</ele>
        <time>2017-09-03T10:38:55Z</time>
      </trkpt>
      <trkpt lat="42.98993" lon="0.24752">
        <ele>1448.19</ele>
        <time>2017-09-03T10:39:08Z</time>
      </trkpt>
      <trkpt lat="42.98995" lon="0.24754">
        <ele>1446.96</ele>
        <time>2017-09-03T10:39:17Z</time>
      </trkpt>
      <trkpt lat="42.99001" lon="0.24753">
        <ele>1446</ele>
        <time>2017-09-03T10:39:23Z</time>
      </trkpt>
      <trkpt lat="42.99015" lon="0.24753">
        <ele>1442.56</ele>
        <time>2017-09-03T10:39:35Z</time>
      </trkpt>
      <trkpt lat="42.99019" lon="0.24755">
        <ele>1441.33</ele>
        <time>2017-09-03T10:39:39Z</time>
      </trkpt>
      <trkpt lat="42.9902" lon="0.24754">
        <ele>1439.83</ele>
        <time>2017-09-03T10:39:57Z</time>
      </trkpt>
      <trkpt lat="42.99023" lon="0.24752">
        <ele>1439.85</ele>
        <time>2017-09-03T10:40:02Z</time>
      </trkpt>
      <trkpt lat="42.99026" lon="0.24752">
        <ele>1439.79</ele>
        <time>2017-09-03T10:40:05Z</time>
      </trkpt>
      <trkpt lat="42.99032" lon="0.24753">
        <ele>1439.3</ele>
        <time>2017-09-03T10:40:11Z</time>
      </trkpt>
      <trkpt lat="42.99035" lon="0.24751">
        <ele>1438.24</ele>
        <time>2017-09-03T10:40:29Z</time>
      </trkpt>
      <trkpt lat="42.99036" lon="0.24753">
        <ele>1438.06</ele>
        <time>2017-09-03T10:40:41Z</time>
      </trkpt>
      <trkpt lat="42.99037" lon="0.24754">
        <ele>1437.93</ele>
        <time>2017-09-03T10:40:43Z</time>
      </trkpt>
      <trkpt lat="42.99041" lon="0.24759">
        <ele>1437.72</ele>
        <time>2017-09-03T10:40:47Z</time>
      </trkpt>
      <trkpt lat="42.99044" lon="0.24767">
        <ele>1437.51</ele>
        <time>2017-09-03T10:40:53Z</time>
      </trkpt>
      <trkpt lat="42.99045" lon="0.24771">
        <ele>1437.42</ele>
        <time>2017-09-03T10:40:56Z</time>
      </trkpt>
      <trkpt lat="42.9905" lon="0.2478">
        <ele>1437.13</ele>
        <time>2017-09-03T10:41:07Z</time>
      </trkpt>
      <trkpt lat="42.9905" lon="0.24777">
        <ele>1437</ele>
        <time>2017-09-03T10:41:19Z</time>
      </trkpt>
      <trkpt lat="42.99052" lon="0.24773">
        <ele>1436.98</ele>
        <time>2017-09-03T10:41:22Z</time>
      </trkpt>
      <trkpt lat="42.99063" lon="0.2476">
        <ele>1436.71</ele>
        <time>2017-09-03T10:41:33Z</time>
      </trkpt>
      <trkpt lat="42.99076" lon="0.24747">
        <ele>1436.79</ele>
        <time>2017-09-03T10:41:45Z</time>
      </trkpt>
      <trkpt lat="42.99079" lon="0.24746">
        <ele>1436.77</ele>
        <time>2017-09-03T10:41:47Z</time>
      </trkpt>
      <trkpt lat="42.9909" lon="0.24734">
        <ele>1436.88</ele>
        <time>2017-09-03T10:41:57Z</time>
      </trkpt>
      <trkpt lat="42.99092" lon="0.24732">
        <ele>1436.82</ele>
        <time>2017-09-03T10:41:59Z</time>
      </trkpt>
      <trkpt lat="42.99101" lon="0.24724">
        <ele>1436.91</ele>
        <time>2017-09-03T10:42:07Z</time>
      </trkpt>
      <trkpt lat="42.99116" lon="0.24711">
        <ele>1437.29</ele>
        <time>2017-09-03T10:42:21Z</time>
      </trkpt>
      <trkpt lat="42.99127" lon="0.24699">
        <ele>1437.71</ele>
        <time>2017-09-03T10:42:32Z</time>
      </trkpt>
      <trkpt lat="42.99137" lon="0.24689">
        <ele>1437.89</ele>
        <time>2017-09-03T10:42:43Z</time>
      </trkpt>
      <trkpt lat="42.9914" lon="0.24687">
        <ele>1437.85</ele>
        <time>2017-09-03T10:42:46Z</time>
      </trkpt>
      <trkpt lat="42.99149" lon="0.24677">
        <ele>1438.52</ele>
        <time>2017-09-03T10:42:57Z</time>
      </trkpt>
      <trkpt lat="42.99162" lon="0.24665">
        <ele>1438.58</ele>
        <time>2017-09-03T10:43:09Z</time>
      </trkpt>
      <trkpt lat="42.99173" lon="0.24655">
        <ele>1438.64</ele>
        <time>2017-09-03T10:43:21Z</time>
      </trkpt>
      <trkpt lat="42.99173" lon="0.24654">
        <ele>1439.22</ele>
        <time>2017-09-03T10:43:38Z</time>
      </trkpt>
      <trkpt lat="42.99188" lon="0.2465">
        <ele>1439.14</ele>
        <time>2017-09-03T10:43:46Z</time>
      </trkpt>
      <trkpt lat="42.99211" lon="0.24646">
        <ele>1436.44</ele>
        <time>2017-09-03T10:43:59Z</time>
      </trkpt>
      <trkpt lat="42.99226" lon="0.24644">
        <ele>1434.04</ele>
        <time>2017-09-03T10:44:10Z</time>
      </trkpt>
      <trkpt lat="42.99227" lon="0.24644">
        <ele>1433.84</ele>
        <time>2017-09-03T10:44:11Z</time>
      </trkpt>
      <trkpt lat="42.99248" lon="0.24643">
        <ele>1430.47</ele>
        <time>2017-09-03T10:44:22Z</time>
      </trkpt>
      <trkpt lat="42.99266" lon="0.24642">
        <ele>1427.97</ele>
        <time>2017-09-03T10:44:34Z</time>
      </trkpt>
      <trkpt lat="42.99268" lon="0.24642">
        <ele>1427.73</ele>
        <time>2017-09-03T10:44:35Z</time>
      </trkpt>
      <trkpt lat="42.99285" lon="0.24642">
        <ele>1425.6</ele>
        <time>2017-09-03T10:44:46Z</time>
      </trkpt>
      <trkpt lat="42.99298" lon="0.24643">
        <ele>1424.5</ele>
        <time>2017-09-03T10:44:57Z</time>
      </trkpt>
      <trkpt lat="42.99302" lon="0.24643">
        <ele>1424.06</ele>
        <time>2017-09-03T10:45:01Z</time>
      </trkpt>
      <trkpt lat="42.99311" lon="0.24641">
        <ele>1423</ele>
        <time>2017-09-03T10:45:08Z</time>
      </trkpt>
      <trkpt lat="42.99328" lon="0.24643">
        <ele>1421.27</ele>
        <time>2017-09-03T10:45:20Z</time>
      </trkpt>
      <trkpt lat="42.99339" lon="0.24643">
        <ele>1420.27</ele>
        <time>2017-09-03T10:45:29Z</time>
      </trkpt>
      <trkpt lat="42.99356" lon="0.24642">
        <ele>1418.44</ele>
        <time>2017-09-03T10:45:42Z</time>
      </trkpt>
      <trkpt lat="42.99359" lon="0.24642">
        <ele>1418.02</ele>
        <time>2017-09-03T10:45:44Z</time>
      </trkpt>
      <trkpt lat="42.99376" lon="0.24639">
        <ele>1415.85</ele>
        <time>2017-09-03T10:45:56Z</time>
      </trkpt>
      <trkpt lat="42.99385" lon="0.24637">
        <ele>1414.76</ele>
        <time>2017-09-03T10:46:03Z</time>
      </trkpt>
      <trkpt lat="42.99394" lon="0.24635">
        <ele>1413.49</ele>
        <time>2017-09-03T10:46:10Z</time>
      </trkpt>
      <trkpt lat="42.99397" lon="0.24635">
        <ele>1413.16</ele>
        <time>2017-09-03T10:46:13Z</time>
      </trkpt>
      <trkpt lat="42.99402" lon="0.24635">
        <ele>1412.05</ele>
        <time>2017-09-03T10:46:21Z</time>
      </trkpt>
      <trkpt lat="42.99404" lon="0.24634">
        <ele>1411.92</ele>
        <time>2017-09-03T10:46:23Z</time>
      </trkpt>
      <trkpt lat="42.99408" lon="0.24632">
        <ele>1411.69</ele>
        <time>2017-09-03T10:46:27Z</time>
      </trkpt>
      <trkpt lat="42.99414" lon="0.24629">
        <ele>1410.81</ele>
        <time>2017-09-03T10:46:33Z</time>
      </trkpt>
      <trkpt lat="42.99416" lon="0.24628">
        <ele>1410.51</ele>
        <time>2017-09-03T10:46:35Z</time>
      </trkpt>
      <trkpt lat="42.99421" lon="0.24625">
        <ele>1409.78</ele>
        <time>2017-09-03T10:46:40Z</time>
      </trkpt>
      <trkpt lat="42.99427" lon="0.24622">
        <ele>1409</ele>
        <time>2017-09-03T10:46:45Z</time>
      </trkpt>
      <trkpt lat="42.99435" lon="0.24618">
        <ele>1408.04</ele>
        <time>2017-09-03T10:46:53Z</time>
      </trkpt>
      <trkpt lat="42.9944" lon="0.24616">
        <ele>1407.63</ele>
        <time>2017-09-03T10:46:57Z</time>
      </trkpt>
      <trkpt lat="42.99449" lon="0.24611">
        <ele>1406.72</ele>
        <time>2017-09-03T10:47:05Z</time>
      </trkpt>
      <trkpt lat="42.99466" lon="0.246">
        <ele>1405.62</ele>
        <time>2017-09-03T10:47:18Z</time>
      </trkpt>
      <trkpt lat="42.99467" lon="0.246">
        <ele>1405.49</ele>
        <time>2017-09-03T10:47:19Z</time>
      </trkpt>
      <trkpt lat="42.99474" lon="0.24594">
        <ele>1404.79</ele>
        <time>2017-09-03T10:47:25Z</time>
      </trkpt>
      <trkpt lat="42.99484" lon="0.2459">
        <ele>1404.07</ele>
        <time>2017-09-03T10:47:34Z</time>
      </trkpt>
      <trkpt lat="42.99499" lon="0.24579">
        <ele>1402.84</ele>
        <time>2017-09-03T10:47:45Z</time>
      </trkpt>
      <trkpt lat="42.99511" lon="0.24571">
        <ele>1401.19</ele>
        <time>2017-09-03T10:47:56Z</time>
      </trkpt>
      <trkpt lat="42.99514" lon="0.24568">
        <ele>1400.96</ele>
        <time>2017-09-03T10:47:58Z</time>
      </trkpt>
      <trkpt lat="42.99516" lon="0.24561">
        <ele>1400.57</ele>
        <time>2017-09-03T10:48:02Z</time>
      </trkpt>
      <trkpt lat="42.99529" lon="0.24546">
        <ele>1399.52</ele>
        <time>2017-09-03T10:48:14Z</time>
      </trkpt>
      <trkpt lat="42.9954" lon="0.24531">
        <ele>1398.61</ele>
        <time>2017-09-03T10:48:25Z</time>
      </trkpt>
      <trkpt lat="42.99541" lon="0.24528">
        <ele>1398.54</ele>
        <time>2017-09-03T10:48:27Z</time>
      </trkpt>
      <trkpt lat="42.99551" lon="0.2451">
        <ele>1396.76</ele>
        <time>2017-09-03T10:48:39Z</time>
      </trkpt>
      <trkpt lat="42.99561" lon="0.24491">
        <ele>1395.05</ele>
        <time>2017-09-03T10:48:52Z</time>
      </trkpt>
      <trkpt lat="42.99569" lon="0.24478">
        <ele>1394.14</ele>
        <time>2017-09-03T10:49:01Z</time>
      </trkpt>
      <trkpt lat="42.99578" lon="0.24461">
        <ele>1393.83</ele>
        <time>2017-09-03T10:49:12Z</time>
      </trkpt>
      <trkpt lat="42.9958" lon="0.24454">
        <ele>1393.58</ele>
        <time>2017-09-03T10:49:16Z</time>
      </trkpt>
      <trkpt lat="42.99582" lon="0.2445">
        <ele>1393.4</ele>
        <time>2017-09-03T10:49:19Z</time>
      </trkpt>
      <trkpt lat="42.99584" lon="0.24444">
        <ele>1393.12</ele>
        <time>2017-09-03T10:49:23Z</time>
      </trkpt>
      <trkpt lat="42.99595" lon="0.24424">
        <ele>1390.87</ele>
        <time>2017-09-03T10:49:39Z</time>
      </trkpt>
      <trkpt lat="42.99599" lon="0.24416">
        <ele>1390.36</ele>
        <time>2017-09-03T10:49:46Z</time>
      </trkpt>
      <trkpt lat="42.99603" lon="0.24408">
        <ele>1389.83</ele>
        <time>2017-09-03T10:49:52Z</time>
      </trkpt>
      <trkpt lat="42.99607" lon="0.244">
        <ele>1389.18</ele>
        <time>2017-09-03T10:49:58Z</time>
      </trkpt>
      <trkpt lat="42.99614" lon="0.24387">
        <ele>1388.02</ele>
        <time>2017-09-03T10:50:08Z</time>
      </trkpt>
      <trkpt lat="42.99619" lon="0.24377">
        <ele>1387.26</ele>
        <time>2017-09-03T10:50:15Z</time>
      </trkpt>
      <trkpt lat="42.99622" lon="0.24369">
        <ele>1387.02</ele>
        <time>2017-09-03T10:50:27Z</time>
      </trkpt>
      <trkpt lat="42.99623" lon="0.24369">
        <ele>1387.03</ele>
        <time>2017-09-03T10:50:32Z</time>
      </trkpt>
      <trkpt lat="42.9963" lon="0.24363">
        <ele>1386.62</ele>
        <time>2017-09-03T10:50:38Z</time>
      </trkpt>
      <trkpt lat="42.99642" lon="0.24348">
        <ele>1386.55</ele>
        <time>2017-09-03T10:50:49Z</time>
      </trkpt>
      <trkpt lat="42.99647" lon="0.24341">
        <ele>1386.64</ele>
        <time>2017-09-03T10:50:54Z</time>
      </trkpt>
      <trkpt lat="42.99649" lon="0.24338">
        <ele>1386.63</ele>
        <time>2017-09-03T10:50:56Z</time>
      </trkpt>
      <trkpt lat="42.99654" lon="0.24328">
        <ele>1386.04</ele>
        <time>2017-09-03T10:51:03Z</time>
      </trkpt>
      <trkpt lat="42.99658" lon="0.24316">
        <ele>1386.09</ele>
        <time>2017-09-03T10:51:11Z</time>
      </trkpt>
      <trkpt lat="42.99662" lon="0.24306">
        <ele>1386.15</ele>
        <time>2017-09-03T10:51:18Z</time>
      </trkpt>
      <trkpt lat="42.9967" lon="0.24287">
        <ele>1388.94</ele>
        <time>2017-09-03T10:51:34Z</time>
      </trkpt>
      <trkpt lat="42.99675" lon="0.24279">
        <ele>1390.13</ele>
        <time>2017-09-03T10:51:41Z</time>
      </trkpt>
      <trkpt lat="42.99677" lon="0.24275">
        <ele>1390.71</ele>
        <time>2017-09-03T10:51:45Z</time>
      </trkpt>
      <trkpt lat="42.9968" lon="0.24261">
        <ele>1391.64</ele>
        <time>2017-09-03T10:51:55Z</time>
      </trkpt>
      <trkpt lat="42.99681" lon="0.24256">
        <ele>1391.79</ele>
        <time>2017-09-03T10:51:59Z</time>
      </trkpt>
      <trkpt lat="42.99683" lon="0.24247">
        <ele>1392.17</ele>
        <time>2017-09-03T10:52:06Z</time>
      </trkpt>
      <trkpt lat="42.99685" lon="0.2423">
        <ele>1393.1</ele>
        <time>2017-09-03T10:52:18Z</time>
      </trkpt>
      <trkpt lat="42.99687" lon="0.24211">
        <ele>1394.07</ele>
        <time>2017-09-03T10:52:30Z</time>
      </trkpt>
      <trkpt lat="42.99689" lon="0.24195">
        <ele>1395.45</ele>
        <time>2017-09-03T10:52:41Z</time>
      </trkpt>
      <trkpt lat="42.99691" lon="0.24186">
        <ele>1395.97</ele>
        <time>2017-09-03T10:52:48Z</time>
      </trkpt>
      <trkpt lat="42.99693" lon="0.24169">
        <ele>1397.07</ele>
        <time>2017-09-03T10:53:00Z</time>
      </trkpt>
      <trkpt lat="42.99694" lon="0.24168">
        <ele>1397.19</ele>
        <time>2017-09-03T10:53:01Z</time>
      </trkpt>
      <trkpt lat="42.99695" lon="0.24154">
        <ele>1399.3</ele>
        <time>2017-09-03T10:53:14Z</time>
      </trkpt>
      <trkpt lat="42.99697" lon="0.24142">
        <ele>1400.47</ele>
        <time>2017-09-03T10:53:25Z</time>
      </trkpt>
      <trkpt lat="42.99698" lon="0.24129">
        <ele>1402.53</ele>
        <time>2017-09-03T10:53:39Z</time>
      </trkpt>
      <trkpt lat="42.99699" lon="0.24115">
        <ele>1403.56</ele>
        <time>2017-09-03T10:53:51Z</time>
      </trkpt>
      <trkpt lat="42.99702" lon="0.24104">
        <ele>1405.15</ele>
        <time>2017-09-03T10:54:05Z</time>
      </trkpt>
      <trkpt lat="42.99703" lon="0.24098">
        <ele>1405.84</ele>
        <time>2017-09-03T10:54:10Z</time>
      </trkpt>
      <trkpt lat="42.99704" lon="0.24087">
        <ele>1407.58</ele>
        <time>2017-09-03T10:54:21Z</time>
      </trkpt>
      <trkpt lat="42.99705" lon="0.24076">
        <ele>1409.48</ele>
        <time>2017-09-03T10:54:37Z</time>
      </trkpt>
      <trkpt lat="42.99708" lon="0.24065">
        <ele>1410.81</ele>
        <time>2017-09-03T10:54:54Z</time>
      </trkpt>
      <trkpt lat="42.9971" lon="0.24056">
        <ele>1412.01</ele>
        <time>2017-09-03T10:55:03Z</time>
      </trkpt>
      <trkpt lat="42.9971" lon="0.24049">
        <ele>1412.91</ele>
        <time>2017-09-03T10:55:10Z</time>
      </trkpt>
      <trkpt lat="42.99712" lon="0.24034">
        <ele>1414.33</ele>
        <time>2017-09-03T10:55:23Z</time>
      </trkpt>
      <trkpt lat="42.99713" lon="0.24021">
        <ele>1415.84</ele>
        <time>2017-09-03T10:55:36Z</time>
      </trkpt>
      <trkpt lat="42.99715" lon="0.2401">
        <ele>1417.68</ele>
        <time>2017-09-03T10:55:50Z</time>
      </trkpt>
      <trkpt lat="42.99717" lon="0.23998">
        <ele>1419.91</ele>
        <time>2017-09-03T10:56:04Z</time>
      </trkpt>
      <trkpt lat="42.99719" lon="0.23984">
        <ele>1422.11</ele>
        <time>2017-09-03T10:56:18Z</time>
      </trkpt>
      <trkpt lat="42.9972" lon="0.23971">
        <ele>1423.76</ele>
        <time>2017-09-03T10:56:32Z</time>
      </trkpt>
      <trkpt lat="42.99722" lon="0.23958">
        <ele>1425.09</ele>
        <time>2017-09-03T10:56:45Z</time>
      </trkpt>
      <trkpt lat="42.99725" lon="0.23951">
        <ele>1427</ele>
        <time>2017-09-03T10:56:59Z</time>
      </trkpt>
      <trkpt lat="42.99727" lon="0.23944">
        <ele>1427.74</ele>
        <time>2017-09-03T10:57:08Z</time>
      </trkpt>
      <trkpt lat="42.99728" lon="0.23939">
        <ele>1428</ele>
        <time>2017-09-03T10:57:12Z</time>
      </trkpt>
      <trkpt lat="42.99734" lon="0.23926">
        <ele>1428.56</ele>
        <time>2017-09-03T10:57:25Z</time>
      </trkpt>
      <trkpt lat="42.99736" lon="0.23925">
        <ele>1428.51</ele>
        <time>2017-09-03T10:57:30Z</time>
      </trkpt>
      <trkpt lat="42.99748" lon="0.23917">
        <ele>1429.89</ele>
        <time>2017-09-03T10:57:45Z</time>
      </trkpt>
      <trkpt lat="42.99761" lon="0.23916">
        <ele>1432.33</ele>
        <time>2017-09-03T10:58:00Z</time>
      </trkpt>
      <trkpt lat="42.99772" lon="0.23915">
        <ele>1433.84</ele>
        <time>2017-09-03T10:58:15Z</time>
      </trkpt>
      <trkpt lat="42.99782" lon="0.23909">
        <ele>1433.81</ele>
        <time>2017-09-03T10:58:26Z</time>
      </trkpt>
      <trkpt lat="42.99784" lon="0.23908">
        <ele>1433.8</ele>
        <time>2017-09-03T10:58:29Z</time>
      </trkpt>
      <trkpt lat="42.99786" lon="0.23908">
        <ele>1433.65</ele>
        <time>2017-09-03T10:58:31Z</time>
      </trkpt>
      <trkpt lat="42.99791" lon="0.23907">
        <ele>1433.06</ele>
        <time>2017-09-03T10:58:36Z</time>
      </trkpt>
      <trkpt lat="42.99794" lon="0.23907">
        <ele>1432.85</ele>
        <time>2017-09-03T10:58:39Z</time>
      </trkpt>
      <trkpt lat="42.99803" lon="0.23907">
        <ele>1433.37</ele>
        <time>2017-09-03T10:58:52Z</time>
      </trkpt>
      <trkpt lat="42.99805" lon="0.23907">
        <ele>1433.62</ele>
        <time>2017-09-03T10:58:54Z</time>
      </trkpt>
      <trkpt lat="42.99813" lon="0.23903">
        <ele>1433.74</ele>
        <time>2017-09-03T10:59:08Z</time>
      </trkpt>
      <trkpt lat="42.99813" lon="0.23902">
        <ele>1433.8</ele>
        <time>2017-09-03T10:59:09Z</time>
      </trkpt>
      <trkpt lat="42.99821" lon="0.23892">
        <ele>1434.11</ele>
        <time>2017-09-03T10:59:23Z</time>
      </trkpt>
      <trkpt lat="42.99826" lon="0.23888">
        <ele>1434</ele>
        <time>2017-09-03T10:59:34Z</time>
      </trkpt>
      <trkpt lat="42.9983" lon="0.23887">
        <ele>1433.59</ele>
        <time>2017-09-03T10:59:45Z</time>
      </trkpt>
      <trkpt lat="42.99833" lon="0.23891">
        <ele>1433.87</ele>
        <time>2017-09-03T10:59:52Z</time>
      </trkpt>
      <trkpt lat="42.99842" lon="0.23893">
        <ele>1434.7</ele>
        <time>2017-09-03T11:00:10Z</time>
      </trkpt>
      <trkpt lat="42.99847" lon="0.23896">
        <ele>1434.71</ele>
        <time>2017-09-03T11:00:33Z</time>
      </trkpt>
      <trkpt lat="42.9985" lon="0.23898">
        <ele>1434.5</ele>
        <time>2017-09-03T11:00:36Z</time>
      </trkpt>
      <trkpt lat="42.99852" lon="0.23896">
        <ele>1433.54</ele>
        <time>2017-09-03T11:00:43Z</time>
      </trkpt>
      <trkpt lat="42.99853" lon="0.23891">
        <ele>1433.36</ele>
        <time>2017-09-03T11:00:47Z</time>
      </trkpt>
      <trkpt lat="42.99859" lon="0.2388">
        <ele>1431.95</ele>
        <time>2017-09-03T11:00:59Z</time>
      </trkpt>
      <trkpt lat="42.99859" lon="0.23872">
        <ele>1431.21</ele>
        <time>2017-09-03T11:01:06Z</time>
      </trkpt>
      <trkpt lat="42.99863" lon="0.23866">
        <ele>1430.2</ele>
        <time>2017-09-03T11:01:13Z</time>
      </trkpt>
      <trkpt lat="42.99865" lon="0.23865">
        <ele>1429.68</ele>
        <time>2017-09-03T11:01:16Z</time>
      </trkpt>
      <trkpt lat="42.99871" lon="0.23861">
        <ele>1427.66</ele>
        <time>2017-09-03T11:01:30Z</time>
      </trkpt>
      <trkpt lat="42.99872" lon="0.23861">
        <ele>1427.32</ele>
        <time>2017-09-03T11:01:34Z</time>
      </trkpt>
      <trkpt lat="42.99876" lon="0.23857">
        <ele>1426.86</ele>
        <time>2017-09-03T11:01:40Z</time>
      </trkpt>
      <trkpt lat="42.99877" lon="0.23854">
        <ele>1426.55</ele>
        <time>2017-09-03T11:01:43Z</time>
      </trkpt>
      <trkpt lat="42.99886" lon="0.23852">
        <ele>1425</ele>
        <time>2017-09-03T11:01:57Z</time>
      </trkpt>
      <trkpt lat="42.99891" lon="0.2385">
        <ele>1424.02</ele>
        <time>2017-09-03T11:02:04Z</time>
      </trkpt>
      <trkpt lat="42.99897" lon="0.23848">
        <ele>1422.86</ele>
        <time>2017-09-03T11:02:11Z</time>
      </trkpt>
      <trkpt lat="42.99905" lon="0.2385">
        <ele>1421.21</ele>
        <time>2017-09-03T11:02:21Z</time>
      </trkpt>
      <trkpt lat="42.99907" lon="0.23846">
        <ele>1420.49</ele>
        <time>2017-09-03T11:02:25Z</time>
      </trkpt>
      <trkpt lat="42.9992" lon="0.23846">
        <ele>1418.85</ele>
        <time>2017-09-03T11:02:37Z</time>
      </trkpt>
      <trkpt lat="42.99921" lon="0.23846">
        <ele>1418.7</ele>
        <time>2017-09-03T11:02:38Z</time>
      </trkpt>
      <trkpt lat="42.99923" lon="0.23847">
        <ele>1418.19</ele>
        <time>2017-09-03T11:02:41Z</time>
      </trkpt>
      <trkpt lat="42.99933" lon="0.23853">
        <ele>1417.01</ele>
        <time>2017-09-03T11:02:53Z</time>
      </trkpt>
      <trkpt lat="42.99939" lon="0.23855">
        <ele>1416.19</ele>
        <time>2017-09-03T11:03:00Z</time>
      </trkpt>
      <trkpt lat="42.99942" lon="0.23856">
        <ele>1415.96</ele>
        <time>2017-09-03T11:03:02Z</time>
      </trkpt>
      <trkpt lat="42.99944" lon="0.23856">
        <ele>1415.68</ele>
        <time>2017-09-03T11:03:04Z</time>
      </trkpt>
      <trkpt lat="42.99946" lon="0.23857">
        <ele>1415.34</ele>
        <time>2017-09-03T11:03:06Z</time>
      </trkpt>
      <trkpt lat="42.9995" lon="0.2386">
        <ele>1414.09</ele>
        <time>2017-09-03T11:03:16Z</time>
      </trkpt>
      <trkpt lat="42.99953" lon="0.23861">
        <ele>1413.87</ele>
        <time>2017-09-03T11:03:19Z</time>
      </trkpt>
      <trkpt lat="42.99954" lon="0.23862">
        <ele>1413.64</ele>
        <time>2017-09-03T11:03:21Z</time>
      </trkpt>
      <trkpt lat="42.99961" lon="0.2386">
        <ele>1412.52</ele>
        <time>2017-09-03T11:03:28Z</time>
      </trkpt>
      <trkpt lat="42.99967" lon="0.23866">
        <ele>1410.22</ele>
        <time>2017-09-03T11:03:39Z</time>
      </trkpt>
      <trkpt lat="42.99973" lon="0.23867">
        <ele>1408.71</ele>
        <time>2017-09-03T11:03:54Z</time>
      </trkpt>
      <trkpt lat="42.99973" lon="0.23866">
        <ele>1408.59</ele>
        <time>2017-09-03T11:03:55Z</time>
      </trkpt>
      <trkpt lat="42.99977" lon="0.23864">
        <ele>1407.97</ele>
        <time>2017-09-03T11:04:00Z</time>
      </trkpt>
      <trkpt lat="42.99984" lon="0.23861">
        <ele>1406.58</ele>
        <time>2017-09-03T11:04:10Z</time>
      </trkpt>
      <trkpt lat="42.99987" lon="0.2386">
        <ele>1406.07</ele>
        <time>2017-09-03T11:04:13Z</time>
      </trkpt>
      <trkpt lat="42.99989" lon="0.2386">
        <ele>1405.65</ele>
        <time>2017-09-03T11:04:15Z</time>
      </trkpt>
      <trkpt lat="42.99996" lon="0.23858">
        <ele>1404.47</ele>
        <time>2017-09-03T11:04:21Z</time>
      </trkpt>
      <trkpt lat="43.00004" lon="0.23859">
        <ele>1403.65</ele>
        <time>2017-09-03T11:04:28Z</time>
      </trkpt>
      <trkpt lat="43.00007" lon="0.23858">
        <ele>1403.26</ele>
        <time>2017-09-03T11:04:31Z</time>
      </trkpt>
      <trkpt lat="43.00019" lon="0.23858">
        <ele>1402.01</ele>
        <time>2017-09-03T11:04:41Z</time>
      </trkpt>
      <trkpt lat="43.0003" lon="0.2386">
        <ele>1401.79</ele>
        <time>2017-09-03T11:04:51Z</time>
      </trkpt>
      <trkpt lat="43.00037" lon="0.23863">
        <ele>1401.83</ele>
        <time>2017-09-03T11:04:57Z</time>
      </trkpt>
      <trkpt lat="43.00048" lon="0.23866">
        <ele>1402.97</ele>
        <time>2017-09-03T11:05:12Z</time>
      </trkpt>
      <trkpt lat="43.00052" lon="0.23863">
        <ele>1405.06</ele>
        <time>2017-09-03T11:05:33Z</time>
      </trkpt>
      <trkpt lat="43.00052" lon="0.23861">
        <ele>1405.34</ele>
        <time>2017-09-03T11:06:01Z</time>
      </trkpt>
      <trkpt lat="43.00051" lon="0.23862">
        <ele>1405.03</ele>
        <time>2017-09-03T11:06:24Z</time>
      </trkpt>
      <trkpt lat="43.00052" lon="0.23862">
        <ele>1405.13</ele>
        <time>2017-09-03T11:06:52Z</time>
      </trkpt>
      <trkpt lat="43.00053" lon="0.23861">
        <ele>1405.63</ele>
        <time>2017-09-03T11:07:24Z</time>
      </trkpt>
      <trkpt lat="43.00053" lon="0.23862">
        <ele>1405.3</ele>
        <time>2017-09-03T11:07:53Z</time>
      </trkpt>
      <trkpt lat="43.00054" lon="0.23863">
        <ele>1405.41</ele>
        <time>2017-09-03T11:08:15Z</time>
      </trkpt>
      <trkpt lat="43.00053" lon="0.23867">
        <ele>1405.68</ele>
        <time>2017-09-03T11:08:36Z</time>
      </trkpt>
      <trkpt lat="43.00054" lon="0.23869">
        <ele>1405.56</ele>
        <time>2017-09-03T11:09:10Z</time>
      </trkpt>
      <trkpt lat="43.00053" lon="0.23865">
        <ele>1405.43</ele>
        <time>2017-09-03T11:09:36Z</time>
      </trkpt>
      <trkpt lat="43.00055" lon="0.23867">
        <ele>1405.16</ele>
        <time>2017-09-03T11:09:58Z</time>
      </trkpt>
      <trkpt lat="43.00054" lon="0.23864">
        <ele>1405.93</ele>
        <time>2017-09-03T11:10:17Z</time>
      </trkpt>
      <trkpt lat="43.00054" lon="0.23861">
        <ele>1405.9</ele>
        <time>2017-09-03T11:10:37Z</time>
      </trkpt>
      <trkpt lat="43.00053" lon="0.23862">
        <ele>1405.39</ele>
        <time>2017-09-03T11:10:57Z</time>
      </trkpt>
      <trkpt lat="43.00052" lon="0.23864">
        <ele>1405.33</ele>
        <time>2017-09-03T11:11:28Z</time>
      </trkpt>
      <trkpt lat="43.00052" lon="0.23863">
        <ele>1404.8</ele>
        <time>2017-09-03T11:12:17Z</time>
      </trkpt>
      <trkpt lat="43.00052" lon="0.23864">
        <ele>1404.75</ele>
        <time>2017-09-03T11:13:09Z</time>
      </trkpt>
      <trkpt lat="43.00051" lon="0.23866">
        <ele>1404.87</ele>
        <time>2017-09-03T11:13:50Z</time>
      </trkpt>
      <trkpt lat="43.00051" lon="0.23866">
        <ele>1404.28</ele>
        <time>2017-09-03T11:14:15Z</time>
      </trkpt>
      <trkpt lat="43.00052" lon="0.23864">
        <ele>1404.26</ele>
        <time>2017-09-03T11:14:59Z</time>
      </trkpt>
      <trkpt lat="43.00052" lon="0.23863">
        <ele>1403.64</ele>
        <time>2017-09-03T11:15:53Z</time>
      </trkpt>
      <trkpt lat="43.00052" lon="0.23862">
        <ele>1403.95</ele>
        <time>2017-09-03T11:16:47Z</time>
      </trkpt>
      <trkpt lat="43.00052" lon="0.23862">
        <ele>1404.23</ele>
        <time>2017-09-03T11:17:37Z</time>
      </trkpt>
      <trkpt lat="43.00053" lon="0.23861">
        <ele>1403.6</ele>
        <time>2017-09-03T11:18:37Z</time>
      </trkpt>
      <trkpt lat="43.00052" lon="0.23862">
        <ele>1404.04</ele>
        <time>2017-09-03T11:19:40Z</time>
      </trkpt>
      <trkpt lat="43.00051" lon="0.23864">
        <ele>1404.38</ele>
        <time>2017-09-03T11:20:44Z</time>
      </trkpt>
      <trkpt lat="43.00051" lon="0.23863">
        <ele>1403.19</ele>
        <time>2017-09-03T11:21:46Z</time>
      </trkpt>
      <trkpt lat="43.00051" lon="0.23861">
        <ele>1402.97</ele>
        <time>2017-09-03T11:22:50Z</time>
      </trkpt>
      <trkpt lat="43.0005" lon="0.23861">
        <ele>1403.38</ele>
        <time>2017-09-03T11:23:54Z</time>
      </trkpt>
      <trkpt lat="43.0005" lon="0.23863">
        <ele>1404.47</ele>
        <time>2017-09-03T11:25:06Z</time>
      </trkpt>
      <trkpt lat="43.00051" lon="0.23862">
        <ele>1405.35</ele>
        <time>2017-09-03T11:26:23Z</time>
      </trkpt>
      <trkpt lat="43.00051" lon="0.23865">
        <ele>1403.01</ele>
        <time>2017-09-03T11:27:29Z</time>
      </trkpt>
      <trkpt lat="43.00051" lon="0.23863">
        <ele>1403.11</ele>
        <time>2017-09-03T11:28:22Z</time>
      </trkpt>
      <trkpt lat="43.0005" lon="0.23864">
        <ele>1402.96</ele>
        <time>2017-09-03T11:29:21Z</time>
      </trkpt>
      <trkpt lat="43.0005" lon="0.23862">
        <ele>1402.22</ele>
        <time>2017-09-03T11:30:27Z</time>
      </trkpt>
      <trkpt lat="43.0005" lon="0.23862">
        <ele>1403.02</ele>
        <time>2017-09-03T11:31:35Z</time>
      </trkpt>
      <trkpt lat="43.0005" lon="0.23863">
        <ele>1402.84</ele>
        <time>2017-09-03T11:32:48Z</time>
      </trkpt>
      <trkpt lat="43.0005" lon="0.23862">
        <ele>1403.18</ele>
        <time>2017-09-03T11:33:51Z</time>
      </trkpt>
      <trkpt lat="43.0005" lon="0.23861">
        <ele>1403.17</ele>
        <time>2017-09-03T11:34:54Z</time>
      </trkpt>
      <trkpt lat="43.0005" lon="0.23862">
        <ele>1402.96</ele>
        <time>2017-09-03T11:35:46Z</time>
      </trkpt>
      <trkpt lat="43.0005" lon="0.23862">
        <ele>1402.81</ele>
        <time>2017-09-03T11:36:46Z</time>
      </trkpt>
      <trkpt lat="43.00049" lon="0.23862">
        <ele>1402.96</ele>
        <time>2017-09-03T11:37:44Z</time>
      </trkpt>
      <trkpt lat="43.0005" lon="0.2386">
        <ele>1402.72</ele>
        <time>2017-09-03T11:38:41Z</time>
      </trkpt>
      <trkpt lat="43.00051" lon="0.2386">
        <ele>1403.08</ele>
        <time>2017-09-03T11:39:39Z</time>
      </trkpt>
      <trkpt lat="43.00051" lon="0.2386">
        <ele>1403.34</ele>
        <time>2017-09-03T11:40:34Z</time>
      </trkpt>
      <trkpt lat="43.0005" lon="0.23861">
        <ele>1403.84</ele>
        <time>2017-09-03T11:41:33Z</time>
      </trkpt>
      <trkpt lat="43.0005" lon="0.23862">
        <ele>1403.54</ele>
        <time>2017-09-03T11:42:34Z</time>
      </trkpt>
      <trkpt lat="43.00049" lon="0.23863">
        <ele>1403.66</ele>
        <time>2017-09-03T11:43:32Z</time>
      </trkpt>
      <trkpt lat="43.0005" lon="0.23862">
        <ele>1403.73</ele>
        <time>2017-09-03T11:44:33Z</time>
      </trkpt>
      <trkpt lat="43.00049" lon="0.23863">
        <ele>1403.65</ele>
        <time>2017-09-03T11:45:27Z</time>
      </trkpt>
      <trkpt lat="43.00049" lon="0.23862">
        <ele>1403.6</ele>
        <time>2017-09-03T11:46:16Z</time>
      </trkpt>
      <trkpt lat="43.00049" lon="0.23862">
        <ele>1403.48</ele>
        <time>2017-09-03T11:47:08Z</time>
      </trkpt>
      <trkpt lat="43.00049" lon="0.23862">
        <ele>1403.51</ele>
        <time>2017-09-03T11:47:58Z</time>
      </trkpt>
      <trkpt lat="43.00049" lon="0.23861">
        <ele>1403.71</ele>
        <time>2017-09-03T11:48:48Z</time>
      </trkpt>
      <trkpt lat="43.00049" lon="0.2386">
        <ele>1403.75</ele>
        <time>2017-09-03T11:49:48Z</time>
      </trkpt>
      <trkpt lat="43.00049" lon="0.23861">
        <ele>1404.11</ele>
        <time>2017-09-03T11:50:41Z</time>
      </trkpt>
      <trkpt lat="43.0005" lon="0.2386">
        <ele>1403.98</ele>
        <time>2017-09-03T11:51:32Z</time>
      </trkpt>
      <trkpt lat="43.0005" lon="0.23858">
        <ele>1404.4</ele>
        <time>2017-09-03T11:51:57Z</time>
      </trkpt>
      <trkpt lat="43.00051" lon="0.23858">
        <ele>1404.71</ele>
        <time>2017-09-03T11:52:25Z</time>
      </trkpt>
      <trkpt lat="43.0005" lon="0.23858">
        <ele>1404.5</ele>
        <time>2017-09-03T11:53:01Z</time>
      </trkpt>
      <trkpt lat="43.00049" lon="0.2386">
        <ele>1404.22</ele>
        <time>2017-09-03T11:53:40Z</time>
      </trkpt>
      <trkpt lat="43.00044" lon="0.23856">
        <ele>1404.35</ele>
        <time>2017-09-03T11:54:03Z</time>
      </trkpt>
      <trkpt lat="43.00036" lon="0.23856">
        <ele>1403.6</ele>
        <time>2017-09-03T11:54:16Z</time>
      </trkpt>
      <trkpt lat="43.0003" lon="0.23857">
        <ele>1402.66</ele>
        <time>2017-09-03T11:54:24Z</time>
      </trkpt>
      <trkpt lat="43.00027" lon="0.23857">
        <ele>1401.79</ele>
        <time>2017-09-03T11:54:28Z</time>
      </trkpt>
      <trkpt lat="43.00012" lon="0.23859">
        <ele>1401.35</ele>
        <time>2017-09-03T11:54:45Z</time>
      </trkpt>
      <trkpt lat="43.00005" lon="0.23859">
        <ele>1401.63</ele>
        <time>2017-09-03T11:54:52Z</time>
      </trkpt>
      <trkpt lat="43" lon="0.23859">
        <ele>1402.26</ele>
        <time>2017-09-03T11:54:59Z</time>
      </trkpt>
      <trkpt lat="42.99989" lon="0.2386">
        <ele>1403.47</ele>
        <time>2017-09-03T11:55:14Z</time>
      </trkpt>
      <trkpt lat="42.99981" lon="0.23856">
        <ele>1404.73</ele>
        <time>2017-09-03T11:55:26Z</time>
      </trkpt>
      <trkpt lat="42.9998" lon="0.23856">
        <ele>1404.81</ele>
        <time>2017-09-03T11:55:27Z</time>
      </trkpt>
      <trkpt lat="42.99971" lon="0.23846">
        <ele>1406.72</ele>
        <time>2017-09-03T11:55:42Z</time>
      </trkpt>
      <trkpt lat="42.99968" lon="0.23841">
        <ele>1407.35</ele>
        <time>2017-09-03T11:55:51Z</time>
      </trkpt>
      <trkpt lat="42.99962" lon="0.23832">
        <ele>1409.13</ele>
        <time>2017-09-03T11:56:04Z</time>
      </trkpt>
      <trkpt lat="42.99956" lon="0.23822">
        <ele>1409.7</ele>
        <time>2017-09-03T11:56:17Z</time>
      </trkpt>
      <trkpt lat="42.99948" lon="0.23814">
        <ele>1410.4</ele>
        <time>2017-09-03T11:56:30Z</time>
      </trkpt>
      <trkpt lat="42.9994" lon="0.23806">
        <ele>1411.02</ele>
        <time>2017-09-03T11:56:42Z</time>
      </trkpt>
      <trkpt lat="42.99937" lon="0.23804">
        <ele>1411.2</ele>
        <time>2017-09-03T11:56:45Z</time>
      </trkpt>
      <trkpt lat="42.9993" lon="0.23798">
        <ele>1411.66</ele>
        <time>2017-09-03T11:56:55Z</time>
      </trkpt>
      <trkpt lat="42.99921" lon="0.2379">
        <ele>1412.7</ele>
        <time>2017-09-03T11:57:09Z</time>
      </trkpt>
      <trkpt lat="42.99919" lon="0.23783">
        <ele>1413.71</ele>
        <time>2017-09-03T11:57:24Z</time>
      </trkpt>
      <trkpt lat="42.99913" lon="0.2377">
        <ele>1414.13</ele>
        <time>2017-09-03T11:57:38Z</time>
      </trkpt>
      <trkpt lat="42.99913" lon="0.2377">
        <ele>1414.14</ele>
        <time>2017-09-03T11:57:39Z</time>
      </trkpt>
      <trkpt lat="42.9991" lon="0.23766">
        <ele>1413.89</ele>
        <time>2017-09-03T11:57:47Z</time>
      </trkpt>
      <trkpt lat="42.99905" lon="0.23763">
        <ele>1413.77</ele>
        <time>2017-09-03T11:57:53Z</time>
      </trkpt>
      <trkpt lat="42.99896" lon="0.23758">
        <ele>1413.35</ele>
        <time>2017-09-03T11:58:02Z</time>
      </trkpt>
      <trkpt lat="42.99887" lon="0.23751">
        <ele>1413.62</ele>
        <time>2017-09-03T11:58:15Z</time>
      </trkpt>
      <trkpt lat="42.9988" lon="0.23746">
        <ele>1414.01</ele>
        <time>2017-09-03T11:58:27Z</time>
      </trkpt>
      <trkpt lat="42.99874" lon="0.23742">
        <ele>1414.04</ele>
        <time>2017-09-03T11:58:35Z</time>
      </trkpt>
      <trkpt lat="42.99872" lon="0.23738">
        <ele>1414.02</ele>
        <time>2017-09-03T11:58:38Z</time>
      </trkpt>
      <trkpt lat="42.99869" lon="0.23735">
        <ele>1413.82</ele>
        <time>2017-09-03T11:58:42Z</time>
      </trkpt>
      <trkpt lat="42.99866" lon="0.23732">
        <ele>1413.74</ele>
        <time>2017-09-03T11:58:45Z</time>
      </trkpt>
      <trkpt lat="42.99858" lon="0.23723">
        <ele>1413.11</ele>
        <time>2017-09-03T11:58:59Z</time>
      </trkpt>
      <trkpt lat="42.99856" lon="0.23721">
        <ele>1412.86</ele>
        <time>2017-09-03T11:59:01Z</time>
      </trkpt>
      <trkpt lat="42.99854" lon="0.2372">
        <ele>1412.64</ele>
        <time>2017-09-03T11:59:03Z</time>
      </trkpt>
      <trkpt lat="42.99849" lon="0.23715">
        <ele>1412.03</ele>
        <time>2017-09-03T11:59:11Z</time>
      </trkpt>
      <trkpt lat="42.99847" lon="0.23713">
        <ele>1411.78</ele>
        <time>2017-09-03T11:59:14Z</time>
      </trkpt>
      <trkpt lat="42.9984" lon="0.23707">
        <ele>1410.18</ele>
        <time>2017-09-03T11:59:27Z</time>
      </trkpt>
      <trkpt lat="42.99839" lon="0.23706">
        <ele>1409.35</ele>
        <time>2017-09-03T11:59:47Z</time>
      </trkpt>
      <trkpt lat="42.99834" lon="0.23704">
        <ele>1409.13</ele>
        <time>2017-09-03T11:59:59Z</time>
      </trkpt>
      <trkpt lat="42.99828" lon="0.23703">
        <ele>1408.47</ele>
        <time>2017-09-03T12:00:07Z</time>
      </trkpt>
      <trkpt lat="42.99821" lon="0.23701">
        <ele>1406.82</ele>
        <time>2017-09-03T12:00:20Z</time>
      </trkpt>
      <trkpt lat="42.99819" lon="0.23701">
        <ele>1406.72</ele>
        <time>2017-09-03T12:00:51Z</time>
      </trkpt>
      <trkpt lat="42.99819" lon="0.23702">
        <ele>1407.08</ele>
        <time>2017-09-03T12:01:20Z</time>
      </trkpt>
      <trkpt lat="42.99818" lon="0.23702">
        <ele>1406.76</ele>
        <time>2017-09-03T12:01:43Z</time>
      </trkpt>
      <trkpt lat="42.99814" lon="0.23699">
        <ele>1406.27</ele>
        <time>2017-09-03T12:02:04Z</time>
      </trkpt>
      <trkpt lat="42.99812" lon="0.23699">
        <ele>1405.99</ele>
        <time>2017-09-03T12:02:08Z</time>
      </trkpt>
      <trkpt lat="42.99807" lon="0.23699">
        <ele>1404.84</ele>
        <time>2017-09-03T12:02:25Z</time>
      </trkpt>
      <trkpt lat="42.99797" lon="0.23696">
        <ele>1403.97</ele>
        <time>2017-09-03T12:02:39Z</time>
      </trkpt>
      <trkpt lat="42.99791" lon="0.23695">
        <ele>1402.86</ele>
        <time>2017-09-03T12:02:47Z</time>
      </trkpt>
      <trkpt lat="42.99785" lon="0.23693">
        <ele>1401.9</ele>
        <time>2017-09-03T12:02:54Z</time>
      </trkpt>
      <trkpt lat="42.99777" lon="0.23694">
        <ele>1400.77</ele>
        <time>2017-09-03T12:03:05Z</time>
      </trkpt>
      <trkpt lat="42.99766" lon="0.23691">
        <ele>1399</ele>
        <time>2017-09-03T12:03:19Z</time>
      </trkpt>
      <trkpt lat="42.99762" lon="0.23691">
        <ele>1397.69</ele>
        <time>2017-09-03T12:03:33Z</time>
      </trkpt>
      <trkpt lat="42.99751" lon="0.23688">
        <ele>1395.95</ele>
        <time>2017-09-03T12:03:49Z</time>
      </trkpt>
      <trkpt lat="42.99743" lon="0.23685">
        <ele>1394.41</ele>
        <time>2017-09-03T12:04:10Z</time>
      </trkpt>
      <trkpt lat="42.99737" lon="0.23684">
        <ele>1393.02</ele>
        <time>2017-09-03T12:04:26Z</time>
      </trkpt>
      <trkpt lat="42.99733" lon="0.23684">
        <ele>1391.71</ele>
        <time>2017-09-03T12:04:38Z</time>
      </trkpt>
      <trkpt lat="42.99733" lon="0.23689">
        <ele>1391.79</ele>
        <time>2017-09-03T12:05:23Z</time>
      </trkpt>
      <trkpt lat="42.99733" lon="0.23688">
        <ele>1392.44</ele>
        <time>2017-09-03T12:06:07Z</time>
      </trkpt>
      <trkpt lat="42.99734" lon="0.23688">
        <ele>1391.87</ele>
        <time>2017-09-03T12:06:42Z</time>
      </trkpt>
      <trkpt lat="42.99733" lon="0.23688">
        <ele>1391.66</ele>
        <time>2017-09-03T12:07:23Z</time>
      </trkpt>
      <trkpt lat="42.99731" lon="0.23689">
        <ele>1391.27</ele>
        <time>2017-09-03T12:07:43Z</time>
      </trkpt>
      <trkpt lat="42.99726" lon="0.23688">
        <ele>1390.4</ele>
        <time>2017-09-03T12:08:03Z</time>
      </trkpt>
      <trkpt lat="42.99717" lon="0.2369">
        <ele>1388.89</ele>
        <time>2017-09-03T12:08:19Z</time>
      </trkpt>
      <trkpt lat="42.99708" lon="0.23692">
        <ele>1386.95</ele>
        <time>2017-09-03T12:08:34Z</time>
      </trkpt>
      <trkpt lat="42.99698" lon="0.23695">
        <ele>1385.59</ele>
        <time>2017-09-03T12:08:48Z</time>
      </trkpt>
      <trkpt lat="42.9969" lon="0.23696">
        <ele>1383.99</ele>
        <time>2017-09-03T12:08:59Z</time>
      </trkpt>
      <trkpt lat="42.99688" lon="0.23696">
        <ele>1383.49</ele>
        <time>2017-09-03T12:09:01Z</time>
      </trkpt>
      <trkpt lat="42.99678" lon="0.237">
        <ele>1381.44</ele>
        <time>2017-09-03T12:09:15Z</time>
      </trkpt>
      <trkpt lat="42.99668" lon="0.23703">
        <ele>1379.97</ele>
        <time>2017-09-03T12:09:30Z</time>
      </trkpt>
      <trkpt lat="42.9966" lon="0.23703">
        <ele>1377.91</ele>
        <time>2017-09-03T12:09:41Z</time>
      </trkpt>
      <trkpt lat="42.9965" lon="0.23705">
        <ele>1375.07</ele>
        <time>2017-09-03T12:09:58Z</time>
      </trkpt>
      <trkpt lat="42.99642" lon="0.23706">
        <ele>1373.52</ele>
        <time>2017-09-03T12:10:12Z</time>
      </trkpt>
      <trkpt lat="42.9963" lon="0.23706">
        <ele>1371.41</ele>
        <time>2017-09-03T12:10:27Z</time>
      </trkpt>
      <trkpt lat="42.9962" lon="0.23705">
        <ele>1369.26</ele>
        <time>2017-09-03T12:10:40Z</time>
      </trkpt>
      <trkpt lat="42.9961" lon="0.23708">
        <ele>1367.32</ele>
        <time>2017-09-03T12:10:55Z</time>
      </trkpt>
      <trkpt lat="42.9961" lon="0.23707">
        <ele>1366.43</ele>
        <time>2017-09-03T12:11:22Z</time>
      </trkpt>
      <trkpt lat="42.99607" lon="0.23704">
        <ele>1365.58</ele>
        <time>2017-09-03T12:11:43Z</time>
      </trkpt>
      <trkpt lat="42.99602" lon="0.23708">
        <ele>1364.27</ele>
        <time>2017-09-03T12:11:51Z</time>
      </trkpt>
      <trkpt lat="42.99597" lon="0.23712">
        <ele>1363.12</ele>
        <time>2017-09-03T12:11:56Z</time>
      </trkpt>
      <trkpt lat="42.99592" lon="0.23712">
        <ele>1360.93</ele>
        <time>2017-09-03T12:12:09Z</time>
      </trkpt>
      <trkpt lat="42.99588" lon="0.2371">
        <ele>1359.7</ele>
        <time>2017-09-03T12:12:24Z</time>
      </trkpt>
      <trkpt lat="42.99588" lon="0.23707">
        <ele>1359.52</ele>
        <time>2017-09-03T12:12:28Z</time>
      </trkpt>
      <trkpt lat="42.99589" lon="0.23697">
        <ele>1358.92</ele>
        <time>2017-09-03T12:12:35Z</time>
      </trkpt>
      <trkpt lat="42.99588" lon="0.23693">
        <ele>1358.67</ele>
        <time>2017-09-03T12:12:38Z</time>
      </trkpt>
      <trkpt lat="42.99584" lon="0.23687">
        <ele>1356.85</ele>
        <time>2017-09-03T12:12:46Z</time>
      </trkpt>
      <trkpt lat="42.9958" lon="0.2368">
        <ele>1354.03</ele>
        <time>2017-09-03T12:12:59Z</time>
      </trkpt>
      <trkpt lat="42.99575" lon="0.23683">
        <ele>1352.84</ele>
        <time>2017-09-03T12:13:18Z</time>
      </trkpt>
      <trkpt lat="42.99573" lon="0.23678">
        <ele>1352.41</ele>
        <time>2017-09-03T12:13:29Z</time>
      </trkpt>
      <trkpt lat="42.99571" lon="0.23667">
        <ele>1350.48</ele>
        <time>2017-09-03T12:13:38Z</time>
      </trkpt>
      <trkpt lat="42.99566" lon="0.23655">
        <ele>1348.06</ele>
        <time>2017-09-03T12:13:49Z</time>
      </trkpt>
      <trkpt lat="42.9956" lon="0.23648">
        <ele>1344.83</ele>
        <time>2017-09-03T12:14:03Z</time>
      </trkpt>
      <trkpt lat="42.99554" lon="0.2364">
        <ele>1343.05</ele>
        <time>2017-09-03T12:14:17Z</time>
      </trkpt>
      <trkpt lat="42.9955" lon="0.23636">
        <ele>1341.22</ele>
        <time>2017-09-03T12:14:29Z</time>
      </trkpt>
      <trkpt lat="42.99548" lon="0.23643">
        <ele>1340.92</ele>
        <time>2017-09-03T12:14:46Z</time>
      </trkpt>
      <trkpt lat="42.99546" lon="0.23647">
        <ele>1340.81</ele>
        <time>2017-09-03T12:15:01Z</time>
      </trkpt>
      <trkpt lat="42.99545" lon="0.23645">
        <ele>1340.75</ele>
        <time>2017-09-03T12:15:25Z</time>
      </trkpt>
      <trkpt lat="42.99542" lon="0.23636">
        <ele>1339.61</ele>
        <time>2017-09-03T12:15:40Z</time>
      </trkpt>
      <trkpt lat="42.99541" lon="0.23633">
        <ele>1339.21</ele>
        <time>2017-09-03T12:15:44Z</time>
      </trkpt>
      <trkpt lat="42.99538" lon="0.23622">
        <ele>1338.06</ele>
        <time>2017-09-03T12:15:55Z</time>
      </trkpt>
      <trkpt lat="42.99536" lon="0.23621">
        <ele>1336.89</ele>
        <time>2017-09-03T12:16:12Z</time>
      </trkpt>
      <trkpt lat="42.99536" lon="0.23622">
        <ele>1336.52</ele>
        <time>2017-09-03T12:16:29Z</time>
      </trkpt>
      <trkpt lat="42.9953" lon="0.23622">
        <ele>1336.04</ele>
        <time>2017-09-03T12:16:40Z</time>
      </trkpt>
      <trkpt lat="42.99524" lon="0.23617">
        <ele>1334.55</ele>
        <time>2017-09-03T12:16:49Z</time>
      </trkpt>
      <trkpt lat="42.9952" lon="0.23613">
        <ele>1333.78</ele>
        <time>2017-09-03T12:17:05Z</time>
      </trkpt>
      <trkpt lat="42.99519" lon="0.23614">
        <ele>1333.79</ele>
        <time>2017-09-03T12:17:45Z</time>
      </trkpt>
      <trkpt lat="42.99519" lon="0.23615">
        <ele>1333.32</ele>
        <time>2017-09-03T12:18:21Z</time>
      </trkpt>
      <trkpt lat="42.99519" lon="0.23614">
        <ele>1333.58</ele>
        <time>2017-09-03T12:18:47Z</time>
      </trkpt>
      <trkpt lat="42.99519" lon="0.23615">
        <ele>1333.27</ele>
        <time>2017-09-03T12:19:22Z</time>
      </trkpt>
      <trkpt lat="42.99518" lon="0.23616">
        <ele>1333.54</ele>
        <time>2017-09-03T12:19:44Z</time>
      </trkpt>
      <trkpt lat="42.9952" lon="0.23622">
        <ele>1333.69</ele>
        <time>2017-09-03T12:20:19Z</time>
      </trkpt>
      <trkpt lat="42.99514" lon="0.23633">
        <ele>1330.62</ele>
        <time>2017-09-03T12:20:33Z</time>
      </trkpt>
      <trkpt lat="42.99511" lon="0.23641">
        <ele>1327.55</ele>
        <time>2017-09-03T12:20:44Z</time>
      </trkpt>
      <trkpt lat="42.99509" lon="0.23652">
        <ele>1324.28</ele>
        <time>2017-09-03T12:20:58Z</time>
      </trkpt>
      <trkpt lat="42.99509" lon="0.23666">
        <ele>1321.26</ele>
        <time>2017-09-03T12:21:13Z</time>
      </trkpt>
      <trkpt lat="42.99509" lon="0.23674">
        <ele>1319.44</ele>
        <time>2017-09-03T12:21:21Z</time>
      </trkpt>
      <trkpt lat="42.99508" lon="0.2369">
        <ele>1316.81</ele>
        <time>2017-09-03T12:21:35Z</time>
      </trkpt>
      <trkpt lat="42.99505" lon="0.23703">
        <ele>1315.02</ele>
        <time>2017-09-03T12:21:48Z</time>
      </trkpt>
      <trkpt lat="42.99501" lon="0.23715">
        <ele>1313.73</ele>
        <time>2017-09-03T12:21:59Z</time>
      </trkpt>
      <trkpt lat="42.995" lon="0.23719">
        <ele>1313.26</ele>
        <time>2017-09-03T12:22:03Z</time>
      </trkpt>
      <trkpt lat="42.99499" lon="0.23726">
        <ele>1312.7</ele>
        <time>2017-09-03T12:22:09Z</time>
      </trkpt>
      <trkpt lat="42.99498" lon="0.23733">
        <ele>1312.16</ele>
        <time>2017-09-03T12:22:15Z</time>
      </trkpt>
      <trkpt lat="42.99494" lon="0.23743">
        <ele>1311.32</ele>
        <time>2017-09-03T12:22:26Z</time>
      </trkpt>
      <trkpt lat="42.99492" lon="0.23754">
        <ele>1310.3</ele>
        <time>2017-09-03T12:22:37Z</time>
      </trkpt>
      <trkpt lat="42.99489" lon="0.23764">
        <ele>1309.46</ele>
        <time>2017-09-03T12:22:46Z</time>
      </trkpt>
      <trkpt lat="42.99487" lon="0.23779">
        <ele>1308.83</ele>
        <time>2017-09-03T12:23:00Z</time>
      </trkpt>
      <trkpt lat="42.99486" lon="0.23783">
        <ele>1308.3</ele>
        <time>2017-09-03T12:23:05Z</time>
      </trkpt>
      <trkpt lat="42.99482" lon="0.23796">
        <ele>1306.35</ele>
        <time>2017-09-03T12:23:19Z</time>
      </trkpt>
      <trkpt lat="42.99485" lon="0.23804">
        <ele>1304.95</ele>
        <time>2017-09-03T12:23:32Z</time>
      </trkpt>
      <trkpt lat="42.9949" lon="0.23815">
        <ele>1303.55</ele>
        <time>2017-09-03T12:23:47Z</time>
      </trkpt>
      <trkpt lat="42.99493" lon="0.23826">
        <ele>1301.48</ele>
        <time>2017-09-03T12:23:58Z</time>
      </trkpt>
      <trkpt lat="42.99494" lon="0.23836">
        <ele>1299.57</ele>
        <time>2017-09-03T12:24:09Z</time>
      </trkpt>
      <trkpt lat="42.99494" lon="0.23839">
        <ele>1299.42</ele>
        <time>2017-09-03T12:24:11Z</time>
      </trkpt>
      <trkpt lat="42.99495" lon="0.23846">
        <ele>1298.69</ele>
        <time>2017-09-03T12:24:24Z</time>
      </trkpt>
      <trkpt lat="42.99493" lon="0.23849">
        <ele>1297.7</ele>
        <time>2017-09-03T12:25:03Z</time>
      </trkpt>
      <trkpt lat="42.99494" lon="0.23855">
        <ele>1298.1</ele>
        <time>2017-09-03T12:25:08Z</time>
      </trkpt>
      <trkpt lat="42.99496" lon="0.23872">
        <ele>1296.96</ele>
        <time>2017-09-03T12:25:22Z</time>
      </trkpt>
      <trkpt lat="42.99496" lon="0.23874">
        <ele>1296.86</ele>
        <time>2017-09-03T12:25:23Z</time>
      </trkpt>
      <trkpt lat="42.99496" lon="0.23891">
        <ele>1295.19</ele>
        <time>2017-09-03T12:25:35Z</time>
      </trkpt>
      <trkpt lat="42.99495" lon="0.23902">
        <ele>1293.85</ele>
        <time>2017-09-03T12:25:43Z</time>
      </trkpt>
      <trkpt lat="42.99496" lon="0.23908">
        <ele>1293.56</ele>
        <time>2017-09-03T12:25:47Z</time>
      </trkpt>
      <trkpt lat="42.99497" lon="0.23916">
        <ele>1293.21</ele>
        <time>2017-09-03T12:25:52Z</time>
      </trkpt>
      <trkpt lat="42.99497" lon="0.23919">
        <ele>1293</ele>
        <time>2017-09-03T12:25:54Z</time>
      </trkpt>
      <trkpt lat="42.99497" lon="0.23926">
        <ele>1292.36</ele>
        <time>2017-09-03T12:26:00Z</time>
      </trkpt>
      <trkpt lat="42.99498" lon="0.23929">
        <ele>1291.93</ele>
        <time>2017-09-03T12:26:03Z</time>
      </trkpt>
      <trkpt lat="42.99503" lon="0.2394">
        <ele>1290.98</ele>
        <time>2017-09-03T12:26:12Z</time>
      </trkpt>
      <trkpt lat="42.99503" lon="0.23944">
        <ele>1290.6</ele>
        <time>2017-09-03T12:26:15Z</time>
      </trkpt>
      <trkpt lat="42.99503" lon="0.23947">
        <ele>1290.15</ele>
        <time>2017-09-03T12:26:18Z</time>
      </trkpt>
      <trkpt lat="42.99504" lon="0.23956">
        <ele>1289.31</ele>
        <time>2017-09-03T12:26:24Z</time>
      </trkpt>
      <trkpt lat="42.99503" lon="0.23967">
        <ele>1288.91</ele>
        <time>2017-09-03T12:26:31Z</time>
      </trkpt>
      <trkpt lat="42.99502" lon="0.23969">
        <ele>1288.79</ele>
        <time>2017-09-03T12:26:33Z</time>
      </trkpt>
      <trkpt lat="42.995" lon="0.23976">
        <ele>1288.37</ele>
        <time>2017-09-03T12:26:38Z</time>
      </trkpt>
      <trkpt lat="42.99499" lon="0.23987">
        <ele>1287.35</ele>
        <time>2017-09-03T12:26:46Z</time>
      </trkpt>
      <trkpt lat="42.99498" lon="0.23995">
        <ele>1285.74</ele>
        <time>2017-09-03T12:26:58Z</time>
      </trkpt>
      <trkpt lat="42.99499" lon="0.23999">
        <ele>1285.33</ele>
        <time>2017-09-03T12:27:29Z</time>
      </trkpt>
      <trkpt lat="42.99499" lon="0.24002">
        <ele>1285.31</ele>
        <time>2017-09-03T12:27:31Z</time>
      </trkpt>
      <trkpt lat="42.99499" lon="0.24019">
        <ele>1284.27</ele>
        <time>2017-09-03T12:27:44Z</time>
      </trkpt>
      <trkpt lat="42.99499" lon="0.24022">
        <ele>1283.94</ele>
        <time>2017-09-03T12:27:46Z</time>
      </trkpt>
      <trkpt lat="42.995" lon="0.24044">
        <ele>1282.97</ele>
        <time>2017-09-03T12:28:00Z</time>
      </trkpt>
      <trkpt lat="42.99502" lon="0.24062">
        <ele>1281.71</ele>
        <time>2017-09-03T12:28:11Z</time>
      </trkpt>
      <trkpt lat="42.995" lon="0.24073">
        <ele>1281.43</ele>
        <time>2017-09-03T12:28:18Z</time>
      </trkpt>
      <trkpt lat="42.99495" lon="0.24089">
        <ele>1280.33</ele>
        <time>2017-09-03T12:28:32Z</time>
      </trkpt>
      <trkpt lat="42.99495" lon="0.24091">
        <ele>1280.07</ele>
        <time>2017-09-03T12:28:34Z</time>
      </trkpt>
      <trkpt lat="42.99493" lon="0.24098">
        <ele>1279.29</ele>
        <time>2017-09-03T12:28:43Z</time>
      </trkpt>
      <trkpt lat="42.99489" lon="0.24112">
        <ele>1278.89</ele>
        <time>2017-09-03T12:28:54Z</time>
      </trkpt>
      <trkpt lat="42.99488" lon="0.24118">
        <ele>1278.66</ele>
        <time>2017-09-03T12:29:13Z</time>
      </trkpt>
      <trkpt lat="42.99486" lon="0.24126">
        <ele>1278.39</ele>
        <time>2017-09-03T12:29:24Z</time>
      </trkpt>
      <trkpt lat="42.99483" lon="0.24136">
        <ele>1278.71</ele>
        <time>2017-09-03T12:29:36Z</time>
      </trkpt>
      <trkpt lat="42.99482" lon="0.24147">
        <ele>1278.58</ele>
        <time>2017-09-03T12:29:47Z</time>
      </trkpt>
      <trkpt lat="42.99479" lon="0.24153">
        <ele>1278.37</ele>
        <time>2017-09-03T12:29:54Z</time>
      </trkpt>
      <trkpt lat="42.99477" lon="0.24155">
        <ele>1278.47</ele>
        <time>2017-09-03T12:30:13Z</time>
      </trkpt>
      <trkpt lat="42.99474" lon="0.24162">
        <ele>1278.37</ele>
        <time>2017-09-03T12:30:20Z</time>
      </trkpt>
      <trkpt lat="42.99468" lon="0.2418">
        <ele>1277.87</ele>
        <time>2017-09-03T12:30:32Z</time>
      </trkpt>
      <trkpt lat="42.99464" lon="0.24186">
        <ele>1277.71</ele>
        <time>2017-09-03T12:30:37Z</time>
      </trkpt>
      <trkpt lat="42.99457" lon="0.242">
        <ele>1277.51</ele>
        <time>2017-09-03T12:30:47Z</time>
      </trkpt>
      <trkpt lat="42.99453" lon="0.24205">
        <ele>1277.09</ele>
        <time>2017-09-03T12:30:53Z</time>
      </trkpt>
      <trkpt lat="42.99452" lon="0.24207">
        <ele>1276.88</ele>
        <time>2017-09-03T12:30:55Z</time>
      </trkpt>
      <trkpt lat="42.99442" lon="0.24222">
        <ele>1275.89</ele>
        <time>2017-09-03T12:31:07Z</time>
      </trkpt>
      <trkpt lat="42.9944" lon="0.24225">
        <ele>1275.48</ele>
        <time>2017-09-03T12:31:23Z</time>
      </trkpt>
      <trkpt lat="42.99441" lon="0.24227">
        <ele>1275.36</ele>
        <time>2017-09-03T12:31:59Z</time>
      </trkpt>
      <trkpt lat="42.99441" lon="0.24228">
        <ele>1275.21</ele>
        <time>2017-09-03T12:32:36Z</time>
      </trkpt>
      <trkpt lat="42.99441" lon="0.24227">
        <ele>1274.99</ele>
        <time>2017-09-03T12:33:13Z</time>
      </trkpt>
      <trkpt lat="42.99436" lon="0.24231">
        <ele>1274.28</ele>
        <time>2017-09-03T12:33:31Z</time>
      </trkpt>
      <trkpt lat="42.99428" lon="0.24231">
        <ele>1271.54</ele>
        <time>2017-09-03T12:33:49Z</time>
      </trkpt>
      <trkpt lat="42.99424" lon="0.24226">
        <ele>1268.7</ele>
        <time>2017-09-03T12:34:01Z</time>
      </trkpt>
      <trkpt lat="42.99419" lon="0.2422">
        <ele>1265.47</ele>
        <time>2017-09-03T12:34:15Z</time>
      </trkpt>
      <trkpt lat="42.99416" lon="0.24213">
        <ele>1262.41</ele>
        <time>2017-09-03T12:34:26Z</time>
      </trkpt>
      <trkpt lat="42.99414" lon="0.24207">
        <ele>1259.41</ele>
        <time>2017-09-03T12:34:37Z</time>
      </trkpt>
      <trkpt lat="42.99409" lon="0.24204">
        <ele>1256.34</ele>
        <time>2017-09-03T12:34:49Z</time>
      </trkpt>
      <trkpt lat="42.99407" lon="0.24193">
        <ele>1253.29</ele>
        <time>2017-09-03T12:35:01Z</time>
      </trkpt>
      <trkpt lat="42.99402" lon="0.24187">
        <ele>1250.18</ele>
        <time>2017-09-03T12:35:14Z</time>
      </trkpt>
      <trkpt lat="42.99402" lon="0.24175">
        <ele>1247.16</ele>
        <time>2017-09-03T12:35:27Z</time>
      </trkpt>
      <trkpt lat="42.99401" lon="0.24164">
        <ele>1244.53</ele>
        <time>2017-09-03T12:35:39Z</time>
      </trkpt>
      <trkpt lat="42.99399" lon="0.24151">
        <ele>1241.38</ele>
        <time>2017-09-03T12:35:53Z</time>
      </trkpt>
      <trkpt lat="42.99402" lon="0.24136">
        <ele>1238.22</ele>
        <time>2017-09-03T12:36:07Z</time>
      </trkpt>
      <trkpt lat="42.99404" lon="0.24129">
        <ele>1235.33</ele>
        <time>2017-09-03T12:36:23Z</time>
      </trkpt>
      <trkpt lat="42.994" lon="0.24122">
        <ele>1233.48</ele>
        <time>2017-09-03T12:36:54Z</time>
      </trkpt>
      <trkpt lat="42.99396" lon="0.24115">
        <ele>1231.2</ele>
        <time>2017-09-03T12:37:09Z</time>
      </trkpt>
      <trkpt lat="42.99397" lon="0.241">
        <ele>1228.06</ele>
        <time>2017-09-03T12:37:23Z</time>
      </trkpt>
      <trkpt lat="42.99399" lon="0.24092">
        <ele>1224.81</ele>
        <time>2017-09-03T12:37:39Z</time>
      </trkpt>
      <trkpt lat="42.99401" lon="0.24089">
        <ele>1223.58</ele>
        <time>2017-09-03T12:38:04Z</time>
      </trkpt>
      <trkpt lat="42.99399" lon="0.2408">
        <ele>1221.25</ele>
        <time>2017-09-03T12:38:21Z</time>
      </trkpt>
      <trkpt lat="42.99396" lon="0.24071">
        <ele>1218.41</ele>
        <time>2017-09-03T12:38:42Z</time>
      </trkpt>
      <trkpt lat="42.99393" lon="0.24066">
        <ele>1216.43</ele>
        <time>2017-09-03T12:39:00Z</time>
      </trkpt>
      <trkpt lat="42.9939" lon="0.24058">
        <ele>1214.43</ele>
        <time>2017-09-03T12:39:15Z</time>
      </trkpt>
      <trkpt lat="42.99383" lon="0.24057">
        <ele>1211.96</ele>
        <time>2017-09-03T12:39:37Z</time>
      </trkpt>
      <trkpt lat="42.99377" lon="0.24051">
        <ele>1208.85</ele>
        <time>2017-09-03T12:39:53Z</time>
      </trkpt>
      <trkpt lat="42.99369" lon="0.2405">
        <ele>1205.6</ele>
        <time>2017-09-03T12:40:03Z</time>
      </trkpt>
      <trkpt lat="42.99363" lon="0.24048">
        <ele>1202.54</ele>
        <time>2017-09-03T12:40:14Z</time>
      </trkpt>
      <trkpt lat="42.99356" lon="0.2404">
        <ele>1200.7</ele>
        <time>2017-09-03T12:40:31Z</time>
      </trkpt>
      <trkpt lat="42.99354" lon="0.24038">
        <ele>1200.23</ele>
        <time>2017-09-03T12:40:33Z</time>
      </trkpt>
      <trkpt lat="42.99347" lon="0.24032">
        <ele>1197.82</ele>
        <time>2017-09-03T12:40:42Z</time>
      </trkpt>
      <trkpt lat="42.99334" lon="0.24027">
        <ele>1194.37</ele>
        <time>2017-09-03T12:40:55Z</time>
      </trkpt>
      <trkpt lat="42.99319" lon="0.2402">
        <ele>1192.52</ele>
        <time>2017-09-03T12:41:12Z</time>
      </trkpt>
      <trkpt lat="42.99318" lon="0.24019">
        <ele>1192.41</ele>
        <time>2017-09-03T12:41:13Z</time>
      </trkpt>
      <trkpt lat="42.99303" lon="0.24005">
        <ele>1190.34</ele>
        <time>2017-09-03T12:41:28Z</time>
      </trkpt>
      <trkpt lat="42.99291" lon="0.23992">
        <ele>1189.23</ele>
        <time>2017-09-03T12:41:41Z</time>
      </trkpt>
      <trkpt lat="42.99279" lon="0.23985">
        <ele>1188.58</ele>
        <time>2017-09-03T12:41:51Z</time>
      </trkpt>
      <trkpt lat="42.99266" lon="0.2398">
        <ele>1187.42</ele>
        <time>2017-09-03T12:42:02Z</time>
      </trkpt>
      <trkpt lat="42.99264" lon="0.23979">
        <ele>1186.54</ele>
        <time>2017-09-03T12:42:19Z</time>
      </trkpt>
      <trkpt lat="42.9926" lon="0.23978">
        <ele>1186.23</ele>
        <time>2017-09-03T12:42:34Z</time>
      </trkpt>
      <trkpt lat="42.99246" lon="0.23978">
        <ele>1185.86</ele>
        <time>2017-09-03T12:42:43Z</time>
      </trkpt>
      <trkpt lat="42.99239" lon="0.23976">
        <ele>1185.61</ele>
        <time>2017-09-03T12:42:49Z</time>
      </trkpt>
      <trkpt lat="42.99235" lon="0.23975">
        <ele>1185.16</ele>
        <time>2017-09-03T12:42:53Z</time>
      </trkpt>
      <trkpt lat="42.9923" lon="0.23974">
        <ele>1184.38</ele>
        <time>2017-09-03T12:42:59Z</time>
      </trkpt>
      <trkpt lat="42.99231" lon="0.23972">
        <ele>1183.27</ele>
        <time>2017-09-03T12:43:12Z</time>
      </trkpt>
      <trkpt lat="42.99231" lon="0.23971">
        <ele>1183.82</ele>
        <time>2017-09-03T12:43:34Z</time>
      </trkpt>
      <trkpt lat="42.99226" lon="0.23971">
        <ele>1183.33</ele>
        <time>2017-09-03T12:43:39Z</time>
      </trkpt>
      <trkpt lat="42.99215" lon="0.23977">
        <ele>1181.4</ele>
        <time>2017-09-03T12:43:51Z</time>
      </trkpt>
      <trkpt lat="42.99213" lon="0.23978">
        <ele>1180.69</ele>
        <time>2017-09-03T12:43:54Z</time>
      </trkpt>
      <trkpt lat="42.99204" lon="0.23983">
        <ele>1178.08</ele>
        <time>2017-09-03T12:44:07Z</time>
      </trkpt>
      <trkpt lat="42.99194" lon="0.23987">
        <ele>1175.35</ele>
        <time>2017-09-03T12:44:23Z</time>
      </trkpt>
      <trkpt lat="42.99185" lon="0.23987">
        <ele>1172.99</ele>
        <time>2017-09-03T12:44:34Z</time>
      </trkpt>
      <trkpt lat="42.99183" lon="0.23985">
        <ele>1171.8</ele>
        <time>2017-09-03T12:44:55Z</time>
      </trkpt>
      <trkpt lat="42.9919" lon="0.23973">
        <ele>1169.57</ele>
        <time>2017-09-03T12:45:16Z</time>
      </trkpt>
      <trkpt lat="42.99191" lon="0.23962">
        <ele>1166.37</ele>
        <time>2017-09-03T12:45:29Z</time>
      </trkpt>
      <trkpt lat="42.99196" lon="0.23957">
        <ele>1162.94</ele>
        <time>2017-09-03T12:45:39Z</time>
      </trkpt>
      <trkpt lat="42.99197" lon="0.23956">
        <ele>1162.33</ele>
        <time>2017-09-03T12:45:41Z</time>
      </trkpt>
      <trkpt lat="42.99199" lon="0.23949">
        <ele>1159.54</ele>
        <time>2017-09-03T12:45:53Z</time>
      </trkpt>
      <trkpt lat="42.99202" lon="0.2395">
        <ele>1157.52</ele>
        <time>2017-09-03T12:46:26Z</time>
      </trkpt>
      <trkpt lat="42.99199" lon="0.23945">
        <ele>1155.31</ele>
        <time>2017-09-03T12:46:41Z</time>
      </trkpt>
      <trkpt lat="42.99191" lon="0.23949">
        <ele>1152.76</ele>
        <time>2017-09-03T12:47:03Z</time>
      </trkpt>
      <trkpt lat="42.99177" lon="0.23946">
        <ele>1149.62</ele>
        <time>2017-09-03T12:47:25Z</time>
      </trkpt>
      <trkpt lat="42.99182" lon="0.23934">
        <ele>1146.83</ele>
        <time>2017-09-03T12:47:40Z</time>
      </trkpt>
      <trkpt lat="42.99193" lon="0.23926">
        <ele>1143.67</ele>
        <time>2017-09-03T12:47:56Z</time>
      </trkpt>
      <trkpt lat="42.992" lon="0.2392">
        <ele>1140.58</ele>
        <time>2017-09-03T12:48:12Z</time>
      </trkpt>
      <trkpt lat="42.99203" lon="0.23915">
        <ele>1137.37</ele>
        <time>2017-09-03T12:48:29Z</time>
      </trkpt>
      <trkpt lat="42.99205" lon="0.23907">
        <ele>1134.6</ele>
        <time>2017-09-03T12:48:44Z</time>
      </trkpt>
      <trkpt lat="42.99198" lon="0.23904">
        <ele>1131.57</ele>
        <time>2017-09-03T12:48:56Z</time>
      </trkpt>
      <trkpt lat="42.99194" lon="0.23903">
        <ele>1128.56</ele>
        <time>2017-09-03T12:49:13Z</time>
      </trkpt>
      <trkpt lat="42.99185" lon="0.23899">
        <ele>1125.74</ele>
        <time>2017-09-03T12:49:32Z</time>
      </trkpt>
      <trkpt lat="42.99181" lon="0.23893">
        <ele>1122.73</ele>
        <time>2017-09-03T12:49:49Z</time>
      </trkpt>
      <trkpt lat="42.9918" lon="0.23885">
        <ele>1119.72</ele>
        <time>2017-09-03T12:50:06Z</time>
      </trkpt>
      <trkpt lat="42.99176" lon="0.23873">
        <ele>1116.65</ele>
        <time>2017-09-03T12:50:24Z</time>
      </trkpt>
      <trkpt lat="42.99176" lon="0.2386">
        <ele>1113.48</ele>
        <time>2017-09-03T12:50:43Z</time>
      </trkpt>
      <trkpt lat="42.99182" lon="0.23846">
        <ele>1110.47</ele>
        <time>2017-09-03T12:51:00Z</time>
      </trkpt>
      <trkpt lat="42.99182" lon="0.23837">
        <ele>1107.4</ele>
        <time>2017-09-03T12:51:15Z</time>
      </trkpt>
      <trkpt lat="42.99182" lon="0.23827">
        <ele>1104.22</ele>
        <time>2017-09-03T12:51:30Z</time>
      </trkpt>
      <trkpt lat="42.99185" lon="0.23819">
        <ele>1101.22</ele>
        <time>2017-09-03T12:51:41Z</time>
      </trkpt>
      <trkpt lat="42.99193" lon="0.23807">
        <ele>1097.87</ele>
        <time>2017-09-03T12:52:05Z</time>
      </trkpt>
      <trkpt lat="42.99194" lon="0.23798">
        <ele>1094.78</ele>
        <time>2017-09-03T12:52:15Z</time>
      </trkpt>
      <trkpt lat="42.99195" lon="0.23788">
        <ele>1091.73</ele>
        <time>2017-09-03T12:52:30Z</time>
      </trkpt>
      <trkpt lat="42.99196" lon="0.23777">
        <ele>1088.57</ele>
        <time>2017-09-03T12:52:46Z</time>
      </trkpt>
      <trkpt lat="42.99194" lon="0.23767">
        <ele>1085.56</ele>
        <time>2017-09-03T12:52:57Z</time>
      </trkpt>
      <trkpt lat="42.99192" lon="0.23757">
        <ele>1082.5</ele>
        <time>2017-09-03T12:53:09Z</time>
      </trkpt>
      <trkpt lat="42.99185" lon="0.23748">
        <ele>1079.26</ele>
        <time>2017-09-03T12:53:21Z</time>
      </trkpt>
      <trkpt lat="42.99181" lon="0.23744">
        <ele>1077.91</ele>
        <time>2017-09-03T12:53:27Z</time>
      </trkpt>
      <trkpt lat="42.99171" lon="0.23737">
        <ele>1074.36</ele>
        <time>2017-09-03T12:53:41Z</time>
      </trkpt>
      <trkpt lat="42.9917" lon="0.23738">
        <ele>1072.21</ele>
        <time>2017-09-03T12:54:03Z</time>
      </trkpt>
      <trkpt lat="42.99168" lon="0.23733">
        <ele>1072.17</ele>
        <time>2017-09-03T12:54:28Z</time>
      </trkpt>
      <trkpt lat="42.99167" lon="0.23736">
        <ele>1072.29</ele>
        <time>2017-09-03T12:54:57Z</time>
      </trkpt>
      <trkpt lat="42.99163" lon="0.23735">
        <ele>1072.55</ele>
        <time>2017-09-03T12:55:29Z</time>
      </trkpt>
      <trkpt lat="42.99164" lon="0.23738">
        <ele>1072.21</ele>
        <time>2017-09-03T12:55:57Z</time>
      </trkpt>
      <trkpt lat="42.99165" lon="0.23738">
        <ele>1072.09</ele>
        <time>2017-09-03T12:56:03Z</time>
      </trkpt>
      <trkpt lat="42.99172" lon="0.23737">
        <ele>1072.22</ele>
        <time>2017-09-03T12:56:29Z</time>
      </trkpt>
      <trkpt lat="42.99168" lon="0.23736">
        <ele>1071.03</ele>
        <time>2017-09-03T12:56:49Z</time>
      </trkpt>
      <trkpt lat="42.99163" lon="0.23725">
        <ele>1068</ele>
        <time>2017-09-03T12:57:05Z</time>
      </trkpt>
      <trkpt lat="42.99158" lon="0.23716">
        <ele>1064.99</ele>
        <time>2017-09-03T12:57:19Z</time>
      </trkpt>
      <trkpt lat="42.99155" lon="0.23704">
        <ele>1063.16</ele>
        <time>2017-09-03T12:57:44Z</time>
      </trkpt>
      <trkpt lat="42.99154" lon="0.23696">
        <ele>1060.12</ele>
        <time>2017-09-03T12:57:54Z</time>
      </trkpt>
      <trkpt lat="42.99154" lon="0.23694">
        <ele>1059.49</ele>
        <time>2017-09-03T12:57:57Z</time>
      </trkpt>
      <trkpt lat="42.99147" lon="0.23678">
        <ele>1056.65</ele>
        <time>2017-09-03T12:58:16Z</time>
      </trkpt>
      <trkpt lat="42.99146" lon="0.23675">
        <ele>1056.21</ele>
        <time>2017-09-03T12:58:19Z</time>
      </trkpt>
      <trkpt lat="42.99143" lon="0.2367">
        <ele>1055.6</ele>
        <time>2017-09-03T12:58:23Z</time>
      </trkpt>
      <trkpt lat="42.99135" lon="0.2366">
        <ele>1052.42</ele>
        <time>2017-09-03T12:58:38Z</time>
      </trkpt>
      <trkpt lat="42.99126" lon="0.23658">
        <ele>1049.26</ele>
        <time>2017-09-03T12:58:51Z</time>
      </trkpt>
      <trkpt lat="42.99122" lon="0.23662">
        <ele>1048.01</ele>
        <time>2017-09-03T12:59:14Z</time>
      </trkpt>
      <trkpt lat="42.99118" lon="0.23663">
        <ele>1047.38</ele>
        <time>2017-09-03T12:59:29Z</time>
      </trkpt>
      <trkpt lat="42.99113" lon="0.23662">
        <ele>1047.14</ele>
        <time>2017-09-03T12:59:34Z</time>
      </trkpt>
      <trkpt lat="42.9911" lon="0.2366">
        <ele>1047.23</ele>
        <time>2017-09-03T12:59:38Z</time>
      </trkpt>
      <trkpt lat="42.99104" lon="0.23657">
        <ele>1047.34</ele>
        <time>2017-09-03T12:59:43Z</time>
      </trkpt>
      <trkpt lat="42.99089" lon="0.2365">
        <ele>1046.81</ele>
        <time>2017-09-03T12:59:56Z</time>
      </trkpt>
      <trkpt lat="42.99081" lon="0.2365">
        <ele>1046.73</ele>
        <time>2017-09-03T13:00:05Z</time>
      </trkpt>
      <trkpt lat="42.99077" lon="0.23649">
        <ele>1046.46</ele>
        <time>2017-09-03T13:00:09Z</time>
      </trkpt>
      <trkpt lat="42.99069" lon="0.23642">
        <ele>1046.43</ele>
        <time>2017-09-03T13:00:19Z</time>
      </trkpt>
      <trkpt lat="42.99059" lon="0.23629">
        <ele>1045.01</ele>
        <time>2017-09-03T13:00:29Z</time>
      </trkpt>
      <trkpt lat="42.99053" lon="0.23621">
        <ele>1044.2</ele>
        <time>2017-09-03T13:00:35Z</time>
      </trkpt>
      <trkpt lat="42.99044" lon="0.23611">
        <ele>1042.96</ele>
        <time>2017-09-03T13:00:47Z</time>
      </trkpt>
      <trkpt lat="42.99029" lon="0.23598">
        <ele>1040.96</ele>
        <time>2017-09-03T13:01:02Z</time>
      </trkpt>
      <trkpt lat="42.99021" lon="0.2359">
        <ele>1040.07</ele>
        <time>2017-09-03T13:01:10Z</time>
      </trkpt>
      <trkpt lat="42.99015" lon="0.23584">
        <ele>1039.04</ele>
        <time>2017-09-03T13:01:17Z</time>
      </trkpt>
      <trkpt lat="42.98996" lon="0.23575">
        <ele>1038.06</ele>
        <time>2017-09-03T13:01:31Z</time>
      </trkpt>
      <trkpt lat="42.98984" lon="0.23568">
        <ele>1036.79</ele>
        <time>2017-09-03T13:01:42Z</time>
      </trkpt>
      <trkpt lat="42.98976" lon="0.23567">
        <ele>1036.11</ele>
        <time>2017-09-03T13:01:50Z</time>
      </trkpt>
      <trkpt lat="42.9897" lon="0.23567">
        <ele>1035.39</ele>
        <time>2017-09-03T13:01:55Z</time>
      </trkpt>
      <trkpt lat="42.98957" lon="0.2357">
        <ele>1033.86</ele>
        <time>2017-09-03T13:02:07Z</time>
      </trkpt>
      <trkpt lat="42.98945" lon="0.23571">
        <ele>1032.46</ele>
        <time>2017-09-03T13:02:17Z</time>
      </trkpt>
      <trkpt lat="42.9894" lon="0.23574">
        <ele>1031.77</ele>
        <time>2017-09-03T13:02:22Z</time>
      </trkpt>
      <trkpt lat="42.9893" lon="0.23579">
        <ele>1030.3</ele>
        <time>2017-09-03T13:02:35Z</time>
      </trkpt>
      <trkpt lat="42.9893" lon="0.23581">
        <ele>1030.22</ele>
        <time>2017-09-03T13:02:36Z</time>
      </trkpt>
      <trkpt lat="42.98921" lon="0.23585">
        <ele>1029.63</ele>
        <time>2017-09-03T13:02:47Z</time>
      </trkpt>
      <trkpt lat="42.98914" lon="0.23586">
        <ele>1029.13</ele>
        <time>2017-09-03T13:02:54Z</time>
      </trkpt>
      <trkpt lat="42.98911" lon="0.23589">
        <ele>1028.75</ele>
        <time>2017-09-03T13:02:56Z</time>
      </trkpt>
      <trkpt lat="42.98906" lon="0.23594">
        <ele>1027.87</ele>
        <time>2017-09-03T13:03:02Z</time>
      </trkpt>
      <trkpt lat="42.98893" lon="0.23603">
        <ele>1026.19</ele>
        <time>2017-09-03T13:03:17Z</time>
      </trkpt>
      <trkpt lat="42.9888" lon="0.23616">
        <ele>1023.85</ele>
        <time>2017-09-03T13:03:31Z</time>
      </trkpt>
      <trkpt lat="42.98874" lon="0.23623">
        <ele>1022.55</ele>
        <time>2017-09-03T13:03:38Z</time>
      </trkpt>
      <trkpt lat="42.98863" lon="0.23628">
        <ele>1020.74</ele>
        <time>2017-09-03T13:03:50Z</time>
      </trkpt>
      <trkpt lat="42.98854" lon="0.23636">
        <ele>1019.6</ele>
        <time>2017-09-03T13:03:59Z</time>
      </trkpt>
      <trkpt lat="42.98842" lon="0.23643">
        <ele>1018.02</ele>
        <time>2017-09-03T13:04:10Z</time>
      </trkpt>
      <trkpt lat="42.98827" lon="0.23648">
        <ele>1014.53</ele>
        <time>2017-09-03T13:04:26Z</time>
      </trkpt>
      <trkpt lat="42.98816" lon="0.23656">
        <ele>1011.4</ele>
        <time>2017-09-03T13:04:39Z</time>
      </trkpt>
      <trkpt lat="42.98803" lon="0.2366">
        <ele>1008.35</ele>
        <time>2017-09-03T13:04:53Z</time>
      </trkpt>
      <trkpt lat="42.98793" lon="0.23663">
        <ele>1006.17</ele>
        <time>2017-09-03T13:05:02Z</time>
      </trkpt>
      <trkpt lat="42.98781" lon="0.23662">
        <ele>1004.26</ele>
        <time>2017-09-03T13:05:12Z</time>
      </trkpt>
      <trkpt lat="42.98767" lon="0.23664">
        <ele>1001.09</ele>
        <time>2017-09-03T13:05:27Z</time>
      </trkpt>
      <trkpt lat="42.98764" lon="0.23666">
        <ele>1000.58</ele>
        <time>2017-09-03T13:05:30Z</time>
      </trkpt>
      <trkpt lat="42.98751" lon="0.2367">
        <ele>998.01</ele>
        <time>2017-09-03T13:05:42Z</time>
      </trkpt>
      <trkpt lat="42.98738" lon="0.23673">
        <ele>994.69</ele>
        <time>2017-09-03T13:05:55Z</time>
      </trkpt>
      <trkpt lat="42.98737" lon="0.23673">
        <ele>994.46</ele>
        <time>2017-09-03T13:05:56Z</time>
      </trkpt>
      <trkpt lat="42.9872" lon="0.23679">
        <ele>991.86</ele>
        <time>2017-09-03T13:06:11Z</time>
      </trkpt>
      <trkpt lat="42.98709" lon="0.23693">
        <ele>990.62</ele>
        <time>2017-09-03T13:06:23Z</time>
      </trkpt>
      <trkpt lat="42.98699" lon="0.23706">
        <ele>989.19</ele>
        <time>2017-09-03T13:06:37Z</time>
      </trkpt>
      <trkpt lat="42.98686" lon="0.23714">
        <ele>987.04</ele>
        <time>2017-09-03T13:06:51Z</time>
      </trkpt>
      <trkpt lat="42.98684" lon="0.23716">
        <ele>986.79</ele>
        <time>2017-09-03T13:06:53Z</time>
      </trkpt>
      <trkpt lat="42.98681" lon="0.23718">
        <ele>986.35</ele>
        <time>2017-09-03T13:06:56Z</time>
      </trkpt>
      <trkpt lat="42.98674" lon="0.23725">
        <ele>985.39</ele>
        <time>2017-09-03T13:07:03Z</time>
      </trkpt>
      <trkpt lat="42.98668" lon="0.23732">
        <ele>984.72</ele>
        <time>2017-09-03T13:07:09Z</time>
      </trkpt>
      <trkpt lat="42.98662" lon="0.23737">
        <ele>983.48</ele>
        <time>2017-09-03T13:07:15Z</time>
      </trkpt>
      <trkpt lat="42.98655" lon="0.23744">
        <ele>982.06</ele>
        <time>2017-09-03T13:07:22Z</time>
      </trkpt>
      <trkpt lat="42.98651" lon="0.23745">
        <ele>981.53</ele>
        <time>2017-09-03T13:07:25Z</time>
      </trkpt>
      <trkpt lat="42.98645" lon="0.23758">
        <ele>980.41</ele>
        <time>2017-09-03T13:07:33Z</time>
      </trkpt>
      <trkpt lat="42.98643" lon="0.23759">
        <ele>980.19</ele>
        <time>2017-09-03T13:07:35Z</time>
      </trkpt>
      <trkpt lat="42.98632" lon="0.23766">
        <ele>979.53</ele>
        <time>2017-09-03T13:07:45Z</time>
      </trkpt>
      <trkpt lat="42.9863" lon="0.23768">
        <ele>979.43</ele>
        <time>2017-09-03T13:07:47Z</time>
      </trkpt>
      <trkpt lat="42.98623" lon="0.23775">
        <ele>979.13</ele>
        <time>2017-09-03T13:07:54Z</time>
      </trkpt>
      <trkpt lat="42.98619" lon="0.23781">
        <ele>978.88</ele>
        <time>2017-09-03T13:07:59Z</time>
      </trkpt>
      <trkpt lat="42.98613" lon="0.23792">
        <ele>978.5</ele>
        <time>2017-09-03T13:08:08Z</time>
      </trkpt>
      <trkpt lat="42.98604" lon="0.23816">
        <ele>977.46</ele>
        <time>2017-09-03T13:08:26Z</time>
      </trkpt>
      <trkpt lat="42.98587" lon="0.23835">
        <ele>975.35</ele>
        <time>2017-09-03T13:08:46Z</time>
      </trkpt>
      <trkpt lat="42.98571" lon="0.23848">
        <ele>973.46</ele>
        <time>2017-09-03T13:09:02Z</time>
      </trkpt>
      <trkpt lat="42.98552" lon="0.23863">
        <ele>973.39</ele>
        <time>2017-09-03T13:09:22Z</time>
      </trkpt>
      <trkpt lat="42.98532" lon="0.23878">
        <ele>973.51</ele>
        <time>2017-09-03T13:09:43Z</time>
      </trkpt>
      <trkpt lat="42.98515" lon="0.23893">
        <ele>972.77</ele>
        <time>2017-09-03T13:10:00Z</time>
      </trkpt>
      <trkpt lat="42.98507" lon="0.23899">
        <ele>972.59</ele>
        <time>2017-09-03T13:10:07Z</time>
      </trkpt>
      <trkpt lat="42.98505" lon="0.23899">
        <ele>972.58</ele>
        <time>2017-09-03T13:10:09Z</time>
      </trkpt>
      <trkpt lat="42.98501" lon="0.239">
        <ele>972.57</ele>
        <time>2017-09-03T13:10:13Z</time>
      </trkpt>
      <trkpt lat="42.98498" lon="0.23903">
        <ele>972.52</ele>
        <time>2017-09-03T13:10:16Z</time>
      </trkpt>
      <trkpt lat="42.98485" lon="0.2391">
        <ele>971.89</ele>
        <time>2017-09-03T13:10:29Z</time>
      </trkpt>
      <trkpt lat="42.98466" lon="0.23922">
        <ele>969.91</ele>
        <time>2017-09-03T13:10:48Z</time>
      </trkpt>
      <trkpt lat="42.98453" lon="0.23941">
        <ele>968.83</ele>
        <time>2017-09-03T13:11:02Z</time>
      </trkpt>
      <trkpt lat="42.98438" lon="0.23952">
        <ele>967.72</ele>
        <time>2017-09-03T13:11:18Z</time>
      </trkpt>
      <trkpt lat="42.98432" lon="0.23955">
        <ele>967.67</ele>
        <time>2017-09-03T13:11:24Z</time>
      </trkpt>
      <trkpt lat="42.98417" lon="0.23964">
        <ele>967.1</ele>
        <time>2017-09-03T13:11:38Z</time>
      </trkpt>
      <trkpt lat="42.98404" lon="0.23971">
        <ele>966.31</ele>
        <time>2017-09-03T13:11:51Z</time>
      </trkpt>
      <trkpt lat="42.98395" lon="0.23981">
        <ele>966.27</ele>
        <time>2017-09-03T13:11:59Z</time>
      </trkpt>
      <trkpt lat="42.98376" lon="0.23993">
        <ele>965.97</ele>
        <time>2017-09-03T13:12:17Z</time>
      </trkpt>
      <trkpt lat="42.9836" lon="0.24013">
        <ele>964.49</ele>
        <time>2017-09-03T13:12:35Z</time>
      </trkpt>
      <trkpt lat="42.98347" lon="0.24031">
        <ele>962.84</ele>
        <time>2017-09-03T13:12:51Z</time>
      </trkpt>
      <trkpt lat="42.98344" lon="0.24034">
        <ele>962.43</ele>
        <time>2017-09-03T13:12:55Z</time>
      </trkpt>
      <trkpt lat="42.98341" lon="0.24036">
        <ele>961.77</ele>
        <time>2017-09-03T13:12:58Z</time>
      </trkpt>
      <trkpt lat="42.98337" lon="0.24042">
        <ele>961.37</ele>
        <time>2017-09-03T13:13:02Z</time>
      </trkpt>
      <trkpt lat="42.98335" lon="0.24044">
        <ele>961.26</ele>
        <time>2017-09-03T13:13:04Z</time>
      </trkpt>
      <trkpt lat="42.98322" lon="0.24064">
        <ele>958.9</ele>
        <time>2017-09-03T13:13:21Z</time>
      </trkpt>
      <trkpt lat="42.98314" lon="0.24069">
        <ele>956.43</ele>
        <time>2017-09-03T13:13:35Z</time>
      </trkpt>
      <trkpt lat="42.98292" lon="0.24062">
        <ele>954.13</ele>
        <time>2017-09-03T13:13:50Z</time>
      </trkpt>
      <trkpt lat="42.9828" lon="0.24054">
        <ele>953.44</ele>
        <time>2017-09-03T13:13:59Z</time>
      </trkpt>
      <trkpt lat="42.98278" lon="0.24054">
        <ele>953.28</ele>
        <time>2017-09-03T13:14:01Z</time>
      </trkpt>
      <trkpt lat="42.98269" lon="0.24049">
        <ele>952.96</ele>
        <time>2017-09-03T13:14:07Z</time>
      </trkpt>
      <trkpt lat="42.9826" lon="0.24046">
        <ele>952.6</ele>
        <time>2017-09-03T13:14:13Z</time>
      </trkpt>
      <trkpt lat="42.98248" lon="0.24041">
        <ele>952.34</ele>
        <time>2017-09-03T13:14:21Z</time>
      </trkpt>
      <trkpt lat="42.98232" lon="0.24039">
        <ele>952.44</ele>
        <time>2017-09-03T13:14:35Z</time>
      </trkpt>
      <trkpt lat="42.98216" lon="0.24041">
        <ele>952.1</ele>
        <time>2017-09-03T13:14:48Z</time>
      </trkpt>
      <trkpt lat="42.98195" lon="0.24037">
        <ele>949.38</ele>
        <time>2017-09-03T13:15:07Z</time>
      </trkpt>
      <trkpt lat="42.98179" lon="0.24031">
        <ele>946.33</ele>
        <time>2017-09-03T13:15:20Z</time>
      </trkpt>
      <trkpt lat="42.98164" lon="0.24025">
        <ele>943.17</ele>
        <time>2017-09-03T13:15:32Z</time>
      </trkpt>
      <trkpt lat="42.9815" lon="0.24018">
        <ele>940.03</ele>
        <time>2017-09-03T13:15:44Z</time>
      </trkpt>
      <trkpt lat="42.98134" lon="0.24013">
        <ele>936.91</ele>
        <time>2017-09-03T13:15:56Z</time>
      </trkpt>
      <trkpt lat="42.9812" lon="0.24004">
        <ele>933.83</ele>
        <time>2017-09-03T13:16:08Z</time>
      </trkpt>
      <trkpt lat="42.98104" lon="0.23997">
        <ele>930.68</ele>
        <time>2017-09-03T13:16:21Z</time>
      </trkpt>
      <trkpt lat="42.98088" lon="0.23994">
        <ele>927.51</ele>
        <time>2017-09-03T13:16:35Z</time>
      </trkpt>
      <trkpt lat="42.9807" lon="0.23987">
        <ele>924.39</ele>
        <time>2017-09-03T13:16:50Z</time>
      </trkpt>
      <trkpt lat="42.98057" lon="0.2398">
        <ele>921.3</ele>
        <time>2017-09-03T13:17:04Z</time>
      </trkpt>
      <trkpt lat="42.98054" lon="0.23979">
        <ele>920.9</ele>
        <time>2017-09-03T13:17:06Z</time>
      </trkpt>
      <trkpt lat="42.98037" lon="0.23974">
        <ele>917.42</ele>
        <time>2017-09-03T13:17:21Z</time>
      </trkpt>
      <trkpt lat="42.98022" lon="0.23973">
        <ele>914.32</ele>
        <time>2017-09-03T13:17:35Z</time>
      </trkpt>
      <trkpt lat="42.98014" lon="0.23973">
        <ele>912.81</ele>
        <time>2017-09-03T13:17:42Z</time>
      </trkpt>
      <trkpt lat="42.98009" lon="0.23972">
        <ele>911.99</ele>
        <time>2017-09-03T13:17:46Z</time>
      </trkpt>
      <trkpt lat="42.98003" lon="0.23974">
        <ele>911.11</ele>
        <time>2017-09-03T13:17:51Z</time>
      </trkpt>
      <trkpt lat="42.9799" lon="0.23974">
        <ele>907.89</ele>
        <time>2017-09-03T13:18:05Z</time>
      </trkpt>
      <trkpt lat="42.97979" lon="0.23978">
        <ele>905.33</ele>
        <time>2017-09-03T13:18:21Z</time>
      </trkpt>
      <trkpt lat="42.97972" lon="0.23976">
        <ele>904.61</ele>
        <time>2017-09-03T13:18:31Z</time>
      </trkpt>
      <trkpt lat="42.9796" lon="0.23981">
        <ele>904.43</ele>
        <time>2017-09-03T13:18:44Z</time>
      </trkpt>
    </trkseg>
  </trk>
</gpx>